Wetterdaten: Mittwoch, 31.01.2018
Datum Zeit Temp. A. Pool Temp. Feuchte A. Luftdruck Regen Wind Richtung Richtung Sonnenschein ET UV Solar Taupunkt Windchill Windben Empfang
31.01.2018 00:00 1,6 C 4,4 C 97 % 1025,0 hPa 0,0 l/m 2,0 km/h (1 Bft) NO 36 0 min 0,000 mm 0,0 UV-I 0 W/m 1,2 C 1,6 C 3,2 km/h (1 Bft) 100,00 %
31.01.2018 00:02 1,7 C 4,4 C 96 % 1025,1 hPa 0,0 l/m 1,8 km/h (1 Bft) NO 36 0 min 0,000 mm 0,0 UV-I 0 W/m 1,1 C 1,7 C 3,2 km/h (1 Bft) 100,00 %
31.01.2018 00:04 1,7 C 4,4 C 97 % 1025,1 hPa 0,0 l/m 1,0 km/h (0 Bft) NO 36 0 min 0,000 mm 0,0 UV-I 0 W/m 1,3 C 1,7 C 3,2 km/h (1 Bft) 100,00 %
31.01.2018 00:06 1,7 C 4,4 C 97 % 1025,1 hPa 0,0 l/m 0,0 km/h (0 Bft) NO 36 0 min 0,000 mm 0,0 UV-I 0 W/m 1,3 C 1,7 C 0,0 km/h (0 Bft) 100,00 %
31.01.2018 00:08 1,5 C 4,4 C 96 % 1025,0 hPa 0,0 l/m 0,6 km/h (0 Bft) NO 36 0 min 0,000 mm 0,0 UV-I 0 W/m 0,9 C 1,5 C 1,6 km/h (1 Bft) 100,00 %
31.01.2018 00:10 1,4 C 4,4 C 96 % 1025,1 hPa 0,0 l/m 2,6 km/h (1 Bft) O-NO 61 0 min 0,000 mm 0,0 UV-I 0 W/m 0,8 C 1,4 C 3,2 km/h (1 Bft) 100,00 %
31.01.2018 00:12 1,3 C 4,4 C 96 % 1025,0 hPa 0,0 l/m 0,7 km/h (0 Bft) O-NO 61 0 min 0,000 mm 0,0 UV-I 0 W/m 0,7 C 1,3 C 3,2 km/h (1 Bft) 100,00 %
31.01.2018 00:14 1,3 C 4,4 C 96 % 1025,0 hPa 0,0 l/m 0,8 km/h (0 Bft) O-NO 61 0 min 0,000 mm 0,0 UV-I 0 W/m 0,7 C 1,3 C 3,2 km/h (1 Bft) 97,87 %
31.01.2018 00:16 1,3 C 4,4 C 97 % 1025,0 hPa 0,0 l/m 2,4 km/h (1 Bft) O-NO 61 0 min 0,000 mm 0,0 UV-I 0 W/m 0,9 C 1,3 C 3,2 km/h (1 Bft) 98,00 %
31.01.2018 00:18 1,2 C 4,4 C 96 % 1025,0 hPa 0,0 l/m 0,4 km/h (0 Bft) O-NO 61 0 min 0,000 mm 0,0 UV-I 0 W/m 0,6 C 1,2 C 1,6 km/h (1 Bft) 100,00 %
31.01.2018 00:20 1,2 C 4,4 C 96 % 1024,9 hPa 0,0 l/m 0,5 km/h (0 Bft) O-NO 61 0 min 0,000 mm 0,0 UV-I 0 W/m 0,6 C 1,2 C 3,2 km/h (1 Bft) 97,22 %
31.01.2018 00:22 1,2 C 4,4 C 96 % 1024,9 hPa 0,0 l/m 0,4 km/h (0 Bft) O-NO 61 0 min 0,000 mm 0,0 UV-I 0 W/m 0,6 C 1,2 C 4,8 km/h (1 Bft) 100,00 %
31.01.2018 00:24 1,2 C 4,4 C 96 % 1024,9 hPa 0,0 l/m 0,0 km/h (0 Bft) O-NO 61 0 min 0,000 mm 0,0 UV-I 0 W/m 0,6 C 1,2 C 0,0 km/h (0 Bft) 100,00 %
31.01.2018 00:26 1,2 C 4,4 C 97 % 1024,8 hPa 0,0 l/m 0,0 km/h (0 Bft) O-NO 61 0 min 0,000 mm 0,0 UV-I 0 W/m 0,8 C 1,2 C 0,0 km/h (0 Bft) 100,00 %
31.01.2018 00:28 1,3 C 4,4 C 97 % 1024,7 hPa 0,0 l/m 0,1 km/h (0 Bft) O-NO 61 0 min 0,000 mm 0,0 UV-I 0 W/m 0,9 C 1,3 C 1,6 km/h (1 Bft) 100,00 %
31.01.2018 00:30 1,3 C 4,4 C 97 % 1024,7 hPa 0,0 l/m 1,1 km/h (1 Bft) O-NO 61 0 min 0,000 mm 0,0 UV-I 0 W/m 0,9 C 1,3 C 3,2 km/h (1 Bft) 100,00 %
31.01.2018 00:32 1,3 C 4,4 C 97 % 1024,7 hPa 0,0 l/m 0,1 km/h (0 Bft) O-NO 61 0 min 0,000 mm 0,0 UV-I 0 W/m 0,9 C 1,3 C 1,6 km/h (1 Bft) 100,00 %
31.01.2018 00:34 1,3 C 4,4 C 97 % 1024,6 hPa 0,0 l/m 0,0 km/h (0 Bft) O-NO 61 0 min 0,000 mm 0,0 UV-I 0 W/m 0,9 C 1,3 C 0,0 km/h (0 Bft) 97,87 %
31.01.2018 00:36 1,3 C 4,4 C 97 % 1024,6 hPa 0,0 l/m 0,1 km/h (0 Bft) O-NO 61 0 min 0,000 mm 0,0 UV-I 0 W/m 0,9 C 1,3 C 1,6 km/h (1 Bft) 97,87 %
31.01.2018 00:38 1,3 C 4,4 C 97 % 1024,6 hPa 0,0 l/m 1,3 km/h (1 Bft) O-NO 65 0 min 0,000 mm 0,0 UV-I 0 W/m 0,9 C 1,3 C 3,2 km/h (1 Bft) 100,00 %
31.01.2018 00:40 1,2 C 4,4 C 97 % 1024,5 hPa 0,0 l/m 0,1 km/h (0 Bft) O-NO 65 0 min 0,000 mm 0,0 UV-I 0 W/m 0,8 C 1,2 C 1,6 km/h (1 Bft) 100,00 %
31.01.2018 00:42 1,2 C 4,4 C 97 % 1024,6 hPa 0,0 l/m 0,0 km/h (0 Bft) O-NO 65 0 min 0,000 mm 0,0 UV-I 0 W/m 0,8 C 1,2 C 1,6 km/h (1 Bft) 98,00 %
31.01.2018 00:44 1,2 C 4,4 C 97 % 1024,6 hPa 0,0 l/m 0,0 km/h (0 Bft) O-NO 65 0 min 0,000 mm 0,0 UV-I 0 W/m 0,8 C 1,2 C 0,0 km/h (0 Bft) 100,00 %
31.01.2018 00:46 1,1 C 4,4 C 97 % 1024,6 hPa 0,0 l/m 0,5 km/h (0 Bft) O-NO 65 0 min 0,000 mm 0,0 UV-I 0 W/m 0,7 C 1,1 C 3,2 km/h (1 Bft) 97,87 %
31.01.2018 00:48 1,1 C 4,4 C 97 % 1024,6 hPa 0,0 l/m 0,0 km/h (0 Bft) O-NO 65 0 min 0,000 mm 0,0 UV-I 0 W/m 0,7 C 1,1 C 0,0 km/h (0 Bft) 100,00 %
31.01.2018 00:50 1,1 C 4,4 C 97 % 1024,6 hPa 0,0 l/m 0,0 km/h (0 Bft) O-NO 65 0 min 0,000 mm 0,0 UV-I 0 W/m 0,7 C 1,1 C 0,0 km/h (0 Bft) 100,00 %
31.01.2018 00:52 1,1 C 4,4 C 97 % 1024,6 hPa 0,0 l/m 0,0 km/h (0 Bft) O-NO 65 0 min 0,000 mm 0,0 UV-I 0 W/m 0,7 C 1,1 C 0,0 km/h (0 Bft) 100,00 %
31.01.2018 00:54 1,2 C 4,4 C 97 % 1024,5 hPa 0,0 l/m 0,0 km/h (0 Bft) O-NO 65 0 min 0,000 mm 0,0 UV-I 0 W/m 0,8 C 1,2 C 0,0 km/h (0 Bft) 97,56 %
31.01.2018 00:56 1,1 C 4,4 C 97 % 1024,5 hPa 0,0 l/m 0,8 km/h (0 Bft) O-NO 65 0 min 0,000 mm 0,0 UV-I 0 W/m 0,7 C 1,1 C 4,8 km/h (1 Bft) 100,00 %
31.01.2018 00:58 1,1 C 4,4 C 97 % 1024,4 hPa 0,0 l/m 3,9 km/h (1 Bft) S-SO 158 0 min 0,000 mm 0,0 UV-I 0 W/m 0,7 C 1,1 C 4,8 km/h (1 Bft) 97,87 %
31.01.2018 01:00 1,2 C 4,4 C 97 % 1024,4 hPa 0,0 l/m 0,5 km/h (0 Bft) S-SO 158 0 min 0,000 mm 0,0 UV-I 0 W/m 0,8 C 1,2 C 3,2 km/h (1 Bft) 97,87 %
31.01.2018 01:02 1,1 C 4,4 C 97 % 1024,4 hPa 0,0 l/m 0,1 km/h (0 Bft) S-SO 158 0 min 0,000 mm 0,0 UV-I 0 W/m 0,7 C 1,1 C 1,6 km/h (1 Bft) 97,44 %
31.01.2018 01:04 1,2 C 4,4 C 97 % 1024,4 hPa 0,0 l/m 2,3 km/h (1 Bft) S 190 0 min 0,000 mm 0,0 UV-I 0 W/m 0,8 C 1,2 C 6,4 km/h (2 Bft) 98,00 %
31.01.2018 01:06 1,3 C 4,4 C 97 % 1024,3 hPa 0,0 l/m 3,6 km/h (1 Bft) S-SW 197 0 min 0,000 mm 0,0 UV-I 0 W/m 0,9 C 1,3 C 4,8 km/h (1 Bft) 95,74 %
31.01.2018 01:08 1,3 C 4,4 C 97 % 1024,3 hPa 0,0 l/m 1,7 km/h (1 Bft) S-SW 197 0 min 0,000 mm 0,0 UV-I 0 W/m 0,9 C 1,3 C 4,8 km/h (1 Bft) 95,24 %
31.01.2018 01:10 1,4 C 4,4 C 97 % 1024,3 hPa 0,0 l/m 0,0 km/h (0 Bft) S-SW 197 0 min 0,000 mm 0,0 UV-I 0 W/m 1,0 C 1,4 C 0,0 km/h (0 Bft) 96,00 %
31.01.2018 01:12 1,6 C 4,4 C 97 % 1024,3 hPa 0,0 l/m 0,0 km/h (0 Bft) S-SW 197 0 min 0,000 mm 0,0 UV-I 0 W/m 1,2 C 1,6 C 0,0 km/h (0 Bft) 94,00 %
31.01.2018 01:14 1,6 C 4,4 C 97 % 1024,3 hPa 0,0 l/m 0,1 km/h (0 Bft) S-SW 197 0 min 0,000 mm 0,0 UV-I 0 W/m 1,2 C 1,6 C 1,6 km/h (1 Bft) 95,74 %
31.01.2018 01:16 1,6 C 4,4 C 97 % 1024,3 hPa 0,0 l/m 2,9 km/h (1 Bft) S-SW 197 0 min 0,000 mm 0,0 UV-I 0 W/m 1,2 C 1,6 C 4,8 km/h (1 Bft) 98,00 %
31.01.2018 01:18 1,6 C 4,4 C 97 % 1024,3 hPa 0,0 l/m 2,2 km/h (1 Bft) S-SW 197 0 min 0,000 mm 0,0 UV-I 0 W/m 1,2 C 1,6 C 4,8 km/h (1 Bft) 97,92 %
31.01.2018 01:20 1,5 C 4,4 C 97 % 1024,3 hPa 0,0 l/m 1,2 km/h (1 Bft) S-SW 197 0 min 0,000 mm 0,0 UV-I 0 W/m 1,1 C 1,5 C 3,2 km/h (1 Bft) 95,65 %
31.01.2018 01:22 1,5 C 4,4 C 97 % 1024,2 hPa 0,0 l/m 0,0 km/h (0 Bft) S-SW 197 0 min 0,000 mm 0,0 UV-I 0 W/m 1,1 C 1,5 C 1,6 km/h (1 Bft) 95,38 %
31.01.2018 01:24 1,4 C 4,4 C 97 % 1024,2 hPa 0,0 l/m 0,0 km/h (0 Bft) S-SW 197 0 min 0,000 mm 0,0 UV-I 0 W/m 1,0 C 1,4 C 0,0 km/h (0 Bft) 92,00 %
31.01.2018 01:26 1,4 C 4,4 C 97 % 1024,2 hPa 0,0 l/m 0,1 km/h (0 Bft) S-SW 197 0 min 0,000 mm 0,0 UV-I 0 W/m 1,0 C 1,4 C 1,6 km/h (1 Bft) 93,62 %
31.01.2018 01:28 1,4 C 4,4 C 97 % 1024,2 hPa 0,0 l/m 0,3 km/h (0 Bft) S-SW 197 0 min 0,000 mm 0,0 UV-I 0 W/m 1,0 C 1,4 C 1,6 km/h (1 Bft) 89,47 %
31.01.2018 01:30 1,3 C 4,4 C 97 % 1024,1 hPa 0,0 l/m 0,1 km/h (0 Bft) S-SW 197 0 min 0,000 mm 0,0 UV-I 0 W/m 0,9 C 1,3 C 1,6 km/h (1 Bft) 94,34 %
31.01.2018 01:32 1,1 C 4,4 C 97 % 1024,1 hPa 0,0 l/m 0,0 km/h (0 Bft) S-SW 197 0 min 0,000 mm 0,0 UV-I 0 W/m 0,7 C 1,1 C 0,0 km/h (0 Bft) 93,62 %
31.01.2018 01:34 1,3 C 4,4 C 97 % 1024,2 hPa 0,0 l/m 1,5 km/h (1 Bft) S-SW 197 0 min 0,000 mm 0,0 UV-I 0 W/m 0,9 C 1,3 C 3,2 km/h (1 Bft) 91,49 %
31.01.2018 01:36 1,5 C 4,4 C 97 % 1024,1 hPa 0,0 l/m 0,9 km/h (0 Bft) S-SW 197 0 min 0,000 mm 0,0 UV-I 0 W/m 1,1 C 1,5 C 3,2 km/h (1 Bft) 94,87 %
31.01.2018 01:38 1,6 C 4,4 C 97 % 1024,1 hPa 0,0 l/m 0,1 km/h (0 Bft) S-SW 197 0 min 0,000 mm 0,0 UV-I 0 W/m 1,2 C 1,6 C 1,6 km/h (1 Bft) 98,00 %
31.01.2018 01:40 1,6 C 4,4 C 97 % 1024,1 hPa 0,0 l/m 1,4 km/h (1 Bft) S-SW 197 0 min 0,000 mm 0,0 UV-I 0 W/m 1,2 C 1,6 C 3,2 km/h (1 Bft) 96,00 %
31.01.2018 01:42 1,5 C 4,4 C 97 % 1024,1 hPa 0,0 l/m 2,4 km/h (1 Bft) S-SW 197 0 min 0,000 mm 0,0 UV-I 0 W/m 1,1 C 1,5 C 4,8 km/h (1 Bft) 90,57 %
31.01.2018 01:44 1,5 C 4,4 C 97 % 1024,2 hPa 0,0 l/m 0,5 km/h (0 Bft) S-SW 197 0 min 0,000 mm 0,0 UV-I 0 W/m 1,1 C 1,5 C 1,6 km/h (1 Bft) 100,00 %
31.01.2018 01:46 1,5 C 4,4 C 97 % 1024,2 hPa 0,0 l/m 0,0 km/h (0 Bft) S-SW 197 0 min 0,000 mm 0,0 UV-I 0 W/m 1,1 C 1,5 C 0,0 km/h (0 Bft) 94,00 %
31.01.2018 01:48 1,6 C 4,4 C 97 % 1024,2 hPa 0,0 l/m 1,4 km/h (1 Bft) S-SW 197 0 min 0,000 mm 0,0 UV-I 0 W/m 1,2 C 1,6 C 3,2 km/h (1 Bft) 98,00 %
31.01.2018 01:50 1,6 C 4,4 C 97 % 1024,2 hPa 0,0 l/m 3,5 km/h (1 Bft) S-SW 197 0 min 0,000 mm 0,0 UV-I 0 W/m 1,2 C 1,6 C 4,8 km/h (1 Bft) 97,37 %
31.01.2018 01:52 1,4 C 4,4 C 97 % 1024,2 hPa 0,0 l/m 4,0 km/h (1 Bft) S-SW 211 0 min 0,000 mm 0,0 UV-I 0 W/m 1,0 C 1,4 C 4,8 km/h (1 Bft) 95,74 %
31.01.2018 01:54 1,3 C 4,4 C 97 % 1024,1 hPa 0,0 l/m 3,2 km/h (1 Bft) S-SW 211 0 min 0,000 mm 0,0 UV-I 0 W/m 0,9 C 1,3 C 4,8 km/h (1 Bft) 96,00 %
31.01.2018 01:56 1,3 C 4,4 C 97 % 1024,1 hPa 0,0 l/m 2,7 km/h (1 Bft) S-SW 211 0 min 0,000 mm 0,0 UV-I 0 W/m 0,9 C 1,3 C 4,8 km/h (1 Bft) 94,74 %
31.01.2018 01:58 1,3 C 4,4 C 97 % 1024,2 hPa 0,0 l/m 2,9 km/h (1 Bft) S-SW 211 0 min 0,000 mm 0,0 UV-I 0 W/m 0,9 C 1,3 C 4,8 km/h (1 Bft) 98,00 %
31.01.2018 02:00 1,4 C 4,4 C 97 % 1024,1 hPa 0,0 l/m 3,2 km/h (1 Bft) S-SW 211 0 min 0,000 mm 0,0 UV-I 0 W/m 1,0 C 1,4 C 4,8 km/h (1 Bft) 97,73 %
31.01.2018 02:02 1,4 C 4,4 C 97 % 1024,2 hPa 0,0 l/m 2,7 km/h (1 Bft) S-SW 211 0 min 0,000 mm 0,0 UV-I 0 W/m 1,0 C 1,4 C 4,8 km/h (1 Bft) 96,43 %
31.01.2018 02:04 1,4 C 4,4 C 97 % 1024,2 hPa 0,0 l/m 1,6 km/h (1 Bft) S-SW 211 0 min 0,000 mm 0,0 UV-I 0 W/m 1,0 C 1,4 C 3,2 km/h (1 Bft) 96,23 %
31.01.2018 02:06 1,6 C 4,4 C 97 % 1024,1 hPa 0,0 l/m 1,5 km/h (1 Bft) S-SW 211 0 min 0,000 mm 0,0 UV-I 0 W/m 1,2 C 1,6 C 3,2 km/h (1 Bft) 97,37 %
31.01.2018 02:08 1,7 C 4,4 C 97 % 1024,3 hPa 0,0 l/m 2,5 km/h (1 Bft) S-SW 211 0 min 0,000 mm 0,0 UV-I 0 W/m 1,3 C 1,7 C 4,8 km/h (1 Bft) 93,62 %
31.01.2018 02:10 1,7 C 4,4 C 97 % 1024,1 hPa 0,0 l/m 1,2 km/h (1 Bft) S-SW 211 0 min 0,000 mm 0,0 UV-I 0 W/m 1,3 C 1,7 C 3,2 km/h (1 Bft) 95,74 %
31.01.2018 02:12 1,7 C 4,4 C 97 % 1024,1 hPa 0,0 l/m 1,4 km/h (1 Bft) S-SW 211 0 min 0,000 mm 0,0 UV-I 0 W/m 1,3 C 1,7 C 1,6 km/h (1 Bft) 96,23 %
31.01.2018 02:14 1,8 C 4,4 C 97 % 1024,0 hPa 0,0 l/m 0,2 km/h (0 Bft) S-SW 211 0 min 0,000 mm 0,0 UV-I 0 W/m 1,4 C 1,8 C 1,6 km/h (1 Bft) 95,74 %
31.01.2018 02:16 1,8 C 4,4 C 97 % 1024,0 hPa 0,0 l/m 0,1 km/h (0 Bft) S-SW 211 0 min 0,000 mm 0,0 UV-I 0 W/m 1,4 C 1,8 C 1,6 km/h (1 Bft) 93,62 %
31.01.2018 02:18 1,8 C 4,4 C 97 % 1024,0 hPa 0,0 l/m 1,7 km/h (1 Bft) S-SW 211 0 min 0,000 mm 0,0 UV-I 0 W/m 1,4 C 1,8 C 3,2 km/h (1 Bft) 97,44 %
31.01.2018 02:20 1,8 C 4,4 C 97 % 1024,0 hPa 0,0 l/m 1,5 km/h (1 Bft) S-SW 211 0 min 0,000 mm 0,0 UV-I 0 W/m 1,4 C 1,8 C 3,2 km/h (1 Bft) 98,00 %
31.01.2018 02:22 1,8 C 4,4 C 97 % 1024,0 hPa 0,0 l/m 0,8 km/h (0 Bft) S-SW 211 0 min 0,000 mm 0,0 UV-I 0 W/m 1,4 C 1,8 C 1,6 km/h (1 Bft) 94,00 %
31.01.2018 02:24 1,8 C 4,4 C 97 % 1024,1 hPa 0,0 l/m 0,0 km/h (0 Bft) S-SW 211 0 min 0,000 mm 0,0 UV-I 0 W/m 1,4 C 1,8 C 0,0 km/h (0 Bft) 97,87 %
31.01.2018 02:26 1,8 C 4,4 C 97 % 1024,1 hPa 0,0 l/m 0,0 km/h (0 Bft) S-SW 211 0 min 0,000 mm 0,0 UV-I 0 W/m 1,4 C 1,8 C 0,0 km/h (0 Bft) 96,00 %
31.01.2018 02:28 1,7 C 4,4 C 97 % 1024,0 hPa 0,0 l/m 0,0 km/h (0 Bft) S-SW 211 0 min 0,000 mm 0,0 UV-I 0 W/m 1,3 C 1,7 C 0,0 km/h (0 Bft) 100,00 %
31.01.2018 02:30 1,7 C 4,4 C 97 % 1024,1 hPa 0,0 l/m 0,0 km/h (0 Bft) S-SW 211 0 min 0,000 mm 0,0 UV-I 0 W/m 1,3 C 1,7 C 0,0 km/h (0 Bft) 97,87 %
31.01.2018 02:32 1,7 C 4,4 C 97 % 1024,1 hPa 0,0 l/m 0,0 km/h (0 Bft) S-SW 211 0 min 0,000 mm 0,0 UV-I 0 W/m 1,3 C 1,7 C 0,0 km/h (0 Bft) 92,00 %
31.01.2018 02:34 1,7 C 4,4 C 97 % 1024,0 hPa 0,0 l/m 0,0 km/h (0 Bft) S-SW 211 0 min 0,000 mm 0,0 UV-I 0 W/m 1,3 C 1,7 C 0,0 km/h (0 Bft) 100,00 %
31.01.2018 02:36 1,6 C 4,4 C 97 % 1024,0 hPa 0,0 l/m 0,0 km/h (0 Bft) S-SW 211 0 min 0,000 mm 0,0 UV-I 0 W/m 1,2 C 1,6 C 0,0 km/h (0 Bft) 100,00 %
31.01.2018 02:38 1,6 C 4,4 C 97 % 1023,9 hPa 0,0 l/m 0,0 km/h (0 Bft) S-SW 211 0 min 0,000 mm 0,0 UV-I 0 W/m 1,2 C 1,6 C 0,0 km/h (0 Bft) 100,00 %
31.01.2018 02:40 1,6 C 4,4 C 97 % 1023,9 hPa 0,0 l/m 0,0 km/h (0 Bft) S-SW 211 0 min 0,000 mm 0,0 UV-I 0 W/m 1,2 C 1,6 C 0,0 km/h (0 Bft) 100,00 %
31.01.2018 02:42 1,6 C 4,4 C 97 % 1023,8 hPa 0,0 l/m 0,0 km/h (0 Bft) S-SW 211 0 min 0,000 mm 0,0 UV-I 0 W/m 1,2 C 1,6 C 0,0 km/h (0 Bft) 100,00 %
31.01.2018 02:44 1,7 C 4,4 C 97 % 1023,8 hPa 0,0 l/m 0,2 km/h (0 Bft) S-SW 211 0 min 0,000 mm 0,0 UV-I 0 W/m 1,3 C 1,7 C 1,6 km/h (1 Bft) 100,00 %
31.01.2018 02:46 1,7 C 4,4 C 97 % 1023,8 hPa 0,0 l/m 1,2 km/h (1 Bft) S-SW 211 0 min 0,000 mm 0,0 UV-I 0 W/m 1,3 C 1,7 C 3,2 km/h (1 Bft) 100,00 %
31.01.2018 02:48 1,7 C 4,4 C 97 % 1023,9 hPa 0,0 l/m 0,0 km/h (0 Bft) S-SW 211 0 min 0,000 mm 0,0 UV-I 0 W/m 1,3 C 1,7 C 0,0 km/h (0 Bft) 100,00 %
31.01.2018 02:50 1,7 C 4,4 C 97 % 1023,9 hPa 0,0 l/m 0,3 km/h (0 Bft) S-SW 211 0 min 0,000 mm 0,0 UV-I 0 W/m 1,3 C 1,7 C 1,6 km/h (1 Bft) 96,00 %
31.01.2018 02:52 1,8 C 4,4 C 97 % 1023,8 hPa 0,0 l/m 0,0 km/h (0 Bft) S-SW 211 0 min 0,000 mm 0,0 UV-I 0 W/m 1,4 C 1,8 C 0,0 km/h (0 Bft) 98,00 %
31.01.2018 02:54 1,8 C 4,4 C 97 % 1023,8 hPa 0,0 l/m 0,0 km/h (0 Bft) S-SW 211 0 min 0,000 mm 0,0 UV-I 0 W/m 1,4 C 1,8 C 0,0 km/h (0 Bft) 100,00 %
31.01.2018 02:56 1,8 C 4,4 C 97 % 1023,7 hPa 0,0 l/m 1,8 km/h (1 Bft) S-SW 211 0 min 0,000 mm 0,0 UV-I 0 W/m 1,4 C 1,8 C 3,2 km/h (1 Bft) 100,00 %
31.01.2018 02:58 1,8 C 4,4 C 97 % 1023,7 hPa 0,0 l/m 0,7 km/h (0 Bft) S-SW 211 0 min 0,000 mm 0,0 UV-I 0 W/m 1,4 C 1,8 C 3,2 km/h (1 Bft) 97,87 %
31.01.2018 03:00 1,7 C 4,4 C 97 % 1023,8 hPa 0,0 l/m 0,0 km/h (0 Bft) S-SW 211 0 min 0,000 mm 0,0 UV-I 0 W/m 1,3 C 1,7 C 0,0 km/h (0 Bft) 97,37 %
31.01.2018 03:02 1,7 C 4,4 C 97 % 1023,9 hPa 0,0 l/m 0,0 km/h (0 Bft) S-SW 211 0 min 0,000 mm 0,0 UV-I 0 W/m 1,3 C 1,7 C 0,0 km/h (0 Bft) 98,00 %
31.01.2018 03:04 1,7 C 4,4 C 97 % 1023,8 hPa 0,0 l/m 0,0 km/h (0 Bft) S-SW 211 0 min 0,000 mm 0,0 UV-I 0 W/m 1,3 C 1,7 C 0,0 km/h (0 Bft) 98,00 %
31.01.2018 03:06 1,7 C 4,4 C 97 % 1023,7 hPa 0,0 l/m 0,0 km/h (0 Bft) S-SW 211 0 min 0,000 mm 0,0 UV-I 0 W/m 1,3 C 1,7 C 0,0 km/h (0 Bft) 100,00 %
31.01.2018 03:08 1,7 C 4,4 C 97 % 1023,7 hPa 0,0 l/m 0,0 km/h (0 Bft) S-SW 211 0 min 0,000 mm 0,0 UV-I 0 W/m 1,3 C 1,7 C 0,0 km/h (0 Bft) 100,00 %
31.01.2018 03:10 1,7 C 4,4 C 97 % 1023,7 hPa 0,0 l/m 1,7 km/h (1 Bft) S-SW 211 0 min 0,000 mm 0,0 UV-I 0 W/m 1,3 C 1,7 C 3,2 km/h (1 Bft) 96,00 %
31.01.2018 03:12 1,7 C 4,4 C 97 % 1023,7 hPa 0,0 l/m 0,0 km/h (0 Bft) S-SW 211 0 min 0,000 mm 0,0 UV-I 0 W/m 1,3 C 1,7 C 1,6 km/h (1 Bft) 98,11 %
31.01.2018 03:14 1,6 C 4,4 C 97 % 1023,8 hPa 0,0 l/m 0,0 km/h (0 Bft) S-SW 211 0 min 0,000 mm 0,0 UV-I 0 W/m 1,2 C 1,6 C 0,0 km/h (0 Bft) 97,56 %
31.01.2018 03:16 1,6 C 4,4 C 97 % 1023,7 hPa 0,0 l/m 0,1 km/h (0 Bft) S-SW 211 0 min 0,000 mm 0,0 UV-I 0 W/m 1,2 C 1,6 C 1,6 km/h (1 Bft) 93,62 %
31.01.2018 03:18 1,6 C 4,4 C 97 % 1023,6 hPa 0,0 l/m 2,7 km/h (1 Bft) S-SW 211 0 min 0,000 mm 0,0 UV-I 0 W/m 1,2 C 1,6 C 3,2 km/h (1 Bft) 98,00 %
31.01.2018 03:20 1,6 C 4,4 C 97 % 1023,6 hPa 0,0 l/m 3,8 km/h (1 Bft) S-SW 211 0 min 0,000 mm 0,0 UV-I 0 W/m 1,2 C 1,6 C 4,8 km/h (1 Bft) 97,37 %
31.01.2018 03:22 1,6 C 4,4 C 97 % 1023,6 hPa 0,0 l/m 3,0 km/h (1 Bft) S-SW 211 0 min 0,000 mm 0,0 UV-I 0 W/m 1,2 C 1,6 C 4,8 km/h (1 Bft) 98,00 %
31.01.2018 03:24 1,7 C 4,4 C 97 % 1023,5 hPa 0,0 l/m 1,9 km/h (1 Bft) S-SW 211 0 min 0,000 mm 0,0 UV-I 0 W/m 1,3 C 1,7 C 3,2 km/h (1 Bft) 98,11 %
31.01.2018 03:26 1,7 C 4,4 C 97 % 1023,5 hPa 0,0 l/m 0,9 km/h (0 Bft) S-SW 211 0 min 0,000 mm 0,0 UV-I 0 W/m 1,3 C 1,7 C 3,2 km/h (1 Bft) 98,00 %
31.01.2018 03:28 1,7 C 4,4 C 97 % 1023,5 hPa 0,0 l/m 0,0 km/h (0 Bft) S-SW 211 0 min 0,000 mm 0,0 UV-I 0 W/m 1,3 C 1,7 C 1,6 km/h (1 Bft) 97,37 %
31.01.2018 03:30 1,7 C 4,4 C 97 % 1023,5 hPa 0,0 l/m 0,0 km/h (0 Bft) S-SW 211 0 min 0,000 mm 0,0 UV-I 0 W/m 1,3 C 1,7 C 0,0 km/h (0 Bft) 98,11 %
31.01.2018 03:32 1,6 C 4,4 C 97 % 1023,4 hPa 0,0 l/m 0,0 km/h (0 Bft) S-SW 211 0 min 0,000 mm 0,0 UV-I 0 W/m 1,2 C 1,6 C 0,0 km/h (0 Bft) 96,00 %
31.01.2018 03:34 1,7 C 4,4 C 97 % 1023,3 hPa 0,0 l/m 1,5 km/h (1 Bft) S-SW 210 0 min 0,000 mm 0,0 UV-I 0 W/m 1,3 C 1,7 C 4,8 km/h (1 Bft) 94,87 %
31.01.2018 03:36 1,7 C 4,4 C 97 % 1023,3 hPa 0,0 l/m 2,9 km/h (1 Bft) S-SW 210 0 min 0,000 mm 0,0 UV-I 0 W/m 1,3 C 1,7 C 4,8 km/h (1 Bft) 98,00 %
31.01.2018 03:38 1,7 C 4,4 C 97 % 1023,3 hPa 0,0 l/m 2,4 km/h (1 Bft) S-SW 210 0 min 0,000 mm 0,0 UV-I 0 W/m 1,3 C 1,7 C 3,2 km/h (1 Bft) 98,00 %
31.01.2018 03:40 1,7 C 4,4 C 97 % 1023,3 hPa 0,0 l/m 1,3 km/h (1 Bft) S-SW 210 0 min 0,000 mm 0,0 UV-I 0 W/m 1,3 C 1,7 C 3,2 km/h (1 Bft) 97,87 %
31.01.2018 03:42 1,7 C 4,4 C 97 % 1023,2 hPa 0,0 l/m 0,9 km/h (0 Bft) S-SW 210 0 min 0,000 mm 0,0 UV-I 0 W/m 1,3 C 1,7 C 3,2 km/h (1 Bft) 97,56 %
31.01.2018 03:44 1,8 C 4,4 C 97 % 1023,2 hPa 0,0 l/m 1,9 km/h (1 Bft) S-SW 210 0 min 0,000 mm 0,0 UV-I 0 W/m 1,4 C 1,8 C 3,2 km/h (1 Bft) 97,87 %
31.01.2018 03:46 1,8 C 4,4 C 97 % 1023,2 hPa 0,0 l/m 2,6 km/h (1 Bft) S-SW 210 0 min 0,000 mm 0,0 UV-I 0 W/m 1,4 C 1,8 C 3,2 km/h (1 Bft) 100,00 %
31.01.2018 03:48 1,8 C 4,4 C 97 % 1023,1 hPa 0,0 l/m 3,6 km/h (1 Bft) O-NO 69 0 min 0,000 mm 0,0 UV-I 0 W/m 1,4 C 1,8 C 4,8 km/h (1 Bft) 100,00 %
31.01.2018 03:50 1,7 C 4,4 C 97 % 1023,1 hPa 0,0 l/m 4,4 km/h (1 Bft) O-NO 65 0 min 0,000 mm 0,0 UV-I 0 W/m 1,3 C 1,7 C 6,4 km/h (2 Bft) 100,00 %
31.01.2018 03:52 1,7 C 4,4 C 97 % 1023,1 hPa 0,0 l/m 4,3 km/h (1 Bft) O-NO 65 0 min 0,000 mm 0,0 UV-I 0 W/m 1,3 C 1,7 C 6,4 km/h (2 Bft) 98,11 %
31.01.2018 03:54 1,7 C 4,4 C 97 % 1023,0 hPa 0,0 l/m 2,8 km/h (1 Bft) O-NO 65 0 min 0,000 mm 0,0 UV-I 0 W/m 1,3 C 1,7 C 4,8 km/h (1 Bft) 100,00 %
31.01.2018 03:56 1,7 C 4,4 C 97 % 1023,0 hPa 0,0 l/m 2,6 km/h (1 Bft) O-NO 65 0 min 0,000 mm 0,0 UV-I 0 W/m 1,3 C 1,7 C 4,8 km/h (1 Bft) 100,00 %
31.01.2018 03:58 1,7 C 4,4 C 97 % 1023,0 hPa 0,0 l/m 3,2 km/h (1 Bft) O-NO 65 0 min 0,000 mm 0,0 UV-I 0 W/m 1,3 C 1,7 C 4,8 km/h (1 Bft) 100,00 %
31.01.2018 04:00 1,7 C 4,4 C 97 % 1023,0 hPa 0,0 l/m 0,8 km/h (0 Bft) O-NO 65 0 min 0,000 mm 0,0 UV-I 0 W/m 1,3 C 1,7 C 3,2 km/h (1 Bft) 98,00 %
31.01.2018 04:02 1,8 C 4,4 C 97 % 1023,1 hPa 0,0 l/m 0,0 km/h (0 Bft) O-NO 65 0 min 0,000 mm 0,0 UV-I 0 W/m 1,4 C 1,8 C 0,0 km/h (0 Bft) 100,00 %
31.01.2018 04:04 1,8 C 4,4 C 97 % 1023,1 hPa 0,0 l/m 0,0 km/h (0 Bft) O-NO 65 0 min 0,000 mm 0,0 UV-I 0 W/m 1,4 C 1,8 C 0,0 km/h (0 Bft) 97,37 %
31.01.2018 04:06 1,8 C 4,4 C 97 % 1023,1 hPa 0,0 l/m 0,0 km/h (0 Bft) O-NO 65 0 min 0,000 mm 0,0 UV-I 0 W/m 1,4 C 1,8 C 0,0 km/h (0 Bft) 100,00 %
31.01.2018 04:08 1,7 C 4,4 C 97 % 1023,1 hPa 0,0 l/m 0,0 km/h (0 Bft) O-NO 65 0 min 0,000 mm 0,0 UV-I 0 W/m 1,3 C 1,7 C 0,0 km/h (0 Bft) 95,74 %
31.01.2018 04:10 1,7 C 4,4 C 97 % 1023,1 hPa 0,0 l/m 0,0 km/h (0 Bft) O-NO 65 0 min 0,000 mm 0,0 UV-I 0 W/m 1,3 C 1,7 C 0,0 km/h (0 Bft) 100,00 %
31.01.2018 04:12 1,7 C 4,4 C 97 % 1023,1 hPa 0,0 l/m 0,0 km/h (0 Bft) O-NO 65 0 min 0,000 mm 0,0 UV-I 0 W/m 1,3 C 1,7 C 0,0 km/h (0 Bft) 97,22 %
31.01.2018 04:14 1,7 C 4,4 C 97 % 1023,0 hPa 0,0 l/m 0,0 km/h (0 Bft) O-NO 65 0 min 0,000 mm 0,0 UV-I 0 W/m 1,3 C 1,7 C 0,0 km/h (0 Bft) 100,00 %
31.01.2018 04:16 1,7 C 4,4 C 97 % 1023,0 hPa 0,0 l/m 0,0 km/h (0 Bft) O-NO 65 0 min 0,000 mm 0,0 UV-I 0 W/m 1,3 C 1,7 C 0,0 km/h (0 Bft) 100,00 %
31.01.2018 04:18 1,7 C 4,4 C 97 % 1022,9 hPa 0,0 l/m 0,0 km/h (0 Bft) O-NO 65 0 min 0,000 mm 0,0 UV-I 0 W/m 1,3 C 1,7 C 0,0 km/h (0 Bft) 100,00 %
31.01.2018 04:20 1,7 C 4,4 C 97 % 1022,9 hPa 0,0 l/m 0,0 km/h (0 Bft) O-NO 65 0 min 0,000 mm 0,0 UV-I 0 W/m 1,3 C 1,7 C 0,0 km/h (0 Bft) 100,00 %
31.01.2018 04:22 1,7 C 4,4 C 97 % 1022,9 hPa 0,0 l/m 0,6 km/h (0 Bft) O-NO 65 0 min 0,000 mm 0,0 UV-I 0 W/m 1,3 C 1,7 C 1,6 km/h (1 Bft) 100,00 %
31.01.2018 04:24 1,7 C 4,4 C 97 % 1022,9 hPa 0,0 l/m 0,0 km/h (0 Bft) O-NO 65 0 min 0,000 mm 0,0 UV-I 0 W/m 1,3 C 1,7 C 1,6 km/h (1 Bft) 100,00 %
31.01.2018 04:26 1,7 C 4,4 C 97 % 1022,9 hPa 0,0 l/m 0,0 km/h (0 Bft) O-NO 65 0 min 0,000 mm 0,0 UV-I 0 W/m 1,3 C 1,7 C 0,0 km/h (0 Bft) 100,00 %
31.01.2018 04:28 1,7 C 4,4 C 97 % 1022,9 hPa 0,0 l/m 0,0 km/h (0 Bft) O-NO 65 0 min 0,000 mm 0,0 UV-I 0 W/m 1,3 C 1,7 C 0,0 km/h (0 Bft) 100,00 %
31.01.2018 04:30 1,7 C 4,4 C 97 % 1022,9 hPa 0,0 l/m 1,1 km/h (1 Bft) O-NO 65 0 min 0,000 mm 0,0 UV-I 0 W/m 1,3 C 1,7 C 1,6 km/h (1 Bft) 100,00 %
31.01.2018 04:32 1,7 C 4,4 C 97 % 1022,9 hPa 0,0 l/m 1,0 km/h (0 Bft) O-NO 65 0 min 0,000 mm 0,0 UV-I 0 W/m 1,3 C 1,7 C 3,2 km/h (1 Bft) 100,00 %
31.01.2018 04:34 1,7 C 4,4 C 97 % 1022,9 hPa 0,0 l/m 0,1 km/h (0 Bft) O-NO 65 0 min 0,000 mm 0,0 UV-I 0 W/m 1,3 C 1,7 C 1,6 km/h (1 Bft) 100,00 %
31.01.2018 04:36 1,7 C 4,4 C 97 % 1022,9 hPa 0,0 l/m 0,0 km/h (0 Bft) O-NO 65 0 min 0,000 mm 0,0 UV-I 0 W/m 1,3 C 1,7 C 0,0 km/h (0 Bft) 97,87 %
31.01.2018 04:38 1,7 C 4,4 C 97 % 1022,9 hPa 0,0 l/m 0,0 km/h (0 Bft) O-NO 65 0 min 0,000 mm 0,0 UV-I 0 W/m 1,3 C 1,7 C 0,0 km/h (0 Bft) 100,00 %
31.01.2018 04:40 1,7 C 4,4 C 97 % 1022,9 hPa 0,0 l/m 0,0 km/h (0 Bft) O-NO 65 0 min 0,000 mm 0,0 UV-I 0 W/m 1,3 C 1,7 C 0,0 km/h (0 Bft) 97,37 %
31.01.2018 04:42 1,7 C 4,4 C 97 % 1022,8 hPa 0,0 l/m 0,0 km/h (0 Bft) O-NO 65 0 min 0,000 mm 0,0 UV-I 0 W/m 1,3 C 1,7 C 0,0 km/h (0 Bft) 100,00 %
31.01.2018 04:44 1,7 C 4,4 C 97 % 1022,8 hPa 0,0 l/m 0,7 km/h (0 Bft) O-NO 65 0 min 0,000 mm 0,0 UV-I 0 W/m 1,3 C 1,7 C 3,2 km/h (1 Bft) 97,87 %
31.01.2018 04:46 1,7 C 4,4 C 97 % 1022,8 hPa 0,0 l/m 1,7 km/h (1 Bft) O-NO 65 0 min 0,000 mm 0,0 UV-I 0 W/m 1,3 C 1,7 C 3,2 km/h (1 Bft) 100,00 %
31.01.2018 04:48 1,7 C 4,4 C 97 % 1022,7 hPa 0,0 l/m 2,6 km/h (1 Bft) O-NO 65 0 min 0,000 mm 0,0 UV-I 0 W/m 1,3 C 1,7 C 4,8 km/h (1 Bft) 95,74 %
31.01.2018 04:50 1,7 C 4,4 C 97 % 1022,7 hPa 0,0 l/m 2,8 km/h (1 Bft) O-NO 65 0 min 0,000 mm 0,0 UV-I 0 W/m 1,3 C 1,7 C 3,2 km/h (1 Bft) 100,00 %
31.01.2018 04:52 1,7 C 4,4 C 97 % 1022,8 hPa 0,0 l/m 0,6 km/h (0 Bft) O-NO 65 0 min 0,000 mm 0,0 UV-I 0 W/m 1,3 C 1,7 C 1,6 km/h (1 Bft) 100,00 %
31.01.2018 04:54 1,7 C 4,4 C 97 % 1022,8 hPa 0,0 l/m 1,4 km/h (1 Bft) NW 315 0 min 0,000 mm 0,0 UV-I 0 W/m 1,3 C 1,7 C 3,2 km/h (1 Bft) 100,00 %
31.01.2018 04:56 1,7 C 4,4 C 97 % 1022,9 hPa 0,0 l/m 1,9 km/h (1 Bft) NW 315 0 min 0,000 mm 0,0 UV-I 0 W/m 1,3 C 1,7 C 3,2 km/h (1 Bft) 98,00 %
31.01.2018 04:58 1,7 C 4,4 C 97 % 1022,9 hPa 0,0 l/m 2,3 km/h (1 Bft) NW 315 0 min 0,000 mm 0,0 UV-I 0 W/m 1,3 C 1,7 C 3,2 km/h (1 Bft) 100,00 %
31.01.2018 05:00 1,7 C 4,4 C 97 % 1022,9 hPa 0,0 l/m 0,1 km/h (0 Bft) NW 315 0 min 0,000 mm 0,0 UV-I 0 W/m 1,3 C 1,7 C 1,6 km/h (1 Bft) 100,00 %
31.01.2018 05:02 1,7 C 4,4 C 97 % 1022,9 hPa 0,0 l/m 0,0 km/h (0 Bft) NW 315 0 min 0,000 mm 0,0 UV-I 0 W/m 1,3 C 1,7 C 0,0 km/h (0 Bft) 100,00 %
31.01.2018 05:04 1,6 C 4,4 C 97 % 1022,8 hPa 0,0 l/m 0,0 km/h (0 Bft) NW 315 0 min 0,000 mm 0,0 UV-I 0 W/m 1,2 C 1,6 C 0,0 km/h (0 Bft) 98,00 %
31.01.2018 05:06 1,6 C 4,4 C 97 % 1022,8 hPa 0,0 l/m 0,0 km/h (0 Bft) NW 315 0 min 0,000 mm 0,0 UV-I 0 W/m 1,2 C 1,6 C 0,0 km/h (0 Bft) 100,00 %
31.01.2018 05:08 1,6 C 4,4 C 97 % 1022,8 hPa 0,0 l/m 0,0 km/h (0 Bft) NW 315 0 min 0,000 mm 0,0 UV-I 0 W/m 1,2 C 1,6 C 0,0 km/h (0 Bft) 97,87 %
31.01.2018 05:10 1,6 C 4,4 C 97 % 1022,8 hPa 0,0 l/m 0,0 km/h (0 Bft) NW 315 0 min 0,000 mm 0,0 UV-I 0 W/m 1,2 C 1,6 C 0,0 km/h (0 Bft) 97,87 %
31.01.2018 05:12 1,7 C 4,4 C 97 % 1022,7 hPa 0,0 l/m 0,0 km/h (0 Bft) NW 315 0 min 0,000 mm 0,0 UV-I 0 W/m 1,3 C 1,7 C 0,0 km/h (0 Bft) 100,00 %
31.01.2018 05:14 1,7 C 4,4 C 97 % 1022,6 hPa 0,0 l/m 0,1 km/h (0 Bft) NW 315 0 min 0,000 mm 0,0 UV-I 0 W/m 1,3 C 1,7 C 1,6 km/h (1 Bft) 100,00 %
31.01.2018 05:16 1,7 C 4,4 C 97 % 1022,7 hPa 0,0 l/m 2,8 km/h (1 Bft) NW 315 0 min 0,000 mm 0,0 UV-I 0 W/m 1,3 C 1,7 C 3,2 km/h (1 Bft) 97,87 %
31.01.2018 05:18 1,7 C 4,4 C 97 % 1022,6 hPa 0,0 l/m 1,6 km/h (1 Bft) NW 315 0 min 0,000 mm 0,0 UV-I 0 W/m 1,3 C 1,7 C 3,2 km/h (1 Bft) 96,00 %
31.01.2018 05:20 1,7 C 4,4 C 97 % 1022,6 hPa 0,0 l/m 0,0 km/h (0 Bft) NW 315 0 min 0,000 mm 0,0 UV-I 0 W/m 1,3 C 1,7 C 0,0 km/h (0 Bft) 97,87 %
31.01.2018 05:22 1,7 C 4,4 C 97 % 1022,5 hPa 0,0 l/m 0,0 km/h (0 Bft) NW 315 0 min 0,000 mm 0,0 UV-I 0 W/m 1,3 C 1,7 C 0,0 km/h (0 Bft) 95,74 %
31.01.2018 05:24 1,7 C 4,4 C 97 % 1022,6 hPa 0,0 l/m 0,0 km/h (0 Bft) NW 315 0 min 0,000 mm 0,0 UV-I 0 W/m 1,3 C 1,7 C 0,0 km/h (0 Bft) 95,74 %
31.01.2018 05:26 1,7 C 4,4 C 97 % 1022,6 hPa 0,0 l/m 1,4 km/h (1 Bft) NW 315 0 min 0,000 mm 0,0 UV-I 0 W/m 1,3 C 1,7 C 3,2 km/h (1 Bft) 96,00 %
31.01.2018 05:28 1,8 C 4,4 C 98 % 1022,6 hPa 0,0 l/m 0,7 km/h (0 Bft) NW 315 0 min 0,000 mm 0,0 UV-I 0 W/m 1,5 C 1,8 C 3,2 km/h (1 Bft) 94,87 %
31.01.2018 05:30 1,8 C 4,4 C 98 % 1022,6 hPa 0,0 l/m 0,5 km/h (0 Bft) NW 315 0 min 0,000 mm 0,0 UV-I 0 W/m 1,5 C 1,8 C 3,2 km/h (1 Bft) 95,74 %
31.01.2018 05:32 1,8 C 4,4 C 98 % 1022,5 hPa 0,0 l/m 1,5 km/h (1 Bft) NW 315 0 min 0,000 mm 0,0 UV-I 0 W/m 1,5 C 1,8 C 3,2 km/h (1 Bft) 91,43 %
31.01.2018 05:34 1,7 C 4,4 C 97 % 1022,5 hPa 0,0 l/m 1,6 km/h (1 Bft) NW 315 0 min 0,000 mm 0,0 UV-I 0 W/m 1,3 C 1,7 C 3,2 km/h (1 Bft) 96,77 %
31.01.2018 05:36 1,8 C 4,4 C 98 % 1022,5 hPa 0,0 l/m 1,9 km/h (1 Bft) NW 315 0 min 0,000 mm 0,0 UV-I 0 W/m 1,5 C 1,8 C 3,2 km/h (1 Bft) 93,62 %
31.01.2018 05:38 1,7 C 4,4 C 97 % 1022,5 hPa 0,0 l/m 1,5 km/h (1 Bft) NW 315 0 min 0,000 mm 0,0 UV-I 0 W/m 1,3 C 1,7 C 3,2 km/h (1 Bft) 96,00 %
31.01.2018 05:40 1,7 C 4,4 C 97 % 1022,5 hPa 0,0 l/m 2,2 km/h (1 Bft) NW 315 0 min 0,000 mm 0,0 UV-I 0 W/m 1,3 C 1,7 C 3,2 km/h (1 Bft) 94,00 %
31.01.2018 05:42 1,8 C 4,4 C 98 % 1022,6 hPa 0,0 l/m 3,2 km/h (1 Bft) NW 315 0 min 0,000 mm 0,0 UV-I 0 W/m 1,5 C 1,8 C 4,8 km/h (1 Bft) 94,74 %
31.01.2018 05:44 1,8 C 4,4 C 98 % 1022,5 hPa 0,0 l/m 0,6 km/h (0 Bft) NW 315 0 min 0,000 mm 0,0 UV-I 0 W/m 1,5 C 1,8 C 3,2 km/h (1 Bft) 97,37 %
31.01.2018 05:46 1,8 C 4,4 C 98 % 1022,4 hPa 0,0 l/m 0,0 km/h (0 Bft) NW 315 0 min 0,000 mm 0,0 UV-I 0 W/m 1,5 C 1,8 C 0,0 km/h (0 Bft) 95,38 %
31.01.2018 05:48 1,8 C 4,4 C 98 % 1022,4 hPa 0,0 l/m 0,3 km/h (0 Bft) NW 311 0 min 0,000 mm 0,0 UV-I 0 W/m 1,5 C 1,8 C 1,6 km/h (1 Bft) 93,18 %
31.01.2018 05:50 1,8 C 4,4 C 98 % 1022,4 hPa 0,0 l/m 1,5 km/h (1 Bft) SW 220 0 min 0,000 mm 0,0 UV-I 0 W/m 1,5 C 1,8 C 4,8 km/h (1 Bft) 98,00 %
31.01.2018 05:52 1,8 C 4,4 C 98 % 1022,4 hPa 0,0 l/m 1,3 km/h (1 Bft) SW 220 0 min 0,000 mm 0,0 UV-I 0 W/m 1,5 C 1,8 C 3,2 km/h (1 Bft) 97,37 %
31.01.2018 05:54 1,8 C 4,4 C 98 % 1022,4 hPa 0,0 l/m 0,3 km/h (0 Bft) SW 220 0 min 0,000 mm 0,0 UV-I 0 W/m 1,5 C 1,8 C 1,6 km/h (1 Bft) 97,87 %
31.01.2018 05:56 1,8 C 4,4 C 98 % 1022,3 hPa 0,0 l/m 0,0 km/h (0 Bft) SW 220 0 min 0,000 mm 0,0 UV-I 0 W/m 1,5 C 1,8 C 0,0 km/h (0 Bft) 98,00 %
31.01.2018 05:58 1,8 C 4,4 C 98 % 1022,3 hPa 0,0 l/m 0,1 km/h (0 Bft) SW 220 0 min 0,000 mm 0,0 UV-I 0 W/m 1,5 C 1,8 C 1,6 km/h (1 Bft) 93,62 %
31.01.2018 06:00 1,9 C 4,4 C 98 % 1022,3 hPa 0,0 l/m 0,2 km/h (0 Bft) SW 220 0 min 0,000 mm 0,0 UV-I 0 W/m 1,6 C 1,9 C 1,6 km/h (1 Bft) 97,56 %
31.01.2018 06:02 1,9 C 4,4 C 98 % 1022,3 hPa 0,0 l/m 0,3 km/h (0 Bft) SW 220 0 min 0,000 mm 0,0 UV-I 0 W/m 1,6 C 1,9 C 1,6 km/h (1 Bft) 96,00 %
31.01.2018 06:04 1,8 C 4,4 C 98 % 1022,3 hPa 0,0 l/m 0,0 km/h (0 Bft) SW 220 0 min 0,000 mm 0,0 UV-I 0 W/m 1,5 C 1,8 C 1,6 km/h (1 Bft) 95,74 %
31.01.2018 06:06 1,9 C 4,4 C 98 % 1022,1 hPa 0,0 l/m 2,8 km/h (1 Bft) S-SO 150 0 min 0,000 mm 0,0 UV-I 0 W/m 1,6 C 1,9 C 6,4 km/h (2 Bft) 98,11 %
31.01.2018 06:08 1,9 C 4,4 C 98 % 1022,0 hPa 0,0 l/m 6,5 km/h (2 Bft) SO 131 0 min 0,000 mm 0,0 UV-I 0 W/m 1,6 C 1,8 C 8,0 km/h (2 Bft) 97,87 %
31.01.2018 06:10 2,1 C 4,4 C 97 % 1022,0 hPa 0,0 l/m 4,6 km/h (1 Bft) SO 130 0 min 0,000 mm 0,0 UV-I 0 W/m 1,7 C 2,1 C 6,4 km/h (2 Bft) 97,87 %
31.01.2018 06:12 2,1 C 4,4 C 98 % 1021,9 hPa 0,0 l/m 2,7 km/h (1 Bft) SO 130 0 min 0,000 mm 0,0 UV-I 0 W/m 1,8 C 2,1 C 4,8 km/h (1 Bft) 97,87 %
31.01.2018 06:14 2,2 C 4,4 C 98 % 1021,9 hPa 0,0 l/m 3,9 km/h (1 Bft) SO 130 0 min 0,000 mm 0,0 UV-I 0 W/m 1,9 C 2,2 C 4,8 km/h (1 Bft) 94,44 %
31.01.2018 06:16 2,3 C 4,4 C 98 % 1021,8 hPa 0,0 l/m 3,1 km/h (1 Bft) S-SO 150 0 min 0,000 mm 0,0 UV-I 0 W/m 2,0 C 2,3 C 6,4 km/h (2 Bft) 98,21 %
31.01.2018 06:18 2,3 C 4,4 C 98 % 1021,8 hPa 0,0 l/m 1,5 km/h (1 Bft) S-SO 158 0 min 0,000 mm 0,0 UV-I 0 W/m 2,0 C 2,3 C 3,2 km/h (1 Bft) 97,37 %
31.01.2018 06:20 2,4 C 4,4 C 98 % 1021,8 hPa 0,0 l/m 1,8 km/h (1 Bft) S-SO 158 0 min 0,000 mm 0,0 UV-I 0 W/m 2,1 C 2,4 C 4,8 km/h (1 Bft) 98,11 %
31.01.2018 06:22 2,5 C 4,4 C 98 % 1021,8 hPa 0,0 l/m 2,3 km/h (1 Bft) S-SW 194 0 min 0,000 mm 0,0 UV-I 0 W/m 2,2 C 2,5 C 4,8 km/h (1 Bft) 96,00 %
31.01.2018 06:24 2,6 C 4,4 C 98 % 1021,8 hPa 0,0 l/m 1,9 km/h (1 Bft) S 190 0 min 0,000 mm 0,0 UV-I 0 W/m 2,3 C 2,6 C 4,8 km/h (1 Bft) 97,56 %
31.01.2018 06:26 2,6 C 4,4 C 98 % 1021,8 hPa 0,0 l/m 0,5 km/h (0 Bft) S 188 0 min 0,000 mm 0,0 UV-I 0 W/m 2,3 C 2,6 C 3,2 km/h (1 Bft) 96,00 %
31.01.2018 06:28 2,4 C 4,4 C 98 % 1021,8 hPa 0,0 l/m 1,4 km/h (1 Bft) W-NW 300 0 min 0,000 mm 0,0 UV-I 0 W/m 2,1 C 2,4 C 3,2 km/h (1 Bft) 96,00 %
31.01.2018 06:30 2,2 C 4,4 C 97 % 1021,8 hPa 0,0 l/m 0,4 km/h (0 Bft) W-NW 300 0 min 0,000 mm 0,0 UV-I 0 W/m 1,8 C 2,2 C 1,6 km/h (1 Bft) 100,00 %
31.01.2018 06:32 2,2 C 4,4 C 97 % 1021,8 hPa 0,0 l/m 1,4 km/h (1 Bft) W-NW 302 0 min 0,000 mm 0,0 UV-I 0 W/m 1,8 C 2,2 C 3,2 km/h (1 Bft) 97,87 %
31.01.2018 06:34 2,2 C 4,4 C 97 % 1021,8 hPa 0,0 l/m 0,4 km/h (0 Bft) W-NW 302 0 min 0,000 mm 0,0 UV-I 0 W/m 1,8 C 2,2 C 1,6 km/h (1 Bft) 98,00 %
31.01.2018 06:36 2,2 C 4,4 C 97 % 1021,8 hPa 0,0 l/m 3,6 km/h (1 Bft) W 259 0 min 0,000 mm 0,0 UV-I 0 W/m 1,8 C 2,2 C 6,4 km/h (2 Bft) 100,00 %
31.01.2018 06:38 2,2 C 4,4 C 97 % 1021,8 hPa 0,0 l/m 4,2 km/h (1 Bft) SW 223 0 min 0,000 mm 0,0 UV-I 0 W/m 1,8 C 2,2 C 6,4 km/h (2 Bft) 100,00 %
31.01.2018 06:40 2,2 C 4,4 C 97 % 1021,7 hPa 0,0 l/m 1,5 km/h (1 Bft) SW 223 0 min 0,000 mm 0,0 UV-I 0 W/m 1,8 C 2,2 C 4,8 km/h (1 Bft) 100,00 %
31.01.2018 06:42 2,3 C 4,4 C 97 % 1021,8 hPa 0,0 l/m 2,8 km/h (1 Bft) SW 223 0 min 0,000 mm 0,0 UV-I 0 W/m 1,9 C 2,3 C 4,8 km/h (1 Bft) 100,00 %
31.01.2018 06:44 2,3 C 4,4 C 97 % 1021,8 hPa 0,0 l/m 3,6 km/h (1 Bft) W 275 0 min 0,000 mm 0,0 UV-I 0 W/m 1,9 C 2,3 C 4,8 km/h (1 Bft) 100,00 %
31.01.2018 06:46 2,3 C 4,4 C 97 % 1021,7 hPa 0,0 l/m 0,0 km/h (0 Bft) W 275 0 min 0,000 mm 0,0 UV-I 0 W/m 1,9 C 2,3 C 1,6 km/h (1 Bft) 100,00 %
31.01.2018 06:48 2,4 C 4,4 C 97 % 1021,7 hPa 0,0 l/m 1,2 km/h (1 Bft) W 275 0 min 0,000 mm 0,0 UV-I 0 W/m 2,0 C 2,4 C 4,8 km/h (1 Bft) 97,62 %
31.01.2018 06:50 2,4 C 4,4 C 97 % 1021,8 hPa 0,0 l/m 3,7 km/h (1 Bft) S 190 0 min 0,000 mm 0,0 UV-I 0 W/m 2,0 C 2,4 C 4,8 km/h (1 Bft) 100,00 %
31.01.2018 06:52 2,4 C 4,4 C 97 % 1021,7 hPa 0,0 l/m 3,7 km/h (1 Bft) S-SO 153 0 min 0,000 mm 0,0 UV-I 0 W/m 2,0 C 2,4 C 6,4 km/h (2 Bft) 94,74 %
31.01.2018 06:54 2,6 C 4,4 C 97 % 1021,7 hPa 0,0 l/m 1,0 km/h (0 Bft) S-SO 154 0 min 0,000 mm 0,0 UV-I 0 W/m 2,2 C 2,6 C 3,2 km/h (1 Bft) 96,30 %
31.01.2018 06:56 2,6 C 4,4 C 97 % 1021,7 hPa 0,0 l/m 1,0 km/h (0 Bft) S-SO 155 0 min 0,000 mm 0,0 UV-I 0 W/m 2,2 C 2,6 C 3,2 km/h (1 Bft) 100,00 %
31.01.2018 06:58 2,6 C 4,4 C 97 % 1021,7 hPa 0,0 l/m 0,0 km/h (0 Bft) S-SO 155 0 min 0,000 mm 0,0 UV-I 0 W/m 2,2 C 2,6 C 1,6 km/h (1 Bft) 100,00 %
31.01.2018 07:00 2,6 C 4,4 C 97 % 1021,7 hPa 0,0 l/m 0,5 km/h (0 Bft) S-SO 155 0 min 0,000 mm 0,0 UV-I 0 W/m 2,2 C 2,6 C 1,6 km/h (1 Bft) 100,00 %
31.01.2018 07:02 2,6 C 4,4 C 97 % 1021,7 hPa 0,0 l/m 0,0 km/h (0 Bft) S-SO 155 0 min 0,000 mm 0,0 UV-I 0 W/m 2,2 C 2,6 C 0,0 km/h (0 Bft) 100,00 %
31.01.2018 07:04 2,5 C 4,4 C 97 % 1021,7 hPa 0,0 l/m 1,6 km/h (1 Bft) SW 223 0 min 0,000 mm 0,0 UV-I 0 W/m 2,1 C 2,5 C 3,2 km/h (1 Bft) 100,00 %
31.01.2018 07:06 2,5 C 4,4 C 97 % 1021,6 hPa 0,0 l/m 0,4 km/h (0 Bft) SW 223 0 min 0,000 mm 0,0 UV-I 0 W/m 2,1 C 2,5 C 1,6 km/h (1 Bft) 100,00 %
31.01.2018 07:08 2,6 C 4,4 C 97 % 1021,6 hPa 0,0 l/m 0,0 km/h (0 Bft) SW 223 0 min 0,000 mm 0,0 UV-I 0 W/m 2,2 C 2,6 C 0,0 km/h (0 Bft) 100,00 %
31.01.2018 07:10 2,6 C 4,4 C 97 % 1021,7 hPa 0,0 l/m 0,0 km/h (0 Bft) SW 223 0 min 0,000 mm 0,0 UV-I 0 W/m 2,2 C 2,6 C 0,0 km/h (0 Bft) 100,00 %
31.01.2018 07:12 2,6 C 4,4 C 97 % 1021,6 hPa 0,0 l/m 0,0 km/h (0 Bft) SW 223 0 min 0,000 mm 0,0 UV-I 0 W/m 2,2 C 2,6 C 0,0 km/h (0 Bft) 100,00 %
31.01.2018 07:14 2,6 C 4,4 C 97 % 1021,6 hPa 0,0 l/m 0,6 km/h (0 Bft) SW 223 0 min 0,000 mm 0,0 UV-I 0 W/m 2,2 C 2,6 C 3,2 km/h (1 Bft) 97,87 %
31.01.2018 07:16 2,6 C 4,4 C 96 % 1021,7 hPa 0,0 l/m 3,0 km/h (1 Bft) SW 223 0 min 0,000 mm 0,0 UV-I 0 W/m 2,0 C 2,6 C 4,8 km/h (1 Bft) 100,00 %
31.01.2018 07:18 2,5 C 4,4 C 96 % 1021,7 hPa 0,0 l/m 0,0 km/h (0 Bft) SW 223 0 min 0,000 mm 0,0 UV-I 0 W/m 1,9 C 2,5 C 1,6 km/h (1 Bft) 96,00 %
31.01.2018 07:20 2,4 C 4,4 C 96 % 1021,7 hPa 0,0 l/m 3,1 km/h (1 Bft) SW 223 0 min 0,000 mm 0,0 UV-I 0 W/m 1,8 C 2,4 C 4,8 km/h (1 Bft) 97,87 %
31.01.2018 07:22 2,4 C 4,4 C 96 % 1021,7 hPa 0,0 l/m 1,8 km/h (1 Bft) NO 49 0 min 0,000 mm 0,0 UV-I 0 W/m 1,8 C 2,4 C 4,8 km/h (1 Bft) 97,62 %
31.01.2018 07:24 2,3 C 4,4 C 96 % 1021,6 hPa 0,0 l/m 4,2 km/h (1 Bft) NO 50 0 min 0,000 mm 0,0 UV-I 0 W/m 1,7 C 2,3 C 6,4 km/h (2 Bft) 93,88 %
31.01.2018 07:26 2,4 C 4,4 C 96 % 1021,7 hPa 0,0 l/m 3,8 km/h (1 Bft) NO 50 0 min 0,000 mm 0,0 UV-I 2 W/m 1,8 C 2,4 C 4,8 km/h (1 Bft) 97,22 %
31.01.2018 07:28 2,4 C 4,4 C 96 % 1021,8 hPa 0,0 l/m 2,6 km/h (1 Bft) NO 50 0 min 0,000 mm 0,0 UV-I 0 W/m 1,8 C 2,4 C 4,8 km/h (1 Bft) 98,44 %
31.01.2018 07:30 2,3 C 4,4 C 96 % 1021,7 hPa 0,0 l/m 1,9 km/h (1 Bft) NO 50 0 min 0,000 mm 0,0 UV-I 0 W/m 1,7 C 2,3 C 3,2 km/h (1 Bft) 97,92 %
31.01.2018 07:32 2,3 C 4,4 C 96 % 1021,7 hPa 0,0 l/m 1,1 km/h (1 Bft) NO 50 0 min 0,000 mm 0,0 UV-I 3 W/m 1,7 C 2,3 C 3,2 km/h (1 Bft) 97,37 %
31.01.2018 07:34 2,3 C 4,4 C 96 % 1021,7 hPa 0,0 l/m 0,4 km/h (0 Bft) NO 50 0 min 0,000 mm 0,0 UV-I 1 W/m 1,7 C 2,3 C 1,6 km/h (1 Bft) 97,87 %
31.01.2018 07:36 2,3 C 4,4 C 97 % 1021,7 hPa 0,0 l/m 0,0 km/h (0 Bft) NO 50 0 min 0,000 mm 0,0 UV-I 2 W/m 1,9 C 2,3 C 0,0 km/h (0 Bft) 94,00 %
31.01.2018 07:38 2,3 C 4,4 C 97 % 1021,7 hPa 0,0 l/m 0,0 km/h (0 Bft) NO 50 0 min 0,000 mm 0,0 UV-I 5 W/m 1,9 C 2,3 C 0,0 km/h (0 Bft) 96,00 %
31.01.2018 07:40 2,2 C 4,4 C 97 % 1021,7 hPa 0,0 l/m 0,0 km/h (0 Bft) NO 50 0 min 0,000 mm 0,0 UV-I 5 W/m 1,8 C 2,2 C 0,0 km/h (0 Bft) 97,87 %
31.01.2018 07:42 2,2 C 4,4 C 97 % 1021,7 hPa 0,0 l/m 0,0 km/h (0 Bft) NO 50 0 min 0,000 mm 0,0 UV-I 5 W/m 1,8 C 2,2 C 0,0 km/h (0 Bft) 93,62 %
31.01.2018 07:44 2,2 C 4,4 C 97 % 1021,7 hPa 0,0 l/m 0,0 km/h (0 Bft) NO 50 0 min 0,000 mm 0,0 UV-I 5 W/m 1,8 C 2,2 C 0,0 km/h (0 Bft) 94,29 %
31.01.2018 07:46 2,2 C 4,4 C 97 % 1021,7 hPa 0,0 l/m 0,0 km/h (0 Bft) NO 50 0 min 0,000 mm 0,0 UV-I 5 W/m 1,8 C 2,2 C 0,0 km/h (0 Bft) 96,00 %
31.01.2018 07:48 2,2 C 4,4 C 97 % 1021,6 hPa 0,0 l/m 0,0 km/h (0 Bft) NO 50 0 min 0,000 mm 0,0 UV-I 5 W/m 1,8 C 2,2 C 0,0 km/h (0 Bft) 92,86 %
31.01.2018 07:50 2,2 C 4,4 C 97 % 1021,6 hPa 0,0 l/m 0,0 km/h (0 Bft) NO 50 0 min 0,000 mm 0,0 UV-I 5 W/m 1,8 C 2,2 C 0,0 km/h (0 Bft) 97,87 %
31.01.2018 07:52 2,2 C 4,4 C 97 % 1021,6 hPa 0,0 l/m 0,0 km/h (0 Bft) NO 50 0 min 0,000 mm 0,0 UV-I 5 W/m 1,8 C 2,2 C 0,0 km/h (0 Bft) 97,37 %
31.01.2018 07:54 2,3 C 4,4 C 97 % 1021,6 hPa 0,0 l/m 0,0 km/h (0 Bft) NO 50 0 min 0,000 mm 0,0 UV-I 7 W/m 1,9 C 2,3 C 0,0 km/h (0 Bft) 100,00 %
31.01.2018 07:56 2,2 C 4,4 C 97 % 1021,6 hPa 0,0 l/m 0,0 km/h (0 Bft) NO 50 0 min 0,000 mm 0,0 UV-I 7 W/m 1,8 C 2,2 C 0,0 km/h (0 Bft) 100,00 %
31.01.2018 07:58 2,2 C 4,4 C 97 % 1021,6 hPa 0,0 l/m 0,0 km/h (0 Bft) NO 50 0 min 0,000 mm 0,0 UV-I 9 W/m 1,8 C 2,2 C 0,0 km/h (0 Bft) 95,74 %
31.01.2018 08:00 2,2 C 4,4 C 97 % 1021,6 hPa 0,0 l/m 0,0 km/h (0 Bft) NO 50 0 min 0,000 mm 0,0 UV-I 9 W/m 1,8 C 2,2 C 0,0 km/h (0 Bft) 97,87 %
31.01.2018 08:02 2,2 C 4,4 C 97 % 1021,6 hPa 0,0 l/m 0,0 km/h (0 Bft) NO 50 0 min 0,000 mm 0,0 UV-I 8 W/m 1,8 C 2,2 C 0,0 km/h (0 Bft) 97,44 %
31.01.2018 08:04 2,1 C 4,4 C 97 % 1021,6 hPa 0,0 l/m 0,0 km/h (0 Bft) NO 50 0 min 0,000 mm 0,0 UV-I 9 W/m 1,7 C 2,1 C 0,0 km/h (0 Bft) 98,08 %
31.01.2018 08:06 2,1 C 4,4 C 97 % 1021,5 hPa 0,0 l/m 1,1 km/h (1 Bft) NO 50 0 min 0,000 mm 0,0 UV-I 10 W/m 1,7 C 2,1 C 3,2 km/h (1 Bft) 97,92 %
31.01.2018 08:08 2,1 C 4,4 C 97 % 1021,5 hPa 0,0 l/m 3,4 km/h (1 Bft) NO 51 0 min 0,000 mm 0,0 UV-I 11 W/m 1,7 C 2,1 C 4,8 km/h (1 Bft) 100,00 %
31.01.2018 08:10 2,1 C 4,4 C 97 % 1021,4 hPa 0,0 l/m 4,3 km/h (1 Bft) O-NO 58 0 min 0,000 mm 0,0 UV-I 11 W/m 1,7 C 2,1 C 4,8 km/h (1 Bft) 100,00 %
31.01.2018 08:12 2,1 C 4,4 C 97 % 1021,3 hPa 0,0 l/m 4,9 km/h (1 Bft) O 90 0 min 0,000 mm 0,0 UV-I 12 W/m 1,7 C 2,1 C 6,4 km/h (2 Bft) 100,00 %
31.01.2018 08:14 2,1 C 4,4 C 97 % 1021,3 hPa 0,0 l/m 3,6 km/h (1 Bft) O 90 0 min 0,000 mm 0,0 UV-I 14 W/m 1,7 C 2,1 C 4,8 km/h (1 Bft) 98,21 %
31.01.2018 08:16 2,2 C 4,4 C 97 % 1021,2 hPa 0,0 l/m 4,6 km/h (1 Bft) O-SO 105 0 min 0,000 mm 0,0 UV-I 19 W/m 1,8 C 2,2 C 6,4 km/h (2 Bft) 100,00 %
31.01.2018 08:18 2,2 C 4,4 C 97 % 1021,1 hPa 0,0 l/m 4,0 km/h (1 Bft) O-SO 105 0 min 0,000 mm 0,0 UV-I 25 W/m 1,8 C 2,2 C 4,8 km/h (1 Bft) 100,00 %
31.01.2018 08:20 2,2 C 4,4 C 97 % 1021,2 hPa 0,0 l/m 1,3 km/h (1 Bft) O-SO 105 0 min 0,000 mm 0,0 UV-I 33 W/m 1,8 C 2,2 C 4,8 km/h (1 Bft) 100,00 %
31.01.2018 08:22 2,3 C 4,4 C 97 % 1021,1 hPa 0,0 l/m 1,5 km/h (1 Bft) O-SO 105 0 min 0,000 mm 0,0 UV-I 39 W/m 1,9 C 2,3 C 3,2 km/h (1 Bft) 97,87 %
31.01.2018 08:24 2,4 C 4,4 C 97 % 1021,2 hPa 0,0 l/m 2,9 km/h (1 Bft) O-SO 105 0 min 0,000 mm 0,0 UV-I 41 W/m 2,0 C 2,4 C 4,8 km/h (1 Bft) 97,87 %
31.01.2018 08:26 2,4 C 4,4 C 97 % 1021,0 hPa 0,0 l/m 2,2 km/h (1 Bft) O-SO 104 0 min 0,000 mm 0,0 UV-I 45 W/m 2,0 C 2,4 C 4,8 km/h (1 Bft) 98,04 %
31.01.2018 08:28 2,5 C 4,4 C 97 % 1021,0 hPa 0,0 l/m 1,3 km/h (1 Bft) O-SO 104 0 min 0,000 mm 0,0 UV-I 48 W/m 2,1 C 2,5 C 3,2 km/h (1 Bft) 100,00 %
31.01.2018 08:30 2,5 C 4,4 C 97 % 1021,0 hPa 0,0 l/m 0,1 km/h (0 Bft) O-SO 104 0 min 0,000 mm 0,0 UV-I 49 W/m 2,1 C 2,5 C 1,6 km/h (1 Bft) 100,00 %
31.01.2018 08:32 2,6 C 4,4 C 97 % 1021,0 hPa 0,0 l/m 0,2 km/h (0 Bft) O-SO 104 0 min 0,000 mm 0,0 UV-I 52 W/m 2,2 C 2,6 C 1,6 km/h (1 Bft) 100,00 %
31.01.2018 08:34 2,6 C 4,4 C 97 % 1020,9 hPa 0,0 l/m 0,3 km/h (0 Bft) O-SO 104 0 min 0,000 mm 0,0 UV-I 52 W/m 2,2 C 2,6 C 1,6 km/h (1 Bft) 98,00 %
31.01.2018 08:36 2,5 C 4,4 C 97 % 1021,0 hPa 0,0 l/m 0,0 km/h (0 Bft) O-SO 104 0 min 0,000 mm 0,0 UV-I 49 W/m 2,1 C 2,5 C 0,0 km/h (0 Bft) 100,00 %
31.01.2018 08:38 2,4 C 4,4 C 96 % 1020,9 hPa 0,0 l/m 0,9 km/h (0 Bft) O-SO 104 0 min 0,000 mm 0,0 UV-I 47 W/m 1,8 C 2,4 C 3,2 km/h (1 Bft) 97,37 %
31.01.2018 08:40 2,4 C 4,4 C 96 % 1020,9 hPa 0,0 l/m 0,9 km/h (0 Bft) O-SO 104 0 min 0,000 mm 0,0 UV-I 47 W/m 1,8 C 2,4 C 3,2 km/h (1 Bft) 100,00 %
31.01.2018 08:42 2,4 C 4,4 C 96 % 1020,8 hPa 0,0 l/m 2,1 km/h (1 Bft) SO 129 2 min 0,000 mm 0,0 UV-I 93 W/m 1,8 C 2,4 C 4,8 km/h (1 Bft) 100,00 %
31.01.2018 08:44 2,5 C 4,4 C 97 % 1020,8 hPa 0,0 l/m 2,9 km/h (1 Bft) SO 133 2 min 0,000 mm 0,0 UV-I 121 W/m 2,1 C 2,5 C 4,8 km/h (1 Bft) 100,00 %
31.01.2018 08:46 2,6 C 4,4 C 97 % 1020,8 hPa 0,0 l/m 1,0 km/h (0 Bft) SO 133 0 min 0,000 mm 0,0 UV-I 64 W/m 2,2 C 2,6 C 4,8 km/h (1 Bft) 98,00 %
31.01.2018 08:48 2,6 C 4,4 C 97 % 1020,7 hPa 0,0 l/m 7,0 km/h (2 Bft) O-SO 116 0 min 0,000 mm 0,0 UV-I 53 W/m 2,2 C 2,0 C 12,9 km/h (3 Bft) 100,00 %
31.01.2018 08:50 2,7 C 4,4 C 97 % 1020,7 hPa 0,0 l/m 2,6 km/h (1 Bft) O-SO 120 0 min 0,000 mm 0,0 UV-I 72 W/m 2,3 C 2,7 C 6,4 km/h (2 Bft) 94,34 %
31.01.2018 08:52 2,8 C 4,4 C 97 % 1020,7 hPa 0,0 l/m 1,3 km/h (1 Bft) O-SO 120 0 min 0,000 mm 0,0 UV-I 92 W/m 2,4 C 2,8 C 4,8 km/h (1 Bft) 100,00 %
31.01.2018 08:54 2,8 C 4,4 C 97 % 1020,7 hPa 0,0 l/m 2,0 km/h (1 Bft) O-SO 120 0 min 0,000 mm 0,0 UV-I 98 W/m 2,4 C 2,8 C 4,8 km/h (1 Bft) 97,87 %
31.01.2018 08:56 2,9 C 4,4 C 96 % 1020,7 hPa 0,0 l/m 0,9 km/h (0 Bft) O-SO 120 0 min 0,000 mm 0,0 UV-I 101 W/m 2,3 C 2,9 C 3,2 km/h (1 Bft) 100,00 %
31.01.2018 08:58 3,1 C 4,4 C 96 % 1020,6 hPa 0,0 l/m 5,3 km/h (1 Bft) O 97 2 min 0,000 mm 0,0 UV-I 161 W/m 2,5 C 3,1 C 9,7 km/h (2 Bft) 100,00 %
31.01.2018 09:00 3,2 C 4,4 C 96 % 1020,5 hPa 0,0 l/m 7,7 km/h (2 Bft) O-SO 113 2 min 0,000 mm 0,0 UV-I 191 W/m 2,6 C 2,0 C 12,9 km/h (3 Bft) 100,00 %
31.01.2018 09:02 3,2 C 4,4 C 96 % 1020,4 hPa 0,0 l/m 11,0 km/h (2 Bft) O-SO 112 2 min 0,025 mm 0,0 UV-I 126 W/m 2,6 C -0,6 C 14,5 km/h (3 Bft) 100,00 %
31.01.2018 09:04 3,2 C 4,4 C 96 % 1020,4 hPa 0,0 l/m 9,0 km/h (2 Bft) O-SO 111 0 min 0,000 mm 0,0 UV-I 113 W/m 2,6 C 0,9 C 12,9 km/h (3 Bft) 100,00 %
31.01.2018 09:06 3,3 C 4,4 C 95 % 1020,4 hPa 0,0 l/m 7,2 km/h (2 Bft) SO 127 2 min 0,000 mm 0,0 UV-I 173 W/m 2,6 C 2,5 C 12,9 km/h (3 Bft) 100,00 %
31.01.2018 09:08 3,3 C 4,4 C 95 % 1020,3 hPa 0,0 l/m 7,5 km/h (2 Bft) O-SO 111 2 min 0,000 mm 0,0 UV-I 124 W/m 2,6 C 2,3 C 12,9 km/h (3 Bft) 100,00 %
31.01.2018 09:10 3,3 C 4,4 C 95 % 1020,3 hPa 0,0 l/m 2,9 km/h (1 Bft) O-SO 109 0 min 0,000 mm 0,0 UV-I 105 W/m 2,6 C 3,3 C 9,7 km/h (2 Bft) 100,00 %
31.01.2018 09:12 3,3 C 4,4 C 95 % 1020,3 hPa 0,0 l/m 3,4 km/h (1 Bft) O-SO 108 0 min 0,000 mm 0,0 UV-I 88 W/m 2,6 C 3,3 C 6,4 km/h (2 Bft) 100,00 %
31.01.2018 09:14 3,2 C 4,4 C 95 % 1020,3 hPa 0,0 l/m 1,5 km/h (1 Bft) SO 131 0 min 0,000 mm 0,0 UV-I 93 W/m 2,5 C 3,2 C 3,2 km/h (1 Bft) 100,00 %
31.01.2018 09:16 3,3 C 4,4 C 95 % 1020,2 hPa 0,0 l/m 0,6 km/h (0 Bft) S-SO 160 0 min 0,000 mm 0,0 UV-I 98 W/m 2,6 C 3,3 C 3,2 km/h (1 Bft) 98,08 %
31.01.2018 09:18 3,3 C 4,4 C 95 % 1020,3 hPa 0,0 l/m 1,9 km/h (1 Bft) S-SO 157 0 min 0,000 mm 0,0 UV-I 92 W/m 2,6 C 3,3 C 4,8 km/h (1 Bft) 98,11 %
31.01.2018 09:20 3,3 C 4,4 C 94 % 1020,2 hPa 0,0 l/m 4,3 km/h (1 Bft) NO 47 0 min 0,000 mm 0,0 UV-I 91 W/m 2,4 C 3,3 C 6,4 km/h (2 Bft) 100,00 %
31.01.2018 09:22 3,3 C 4,4 C 94 % 1020,1 hPa 0,0 l/m 5,7 km/h (1 Bft) O-NO 73 0 min 0,000 mm 0,0 UV-I 97 W/m 2,4 C 3,3 C 8,0 km/h (2 Bft) 93,62 %
31.01.2018 09:24 3,3 C 4,4 C 94 % 1020,1 hPa 0,0 l/m 3,2 km/h (1 Bft) NO 53 0 min 0,000 mm 0,0 UV-I 103 W/m 2,4 C 3,3 C 6,4 km/h (2 Bft) 95,74 %
31.01.2018 09:26 3,3 C 4,4 C 94 % 1020,1 hPa 0,0 l/m 4,1 km/h (1 Bft) O-NO 78 0 min 0,000 mm 0,0 UV-I 108 W/m 2,4 C 3,3 C 6,4 km/h (2 Bft) 98,00 %
31.01.2018 09:28 3,3 C 4,4 C 94 % 1020,0 hPa 0,0 l/m 3,9 km/h (1 Bft) O-NO 69 0 min 0,000 mm 0,0 UV-I 115 W/m 2,4 C 3,3 C 4,8 km/h (1 Bft) 98,00 %
31.01.2018 09:30 3,3 C 4,4 C 94 % 1020,0 hPa 0,0 l/m 2,2 km/h (1 Bft) SO 139 0 min 0,000 mm 0,0 UV-I 118 W/m 2,4 C 3,3 C 6,4 km/h (2 Bft) 95,74 %
31.01.2018 09:32 3,4 C 4,4 C 94 % 1020,0 hPa 0,0 l/m 1,6 km/h (1 Bft) SO 138 0 min 0,000 mm 0,0 UV-I 115 W/m 2,5 C 3,4 C 4,8 km/h (1 Bft) 97,87 %
31.01.2018 09:34 3,5 C 4,4 C 94 % 1020,1 hPa 0,0 l/m 0,6 km/h (0 Bft) SO 138 0 min 0,000 mm 0,0 UV-I 105 W/m 2,6 C 3,5 C 3,2 km/h (1 Bft) 97,73 %
31.01.2018 09:36 3,6 C 4,4 C 94 % 1020,1 hPa 0,0 l/m 0,0 km/h (0 Bft) SO 138 0 min 0,000 mm 0,0 UV-I 106 W/m 2,7 C 3,6 C 0,0 km/h (0 Bft) 96,00 %
31.01.2018 09:38 3,6 C 4,4 C 93 % 1020,0 hPa 0,0 l/m 0,0 km/h (0 Bft) SO 138 0 min 0,000 mm 0,0 UV-I 115 W/m 2,6 C 3,6 C 0,0 km/h (0 Bft) 97,37 %
31.01.2018 09:40 3,6 C 4,4 C 93 % 1020,0 hPa 0,0 l/m 0,1 km/h (0 Bft) SO 138 0 min 0,000 mm 0,0 UV-I 139 W/m 2,6 C 3,6 C 3,2 km/h (1 Bft) 96,00 %
31.01.2018 09:42 3,7 C 4,4 C 94 % 1020,0 hPa 0,0 l/m 2,9 km/h (1 Bft) SO 138 0 min 0,000 mm 0,0 UV-I 152 W/m 2,8 C 3,7 C 3,2 km/h (1 Bft) 95,74 %
31.01.2018 09:44 3,8 C 4,4 C 93 % 1020,1 hPa 0,0 l/m 1,3 km/h (1 Bft) SO 138 2 min 0,000 mm 0,0 UV-I 160 W/m 2,8 C 3,8 C 4,8 km/h (1 Bft) 94,34 %
31.01.2018 09:46 3,8 C 4,4 C 94 % 1020,1 hPa 0,0 l/m 0,4 km/h (0 Bft) SO 138 2 min 0,000 mm 0,0 UV-I 161 W/m 2,9 C 3,8 C 1,6 km/h (1 Bft) 91,43 %
31.01.2018 09:48 3,8 C 4,4 C 94 % 1020,0 hPa 0,0 l/m 0,7 km/h (0 Bft) NO 49 0 min 0,000 mm 0,0 UV-I 143 W/m 2,9 C 3,8 C 3,2 km/h (1 Bft) 96,23 %
31.01.2018 09:50 3,8 C 4,4 C 94 % 1020,0 hPa 0,0 l/m 0,1 km/h (0 Bft) NO 50 0 min 0,000 mm 0,0 UV-I 137 W/m 2,9 C 3,8 C 1,6 km/h (1 Bft) 96,00 %
31.01.2018 09:52 3,8 C 4,4 C 94 % 1020,0 hPa 0,0 l/m 0,6 km/h (0 Bft) NO 49 0 min 0,000 mm 0,0 UV-I 133 W/m 2,9 C 3,8 C 1,6 km/h (1 Bft) 97,56 %
31.01.2018 09:54 3,8 C 4,4 C 94 % 1020,0 hPa 0,0 l/m 2,6 km/h (1 Bft) NO 39 0 min 0,000 mm 0,0 UV-I 148 W/m 2,9 C 3,8 C 6,4 km/h (2 Bft) 98,11 %
31.01.2018 09:56 3,7 C 4,4 C 94 % 1020,0 hPa 0,0 l/m 2,3 km/h (1 Bft) N-NO 22 0 min 0,000 mm 0,0 UV-I 159 W/m 2,8 C 3,7 C 4,8 km/h (1 Bft) 96,00 %
31.01.2018 09:58 3,8 C 4,4 C 94 % 1020,0 hPa 0,0 l/m 3,9 km/h (1 Bft) N 9 0 min 0,000 mm 0,0 UV-I 150 W/m 2,9 C 3,8 C 8,0 km/h (2 Bft) 100,00 %
31.01.2018 10:00 3,7 C 4,4 C 94 % 1019,9 hPa 0,0 l/m 4,4 km/h (1 Bft) NO 41 0 min 0,051 mm 0,0 UV-I 137 W/m 2,8 C 3,7 C 9,7 km/h (2 Bft) 96,55 %
31.01.2018 10:02 3,7 C 4,4 C 94 % 1019,9 hPa 0,0 l/m 7,6 km/h (2 Bft) N-NO 12 0 min 0,000 mm 0,0 UV-I 139 W/m 2,8 C 2,6 C 12,9 km/h (3 Bft) 97,62 %
31.01.2018 10:04 3,7 C 4,4 C 94 % 1019,9 hPa 0,0 l/m 8,6 km/h (2 Bft) N-NO 28 0 min 0,000 mm 0,0 UV-I 149 W/m 2,8 C 1,7 C 12,9 km/h (3 Bft) 97,56 %
31.01.2018 10:06 3,6 C 4,4 C 95 % 1019,9 hPa 0,0 l/m 7,3 km/h (2 Bft) N-NO 17 0 min 0,000 mm 0,0 UV-I 144 W/m 2,9 C 2,8 C 9,7 km/h (2 Bft) 97,87 %
31.01.2018 10:08 3,6 C 4,4 C 95 % 1019,9 hPa 0,0 l/m 6,6 km/h (2 Bft) N-NO 32 0 min 0,000 mm 0,0 UV-I 142 W/m 2,9 C 3,4 C 9,7 km/h (2 Bft) 98,00 %
31.01.2018 10:10 3,6 C 4,4 C 95 % 1019,9 hPa 0,0 l/m 5,5 km/h (1 Bft) NO 36 0 min 0,000 mm 0,0 UV-I 127 W/m 2,9 C 3,6 C 8,0 km/h (2 Bft) 96,23 %
31.01.2018 10:12 3,6 C 4,4 C 95 % 1019,9 hPa 0,0 l/m 7,4 km/h (2 Bft) N-NO 21 0 min 0,000 mm 0,0 UV-I 123 W/m 2,9 C 2,7 C 9,7 km/h (2 Bft) 97,73 %
31.01.2018 10:14 3,6 C 4,4 C 95 % 1019,8 hPa 0,0 l/m 5,2 km/h (1 Bft) O-NO 65 0 min 0,000 mm 0,0 UV-I 127 W/m 2,9 C 3,6 C 8,0 km/h (2 Bft) 98,00 %
31.01.2018 10:16 3,6 C 4,4 C 95 % 1019,8 hPa 0,0 l/m 7,3 km/h (2 Bft) NO 38 0 min 0,000 mm 0,0 UV-I 131 W/m 2,9 C 2,8 C 9,7 km/h (2 Bft) 97,37 %
31.01.2018 10:18 3,6 C 4,4 C 95 % 1019,7 hPa 0,0 l/m 6,9 km/h (2 Bft) NO 44 0 min 0,000 mm 0,0 UV-I 130 W/m 2,9 C 3,1 C 9,7 km/h (2 Bft) 96,43 %
31.01.2018 10:20 3,6 C 4,4 C 95 % 1019,7 hPa 0,0 l/m 6,3 km/h (2 Bft) NO 42 0 min 0,000 mm 0,0 UV-I 137 W/m 2,9 C 3,6 C 9,7 km/h (2 Bft) 100,00 %
31.01.2018 10:22 3,6 C 4,4 C 95 % 1019,7 hPa 0,0 l/m 6,1 km/h (2 Bft) N-NO 27 0 min 0,000 mm 0,0 UV-I 137 W/m 2,9 C 3,6 C 9,7 km/h (2 Bft) 97,22 %
31.01.2018 10:24 3,7 C 4,4 C 95 % 1019,6 hPa 0,0 l/m 7,1 km/h (2 Bft) N-NO 24 0 min 0,000 mm 0,0 UV-I 147 W/m 3,0 C 3,1 C 11,3 km/h (2 Bft) 94,64 %
31.01.2018 10:26 3,7 C 4,4 C 95 % 1019,6 hPa 0,0 l/m 5,2 km/h (1 Bft) NO 43 0 min 0,000 mm 0,0 UV-I 166 W/m 3,0 C 3,7 C 8,0 km/h (2 Bft) 96,23 %
31.01.2018 10:28 3,7 C 4,4 C 95 % 1019,6 hPa 0,0 l/m 5,5 km/h (1 Bft) NO 42 0 min 0,000 mm 0,0 UV-I 160 W/m 3,0 C 3,7 C 8,0 km/h (2 Bft) 96,00 %
31.01.2018 10:30 3,7 C 4,4 C 95 % 1019,6 hPa 0,0 l/m 2,8 km/h (1 Bft) NO 36 0 min 0,000 mm 0,0 UV-I 172 W/m 3,0 C 3,7 C 6,4 km/h (2 Bft) 97,37 %
31.01.2018 10:32 3,8 C 4,4 C 95 % 1019,6 hPa 0,0 l/m 5,6 km/h (1 Bft) NO 46 0 min 0,000 mm 0,0 UV-I 182 W/m 3,1 C 3,8 C 8,0 km/h (2 Bft) 98,11 %
31.01.2018 10:34 3,8 C 4,4 C 95 % 1019,6 hPa 0,0 l/m 5,6 km/h (1 Bft) O-NO 65 0 min 0,000 mm 0,1 UV-I 173 W/m 3,1 C 3,8 C 6,4 km/h (2 Bft) 97,62 %
31.01.2018 10:36 3,7 C 4,4 C 94 % 1019,6 hPa 0,0 l/m 5,3 km/h (1 Bft) NO 49 0 min 0,000 mm 0,5 UV-I 171 W/m 2,8 C 3,7 C 6,4 km/h (2 Bft) 97,87 %
31.01.2018 10:38 3,8 C 4,4 C 95 % 1019,6 hPa 0,0 l/m 3,3 km/h (1 Bft) NO 42 0 min 0,000 mm 0,5 UV-I 189 W/m 3,1 C 3,8 C 4,8 km/h (1 Bft) 98,00 %
31.01.2018 10:40 3,8 C 4,4 C 95 % 1019,5 hPa 0,0 l/m 4,6 km/h (1 Bft) NO 40 0 min 0,000 mm 0,5 UV-I 189 W/m 3,1 C 3,8 C 6,4 km/h (2 Bft) 97,87 %
31.01.2018 10:42 3,8 C 4,4 C 95 % 1019,5 hPa 0,0 l/m 3,7 km/h (1 Bft) O-NO 67 0 min 0,000 mm 0,5 UV-I 190 W/m 3,1 C 3,8 C 6,4 km/h (2 Bft) 95,74 %
31.01.2018 10:44 3,8 C 4,4 C 94 % 1019,4 hPa 0,0 l/m 6,0 km/h (2 Bft) O-NO 58 2 min 0,000 mm 0,5 UV-I 212 W/m 2,9 C 3,8 C 8,0 km/h (2 Bft) 95,74 %
31.01.2018 10:46 3,7 C 4,4 C 94 % 1019,4 hPa 0,0 l/m 4,7 km/h (1 Bft) O-NO 68 2 min 0,000 mm 0,5 UV-I 232 W/m 2,8 C 3,7 C 8,0 km/h (2 Bft) 98,00 %
31.01.2018 10:48 3,7 C 4,4 C 94 % 1019,4 hPa 0,0 l/m 6,5 km/h (2 Bft) O 82 2 min 0,000 mm 0,6 UV-I 238 W/m 2,8 C 3,6 C 11,3 km/h (2 Bft) 97,87 %
31.01.2018 10:50 3,7 C 4,4 C 94 % 1019,3 hPa 0,0 l/m 6,4 km/h (2 Bft) O-NO 68 2 min 0,000 mm 0,6 UV-I 233 W/m 2,8 C 3,7 C 9,7 km/h (2 Bft) 97,37 %
31.01.2018 10:52 3,7 C 4,4 C 94 % 1019,3 hPa 0,0 l/m 7,8 km/h (2 Bft) O-NO 70 2 min 0,000 mm 0,6 UV-I 241 W/m 2,8 C 2,4 C 9,7 km/h (2 Bft) 98,11 %
31.01.2018 10:54 3,7 C 4,4 C 94 % 1019,3 hPa 0,0 l/m 8,4 km/h (2 Bft) O-NO 66 2 min 0,000 mm 0,6 UV-I 266 W/m 2,8 C 1,9 C 12,9 km/h (3 Bft) 97,87 %
31.01.2018 10:56 3,8 C 4,4 C 94 % 1019,2 hPa 0,0 l/m 6,5 km/h (2 Bft) O-NO 59 2 min 0,000 mm 0,6 UV-I 269 W/m 2,9 C 3,7 C 9,7 km/h (2 Bft) 100,00 %
31.01.2018 10:58 3,9 C 4,4 C 94 % 1019,3 hPa 0,0 l/m 5,5 km/h (1 Bft) NO 44 2 min 0,000 mm 0,6 UV-I 267 W/m 3,0 C 3,9 C 8,0 km/h (2 Bft) 97,50 %
31.01.2018 11:00 3,9 C 4,4 C 94 % 1019,2 hPa 0,0 l/m 6,3 km/h (2 Bft) O-NO 59 2 min 0,076 mm 0,6 UV-I 256 W/m 3,0 C 3,9 C 8,0 km/h (2 Bft) 98,11 %
31.01.2018 11:02 3,9 C 4,4 C 94 % 1019,2 hPa 0,0 l/m 6,2 km/h (2 Bft) O-NO 63 2 min 0,000 mm 0,6 UV-I 246 W/m 3,0 C 3,9 C 8,0 km/h (2 Bft) 98,00 %
31.01.2018 11:04 4,1 C 4,4 C 94 % 1019,2 hPa 0,0 l/m 6,9 km/h (2 Bft) NO 53 2 min 0,000 mm 0,6 UV-I 272 W/m 3,2 C 3,7 C 9,7 km/h (2 Bft) 95,12 %
31.01.2018 11:06 4,2 C 4,4 C 94 % 1019,2 hPa 0,0 l/m 5,3 km/h (1 Bft) NO 53 2 min 0,000 mm 0,6 UV-I 244 W/m 3,3 C 4,2 C 8,0 km/h (2 Bft) 95,74 %
31.01.2018 11:08 4,2 C 4,4 C 93 % 1019,1 hPa 0,0 l/m 7,6 km/h (2 Bft) NO 55 2 min 0,000 mm 0,6 UV-I 235 W/m 3,2 C 3,1 C 11,3 km/h (2 Bft) 95,74 %
31.01.2018 11:10 4,3 C 4,4 C 94 % 1019,1 hPa 0,0 l/m 5,9 km/h (2 Bft) O-NO 74 2 min 0,000 mm 0,6 UV-I 246 W/m 3,4 C 4,3 C 8,0 km/h (2 Bft) 98,00 %
31.01.2018 11:12 4,3 C 4,4 C 93 % 1019,0 hPa 0,0 l/m 6,3 km/h (2 Bft) NO 51 2 min 0,000 mm 0,7 UV-I 290 W/m 3,3 C 4,3 C 11,3 km/h (2 Bft) 98,00 %
31.01.2018 11:14 4,4 C 4,4 C 93 % 1019,0 hPa 0,0 l/m 7,5 km/h (2 Bft) O-NO 72 2 min 0,000 mm 0,7 UV-I 304 W/m 3,4 C 3,4 C 12,9 km/h (3 Bft) 94,87 %
31.01.2018 11:16 4,5 C 4,4 C 93 % 1018,9 hPa 0,0 l/m 9,3 km/h (2 Bft) O-NO 71 2 min 0,000 mm 0,8 UV-I 523 W/m 3,5 C 2,0 C 14,5 km/h (3 Bft) 94,34 %
31.01.2018 11:18 4,6 C 4,4 C 93 % 1018,9 hPa 0,0 l/m 8,0 km/h (2 Bft) NO 50 2 min 0,000 mm 0,8 UV-I 533 W/m 3,6 C 3,2 C 12,9 km/h (3 Bft) 95,12 %
31.01.2018 11:20 4,8 C 4,4 C 93 % 1018,8 hPa 0,0 l/m 8,3 km/h (2 Bft) O-NO 74 2 min 0,000 mm 0,8 UV-I 376 W/m 3,8 C 3,1 C 14,5 km/h (3 Bft) 95,74 %
31.01.2018 11:22 4,8 C 4,4 C 91 % 1018,7 hPa 0,0 l/m 9,6 km/h (2 Bft) O 82 2 min 0,000 mm 0,7 UV-I 321 W/m 3,5 C 2,1 C 14,5 km/h (3 Bft) 93,62 %
31.01.2018 11:24 4,7 C 4,4 C 91 % 1018,7 hPa 0,0 l/m 8,9 km/h (2 Bft) NO 40 2 min 0,000 mm 0,7 UV-I 289 W/m 3,4 C 2,6 C 11,3 km/h (2 Bft) 98,00 %
31.01.2018 11:26 4,7 C 4,4 C 91 % 1018,6 hPa 0,0 l/m 7,7 km/h (2 Bft) NO 35 2 min 0,000 mm 0,7 UV-I 281 W/m 3,4 C 3,5 C 9,7 km/h (2 Bft) 97,87 %
31.01.2018 11:28 4,7 C 4,4 C 91 % 1018,5 hPa 0,0 l/m 6,5 km/h (2 Bft) O-NO 57 2 min 0,000 mm 0,7 UV-I 227 W/m 3,4 C 4,6 C 9,7 km/h (2 Bft) 97,37 %
31.01.2018 11:30 4,7 C 4,4 C 91 % 1018,5 hPa 0,0 l/m 5,2 km/h (1 Bft) O-NO 60 2 min 0,000 mm 0,7 UV-I 237 W/m 3,4 C 4,7 C 8,0 km/h (2 Bft) 98,11 %
31.01.2018 11:32 4,7 C 4,4 C 91 % 1018,4 hPa 0,0 l/m 7,7 km/h (2 Bft) O-NO 67 2 min 0,000 mm 0,7 UV-I 284 W/m 3,4 C 3,5 C 12,9 km/h (3 Bft) 98,00 %
31.01.2018 11:34 4,8 C 4,4 C 92 % 1018,4 hPa 0,0 l/m 6,8 km/h (2 Bft) O-NO 60 2 min 0,000 mm 0,8 UV-I 277 W/m 3,6 C 4,5 C 9,7 km/h (2 Bft) 98,00 %
31.01.2018 11:36 4,8 C 4,4 C 91 % 1018,3 hPa 0,0 l/m 6,6 km/h (2 Bft) O-NO 63 2 min 0,000 mm 0,8 UV-I 271 W/m 3,5 C 4,6 C 8,0 km/h (2 Bft) 95,74 %
31.01.2018 11:38 4,9 C 4,4 C 92 % 1018,2 hPa 0,0 l/m 6,3 km/h (2 Bft) O-NO 57 2 min 0,000 mm 0,8 UV-I 253 W/m 3,7 C 4,9 C 8,0 km/h (2 Bft) 97,87 %
31.01.2018 11:40 5,0 C 4,4 C 92 % 1018,2 hPa 0,0 l/m 6,4 km/h (2 Bft) NO 42 2 min 0,000 mm 0,8 UV-I 260 W/m 3,8 C 5,0 C 9,7 km/h (2 Bft) 97,73 %
31.01.2018 11:42 5,0 C 4,4 C 91 % 1018,1 hPa 0,0 l/m 5,9 km/h (2 Bft) O-NO 61 2 min 0,000 mm 0,8 UV-I 264 W/m 3,7 C 5,0 C 8,0 km/h (2 Bft) 98,00 %
31.01.2018 11:44 4,9 C 4,4 C 91 % 1018,0 hPa 0,0 l/m 5,8 km/h (2 Bft) NO 52 2 min 0,000 mm 0,8 UV-I 264 W/m 3,6 C 4,9 C 8,0 km/h (2 Bft) 100,00 %
31.01.2018 11:46 5,0 C 4,4 C 91 % 1018,0 hPa 0,0 l/m 6,5 km/h (2 Bft) O-NO 57 2 min 0,000 mm 0,9 UV-I 303 W/m 3,7 C 4,9 C 11,3 km/h (2 Bft) 100,00 %
31.01.2018 11:48 5,1 C 4,4 C 91 % 1017,9 hPa 0,0 l/m 5,6 km/h (1 Bft) NO 46 2 min 0,000 mm 1,0 UV-I 406 W/m 3,8 C 5,1 C 8,0 km/h (2 Bft) 100,00 %
31.01.2018 11:50 5,3 C 4,4 C 91 % 1017,9 hPa 0,0 l/m 6,1 km/h (2 Bft) NO 48 2 min 0,000 mm 0,9 UV-I 416 W/m 4,0 C 5,3 C 9,7 km/h (2 Bft) 100,00 %
31.01.2018 11:52 5,4 C 4,4 C 91 % 1017,9 hPa 0,0 l/m 6,3 km/h (2 Bft) NO 36 2 min 0,000 mm 1,0 UV-I 427 W/m 4,1 C 5,4 C 8,0 km/h (2 Bft) 100,00 %
31.01.2018 11:54 5,7 C 4,4 C 91 % 1017,8 hPa 0,0 l/m 6,3 km/h (2 Bft) NO 38 2 min 0,000 mm 0,9 UV-I 449 W/m 4,3 C 5,7 C 8,0 km/h (2 Bft) 100,00 %
31.01.2018 11:56 5,8 C 4,4 C 91 % 1017,8 hPa 0,0 l/m 4,9 km/h (1 Bft) NO 48 2 min 0,000 mm 0,9 UV-I 362 W/m 4,4 C 5,8 C 8,0 km/h (2 Bft) 100,00 %
31.01.2018 11:58 5,8 C 4,4 C 89 % 1017,7 hPa 0,0 l/m 5,1 km/h (1 Bft) NO 49 2 min 0,000 mm 0,9 UV-I 438 W/m 4,1 C 5,8 C 8,0 km/h (2 Bft) 100,00 %
31.01.2018 12:00 5,9 C 4,4 C 90 % 1017,6 hPa 0,0 l/m 7,1 km/h (2 Bft) NO 47 2 min 0,000 mm 1,0 UV-I 516 W/m 4,4 C 5,3 C 9,7 km/h (2 Bft) 100,00 %
31.01.2018 12:02 6,1 C 4,4 C 90 % 1017,6 hPa 0,0 l/m 5,8 km/h (2 Bft) NO 39 2 min 0,127 mm 1,0 UV-I 482 W/m 4,6 C 6,1 C 8,0 km/h (2 Bft) 100,00 %
31.01.2018 12:04 6,2 C 4,4 C 88 % 1017,5 hPa 0,0 l/m 5,8 km/h (2 Bft) NO 43 2 min 0,000 mm 1,0 UV-I 474 W/m 4,4 C 6,2 C 8,0 km/h (2 Bft) 97,37 %
31.01.2018 12:06 6,3 C 4,4 C 89 % 1017,5 hPa 0,0 l/m 2,7 km/h (1 Bft) N 5 2 min 0,000 mm 1,0 UV-I 437 W/m 4,6 C 6,3 C 4,8 km/h (1 Bft) 100,00 %
31.01.2018 12:08 6,3 C 4,4 C 89 % 1017,4 hPa 0,0 l/m 4,4 km/h (1 Bft) NO 51 2 min 0,000 mm 1,0 UV-I 475 W/m 4,6 C 6,3 C 8,0 km/h (2 Bft) 100,00 %
31.01.2018 12:10 6,4 C 4,4 C 89 % 1017,3 hPa 0,0 l/m 8,1 km/h (2 Bft) NO 40 2 min 0,000 mm 1,0 UV-I 467 W/m 4,7 C 5,0 C 9,7 km/h (2 Bft) 100,00 %
31.01.2018 12:12 6,3 C 4,4 C 87 % 1017,3 hPa 0,0 l/m 4,1 km/h (1 Bft) NO 40 2 min 0,000 mm 1,0 UV-I 447 W/m 4,3 C 6,3 C 6,4 km/h (2 Bft) 98,00 %
31.01.2018 12:14 6,4 C 4,4 C 88 % 1017,2 hPa 0,0 l/m 5,7 km/h (1 Bft) NO 41 2 min 0,000 mm 1,0 UV-I 449 W/m 4,6 C 6,4 C 9,7 km/h (2 Bft) 100,00 %
31.01.2018 12:16 6,5 C 4,4 C 88 % 1017,1 hPa 0,0 l/m 4,1 km/h (1 Bft) NO 34 2 min 0,000 mm 1,0 UV-I 436 W/m 4,7 C 6,5 C 6,4 km/h (2 Bft) 98,00 %
31.01.2018 12:18 6,7 C 4,4 C 88 % 1017,1 hPa 0,0 l/m 2,3 km/h (1 Bft) N 10 2 min 0,000 mm 1,0 UV-I 430 W/m 4,9 C 6,7 C 6,4 km/h (2 Bft) 98,00 %
31.01.2018 12:20 6,8 C 4,4 C 88 % 1017,1 hPa 0,0 l/m 3,0 km/h (1 Bft) NO 35 2 min 0,000 mm 1,0 UV-I 436 W/m 5,0 C 6,8 C 8,0 km/h (2 Bft) 100,00 %
31.01.2018 12:22 6,8 C 4,4 C 86 % 1017,0 hPa 0,0 l/m 7,9 km/h (2 Bft) N-NO 31 2 min 0,000 mm 1,0 UV-I 430 W/m 4,6 C 5,6 C 11,3 km/h (2 Bft) 100,00 %
31.01.2018 12:24 6,7 C 4,4 C 87 % 1017,0 hPa 0,0 l/m 4,7 km/h (1 Bft) NO 45 2 min 0,000 mm 1,0 UV-I 429 W/m 4,7 C 6,7 C 8,0 km/h (2 Bft) 97,44 %
31.01.2018 12:26 6,8 C 4,4 C 87 % 1017,1 hPa 0,0 l/m 3,9 km/h (1 Bft) N-NO 22 2 min 0,000 mm 1,0 UV-I 427 W/m 4,8 C 6,8 C 6,4 km/h (2 Bft) 98,18 %
31.01.2018 12:28 6,8 C 4,4 C 87 % 1017,0 hPa 0,0 l/m 4,1 km/h (1 Bft) N-NO 22 2 min 0,000 mm 1,0 UV-I 430 W/m 4,8 C 6,8 C 8,0 km/h (2 Bft) 98,00 %
31.01.2018 12:30 6,9 C 4,4 C 88 % 1017,0 hPa 0,0 l/m 6,0 km/h (2 Bft) N-NO 13 2 min 0,000 mm 1,0 UV-I 428 W/m 5,1 C 6,9 C 8,0 km/h (2 Bft) 95,74 %
31.01.2018 12:32 7,0 C 4,4 C 87 % 1016,9 hPa 0,0 l/m 5,5 km/h (1 Bft) NO 46 2 min 0,000 mm 1,0 UV-I 424 W/m 5,0 C 7,0 C 6,4 km/h (2 Bft) 97,22 %
31.01.2018 12:34 7,0 C 4,4 C 87 % 1016,9 hPa 0,0 l/m 5,0 km/h (1 Bft) N 10 2 min 0,000 mm 1,0 UV-I 426 W/m 5,0 C 7,0 C 9,7 km/h (2 Bft) 98,00 %
31.01.2018 12:36 7,0 C 4,4 C 88 % 1016,8 hPa 0,0 l/m 4,7 km/h (1 Bft) NO 42 2 min 0,000 mm 1,0 UV-I 421 W/m 5,2 C 7,0 C 9,7 km/h (2 Bft) 96,43 %
31.01.2018 12:38 7,0 C 4,4 C 87 % 1016,8 hPa 0,0 l/m 8,4 km/h (2 Bft) NO 41 2 min 0,000 mm 1,0 UV-I 419 W/m 5,0 C 5,4 C 11,3 km/h (2 Bft) 94,74 %
31.01.2018 12:40 7,2 C 4,4 C 87 % 1016,8 hPa 0,0 l/m 6,5 km/h (2 Bft) NO 47 2 min 0,000 mm 1,0 UV-I 418 W/m 5,2 C 7,1 C 9,7 km/h (2 Bft) 98,00 %
31.01.2018 12:42 7,2 C 4,4 C 86 % 1016,7 hPa 0,0 l/m 5,5 km/h (1 Bft) NO 46 2 min 0,000 mm 0,9 UV-I 409 W/m 5,0 C 7,2 C 8,0 km/h (2 Bft) 98,00 %
31.01.2018 12:44 7,1 C 4,4 C 86 % 1016,7 hPa 0,0 l/m 4,7 km/h (1 Bft) NO 36 2 min 0,000 mm 0,9 UV-I 403 W/m 4,9 C 7,1 C 6,4 km/h (2 Bft) 94,74 %
31.01.2018 12:46 7,2 C 4,4 C 87 % 1016,6 hPa 0,0 l/m 5,3 km/h (1 Bft) N-NO 23 2 min 0,000 mm 0,9 UV-I 410 W/m 5,2 C 7,2 C 9,7 km/h (2 Bft) 94,64 %
31.01.2018 12:48 7,1 C 4,4 C 86 % 1016,6 hPa 0,0 l/m 4,6 km/h (1 Bft) NO 46 2 min 0,000 mm 0,9 UV-I 405 W/m 4,9 C 7,1 C 9,7 km/h (2 Bft) 97,37 %
31.01.2018 12:50 7,1 C 4,4 C 86 % 1016,5 hPa 0,0 l/m 7,3 km/h (2 Bft) NO 34 2 min 0,000 mm 0,9 UV-I 409 W/m 4,9 C 6,4 C 9,7 km/h (2 Bft) 90,57 %
31.01.2018 12:52 7,2 C 4,4 C 85 % 1016,4 hPa 0,0 l/m 6,8 km/h (2 Bft) NO 41 2 min 0,000 mm 0,9 UV-I 412 W/m 4,9 C 6,9 C 9,7 km/h (2 Bft) 95,12 %
31.01.2018 12:54 7,2 C 4,4 C 85 % 1016,4 hPa 0,0 l/m 7,5 km/h (2 Bft) NO 42 2 min 0,000 mm 0,9 UV-I 412 W/m 4,9 C 6,3 C 9,7 km/h (2 Bft) 94,64 %
31.01.2018 12:56 7,4 C 4,4 C 86 % 1016,3 hPa 0,0 l/m 7,5 km/h (2 Bft) N-NO 28 2 min 0,000 mm 0,9 UV-I 412 W/m 5,2 C 6,5 C 9,7 km/h (2 Bft) 93,62 %
31.01.2018 12:58 7,4 C 4,4 C 86 % 1016,2 hPa 0,0 l/m 6,7 km/h (2 Bft) O-NO 61 2 min 0,000 mm 0,9 UV-I 406 W/m 5,2 C 7,2 C 12,9 km/h (3 Bft) 95,12 %
31.01.2018 13:00 7,3 C 4,4 C 85 % 1016,1 hPa 0,0 l/m 9,3 km/h (2 Bft) NO 53 2 min 0,178 mm 0,9 UV-I 403 W/m 4,9 C 5,1 C 12,9 km/h (3 Bft) 91,49 %
31.01.2018 13:02 7,3 C 4,4 C 84 % 1015,9 hPa 0,0 l/m 7,9 km/h (2 Bft) O 84 2 min 0,000 mm 0,9 UV-I 398 W/m 4,8 C 6,1 C 12,9 km/h (3 Bft) 97,22 %
31.01.2018 13:04 7,3 C 4,4 C 85 % 1015,9 hPa 0,0 l/m 8,4 km/h (2 Bft) O-NO 64 2 min 0,000 mm 0,9 UV-I 403 W/m 4,9 C 5,7 C 12,9 km/h (3 Bft) 93,75 %
31.01.2018 13:06 7,3 C 4,4 C 84 % 1015,9 hPa 0,0 l/m 7,8 km/h (2 Bft) O-NO 72 2 min 0,000 mm 0,9 UV-I 403 W/m 4,8 C 6,2 C 14,5 km/h (3 Bft) 95,74 %
31.01.2018 13:08 7,3 C 4,4 C 84 % 1015,8 hPa 0,0 l/m 7,8 km/h (2 Bft) NO 55 2 min 0,000 mm 0,9 UV-I 402 W/m 4,8 C 6,2 C 12,9 km/h (3 Bft) 97,22 %
31.01.2018 13:10 7,3 C 4,4 C 84 % 1015,7 hPa 0,0 l/m 9,3 km/h (2 Bft) O-NO 63 2 min 0,000 mm 0,9 UV-I 399 W/m 4,8 C 5,1 C 14,5 km/h (3 Bft) 96,00 %
31.01.2018 13:12 7,3 C 4,4 C 83 % 1015,7 hPa 0,0 l/m 7,8 km/h (2 Bft) NO 43 2 min 0,000 mm 0,9 UV-I 396 W/m 4,6 C 6,2 C 12,9 km/h (3 Bft) 97,87 %
31.01.2018 13:14 7,4 C 4,4 C 83 % 1015,6 hPa 0,0 l/m 6,9 km/h (2 Bft) NO 40 2 min 0,000 mm 0,9 UV-I 394 W/m 4,7 C 7,0 C 9,7 km/h (2 Bft) 97,87 %
31.01.2018 13:16 7,5 C 4,4 C 83 % 1015,6 hPa 0,0 l/m 6,4 km/h (2 Bft) O-NO 63 2 min 0,000 mm 0,9 UV-I 393 W/m 4,8 C 7,5 C 9,7 km/h (2 Bft) 98,11 %
31.01.2018 13:18 7,5 C 4,4 C 83 % 1015,5 hPa 0,0 l/m 7,2 km/h (2 Bft) NO 49 2 min 0,000 mm 0,9 UV-I 392 W/m 4,8 C 6,9 C 9,7 km/h (2 Bft) 97,37 %
31.01.2018 13:20 7,6 C 4,4 C 83 % 1015,4 hPa 0,0 l/m 6,5 km/h (2 Bft) NO 42 2 min 0,000 mm 0,9 UV-I 392 W/m 4,9 C 7,5 C 8,0 km/h (2 Bft) 96,23 %
31.01.2018 13:22 7,7 C 4,4 C 83 % 1015,4 hPa 0,0 l/m 6,4 km/h (2 Bft) O 79 2 min 0,000 mm 0,8 UV-I 389 W/m 5,0 C 7,7 C 11,3 km/h (2 Bft) 98,00 %
31.01.2018 13:24 7,7 C 4,4 C 81 % 1015,3 hPa 0,0 l/m 7,5 km/h (2 Bft) O-NO 69 2 min 0,000 mm 0,8 UV-I 387 W/m 4,7 C 6,8 C 9,7 km/h (2 Bft) 97,37 %
31.01.2018 13:26 7,7 C 4,4 C 82 % 1015,3 hPa 0,0 l/m 6,8 km/h (2 Bft) NO 55 2 min 0,000 mm 0,8 UV-I 385 W/m 4,8 C 7,4 C 8,0 km/h (2 Bft) 98,00 %
31.01.2018 13:28 7,6 C 4,4 C 81 % 1015,3 hPa 0,0 l/m 5,9 km/h (2 Bft) NO 55 2 min 0,000 mm 0,8 UV-I 385 W/m 4,6 C 7,6 C 9,7 km/h (2 Bft) 98,11 %
31.01.2018 13:30 7,6 C 4,4 C 81 % 1015,3 hPa 0,0 l/m 5,2 km/h (1 Bft) O-NO 60 2 min 0,000 mm 0,8 UV-I 381 W/m 4,6 C 7,6 C 6,4 km/h (2 Bft) 95,74 %
31.01.2018 13:32 7,7 C 4,4 C 81 % 1015,2 hPa 0,0 l/m 4,3 km/h (1 Bft) O-NO 60 2 min 0,000 mm 0,8 UV-I 378 W/m 4,7 C 7,7 C 6,4 km/h (2 Bft) 95,74 %
31.01.2018 13:34 7,8 C 4,4 C 81 % 1015,2 hPa 0,0 l/m 4,5 km/h (1 Bft) NO 51 2 min 0,000 mm 0,8 UV-I 376 W/m 4,7 C 7,8 C 6,4 km/h (2 Bft) 97,37 %
31.01.2018 13:36 7,9 C 4,4 C 81 % 1015,1 hPa 0,0 l/m 4,2 km/h (1 Bft) N-NO 30 2 min 0,000 mm 0,8 UV-I 374 W/m 4,8 C 7,9 C 6,4 km/h (2 Bft) 97,87 %
31.01.2018 13:38 8,0 C 4,4 C 82 % 1015,1 hPa 0,0 l/m 5,7 km/h (1 Bft) N-NO 20 2 min 0,000 mm 0,8 UV-I 373 W/m 5,1 C 8,0 C 8,0 km/h (2 Bft) 95,74 %
31.01.2018 13:40 8,2 C 4,4 C 83 % 1015,0 hPa 0,0 l/m 5,4 km/h (1 Bft) N-NO 23 2 min 0,000 mm 0,8 UV-I 369 W/m 5,5 C 8,2 C 6,4 km/h (2 Bft) 98,11 %
31.01.2018 13:42 8,2 C 4,4 C 82 % 1015,0 hPa 0,0 l/m 5,7 km/h (1 Bft) N-NO 30 2 min 0,000 mm 0,8 UV-I 366 W/m 5,3 C 8,2 C 8,0 km/h (2 Bft) 97,56 %
31.01.2018 13:44 8,2 C 4,4 C 82 % 1014,9 hPa 0,0 l/m 6,2 km/h (2 Bft) NO 43 2 min 0,000 mm 0,8 UV-I 364 W/m 5,3 C 8,2 C 9,7 km/h (2 Bft) 94,00 %
31.01.2018 13:46 8,3 C 4,4 C 82 % 1014,8 hPa 0,0 l/m 7,1 km/h (2 Bft) NO 50 2 min 0,000 mm 0,8 UV-I 361 W/m 5,4 C 7,8 C 9,7 km/h (2 Bft) 100,00 %
31.01.2018 13:48 8,2 C 4,4 C 81 % 1014,8 hPa 0,0 l/m 5,2 km/h (1 Bft) NO 37 2 min 0,000 mm 0,7 UV-I 358 W/m 5,1 C 8,2 C 6,4 km/h (2 Bft) 96,00 %
31.01.2018 13:50 8,2 C 4,4 C 81 % 1014,8 hPa 0,0 l/m 5,4 km/h (1 Bft) NO 55 2 min 0,000 mm 0,7 UV-I 353 W/m 5,1 C 8,2 C 6,4 km/h (2 Bft) 100,00 %
31.01.2018 13:52 8,3 C 4,4 C 80 % 1014,8 hPa 0,0 l/m 5,5 km/h (1 Bft) NO 53 2 min 0,000 mm 0,7 UV-I 349 W/m 5,1 C 8,3 C 8,0 km/h (2 Bft) 98,00 %
31.01.2018 13:54 8,3 C 4,4 C 80 % 1014,7 hPa 0,0 l/m 6,3 km/h (2 Bft) NO 53 2 min 0,000 mm 0,7 UV-I 345 W/m 5,1 C 8,3 C 8,0 km/h (2 Bft) 100,00 %
31.01.2018 13:56 8,4 C 4,4 C 82 % 1014,6 hPa 0,0 l/m 6,4 km/h (2 Bft) NO 49 2 min 0,000 mm 0,7 UV-I 345 W/m 5,5 C 8,4 C 9,7 km/h (2 Bft) 100,00 %
31.01.2018 13:58 8,4 C 4,4 C 81 % 1014,6 hPa 0,0 l/m 6,9 km/h (2 Bft) N-NO 16 2 min 0,000 mm 0,7 UV-I 343 W/m 5,3 C 8,0 C 12,9 km/h (3 Bft) 98,00 %
31.01.2018 14:00 8,3 C 4,4 C 80 % 1014,5 hPa 0,0 l/m 7,0 km/h (2 Bft) O-NO 71 2 min 0,178 mm 0,7 UV-I 340 W/m 5,1 C 7,8 C 14,5 km/h (3 Bft) 100,00 %
31.01.2018 14:02 8,3 C 4,4 C 80 % 1014,4 hPa 0,0 l/m 5,2 km/h (1 Bft) O-NO 61 2 min 0,000 mm 0,7 UV-I 338 W/m 5,1 C 8,3 C 8,0 km/h (2 Bft) 97,87 %
31.01.2018 14:04 8,3 C 4,4 C 80 % 1014,3 hPa 0,0 l/m 5,3 km/h (1 Bft) O-NO 59 2 min 0,000 mm 0,7 UV-I 335 W/m 5,1 C 8,3 C 6,4 km/h (2 Bft) 97,14 %
31.01.2018 14:06 8,3 C 4,4 C 80 % 1014,3 hPa 0,0 l/m 6,7 km/h (2 Bft) O-NO 77 2 min 0,000 mm 0,6 UV-I 330 W/m 5,1 C 8,1 C 9,7 km/h (2 Bft) 100,00 %
31.01.2018 14:08 8,3 C 4,4 C 80 % 1014,3 hPa 0,0 l/m 8,2 km/h (2 Bft) O 80 2 min 0,000 mm 0,6 UV-I 327 W/m 5,1 C 6,9 C 12,9 km/h (3 Bft) 98,11 %
31.01.2018 14:10 8,3 C 4,4 C 79 % 1014,3 hPa 0,0 l/m 10,4 km/h (2 Bft) O-NO 73 2 min 0,000 mm 0,6 UV-I 324 W/m 4,9 C 5,5 C 12,9 km/h (3 Bft) 97,14 %
31.01.2018 14:12 8,3 C 4,4 C 79 % 1014,3 hPa 0,0 l/m 8,3 km/h (2 Bft) O-NO 75 2 min 0,000 mm 0,6 UV-I 321 W/m 4,9 C 6,9 C 11,3 km/h (2 Bft) 96,23 %
31.01.2018 14:14 8,3 C 4,4 C 80 % 1014,2 hPa 0,0 l/m 7,6 km/h (2 Bft) O-NO 77 2 min 0,000 mm 0,6 UV-I 317 W/m 5,1 C 7,4 C 9,7 km/h (2 Bft) 97,73 %
31.01.2018 14:16 8,3 C 4,4 C 79 % 1014,2 hPa 0,0 l/m 7,6 km/h (2 Bft) NO 51 2 min 0,000 mm 0,6 UV-I 315 W/m 4,9 C 7,4 C 11,3 km/h (2 Bft) 95,74 %
31.01.2018 14:18 8,3 C 4,4 C 79 % 1014,1 hPa 0,0 l/m 7,2 km/h (2 Bft) O-NO 69 2 min 0,000 mm 0,6 UV-I 314 W/m 4,9 C 7,7 C 11,3 km/h (2 Bft) 98,00 %
31.01.2018 14:20 8,4 C 4,4 C 80 % 1014,1 hPa 0,0 l/m 6,8 km/h (2 Bft) O-NO 73 2 min 0,000 mm 0,6 UV-I 311 W/m 5,2 C 8,1 C 8,0 km/h (2 Bft) 98,11 %
31.01.2018 14:22 8,4 C 4,4 C 79 % 1014,0 hPa 0,0 l/m 8,7 km/h (2 Bft) NO 55 2 min 0,000 mm 0,6 UV-I 306 W/m 5,0 C 6,7 C 12,9 km/h (3 Bft) 95,45 %
31.01.2018 14:24 8,3 C 4,4 C 79 % 1014,0 hPa 0,0 l/m 7,3 km/h (2 Bft) O-NO 61 2 min 0,000 mm 0,6 UV-I 302 W/m 4,9 C 7,6 C 9,7 km/h (2 Bft) 97,62 %
31.01.2018 14:26 8,3 C 4,4 C 79 % 1013,9 hPa 0,0 l/m 7,2 km/h (2 Bft) O-NO 76 2 min 0,000 mm 0,5 UV-I 298 W/m 4,9 C 7,7 C 11,3 km/h (2 Bft) 98,11 %
31.01.2018 14:28 8,4 C 4,4 C 80 % 1013,9 hPa 0,0 l/m 10,9 km/h (2 Bft) O 84 2 min 0,000 mm 0,5 UV-I 296 W/m 5,2 C 5,3 C 14,5 km/h (3 Bft) 95,74 %
31.01.2018 14:30 8,3 C 4,4 C 79 % 1013,8 hPa 0,0 l/m 9,0 km/h (2 Bft) O 84 2 min 0,000 mm 0,5 UV-I 294 W/m 4,9 C 6,4 C 12,9 km/h (3 Bft) 96,00 %
31.01.2018 14:32 8,3 C 4,4 C 79 % 1013,8 hPa 0,0 l/m 9,0 km/h (2 Bft) O-NO 66 2 min 0,000 mm 0,5 UV-I 291 W/m 4,9 C 6,4 C 12,9 km/h (3 Bft) 100,00 %
31.01.2018 14:34 8,3 C 4,4 C 79 % 1013,7 hPa 0,0 l/m 9,7 km/h (2 Bft) O-NO 65 2 min 0,000 mm 0,5 UV-I 287 W/m 4,9 C 5,9 C 14,5 km/h (3 Bft) 98,11 %
31.01.2018 14:35 8,3 C 4,4 C 79 % 1013,7 hPa 0,0 l/m 9,7 km/h (2 Bft) O-NO 67 1 min 0,000 mm 0,5 UV-I 289 W/m 4,9 C 5,9 C 14,5 km/h (3 Bft) 98,25 %
31.01.2018 14:40 8,2 C 4,4 C 80 % 1013,5 hPa 0,0 l/m 12,2 km/h (2 Bft) O-NO 78 5 min 0,000 mm 0,4 UV-I 246 W/m 5,0 C 4,3 C 14,5 km/h (3 Bft) 100,00 %
31.01.2018 14:42 8,1 C 4,4 C 79 % 1013,4 hPa 0,0 l/m 10,2 km/h (2 Bft) O-NO 66 2 min 0,000 mm 0,0 UV-I 285 W/m 4,7 C 5,4 C 14,5 km/h (3 Bft) 97,56 %
31.01.2018 14:44 8,2 C 4,4 C 79 % 1013,3 hPa 0,0 l/m 9,9 km/h (2 Bft) O-NO 63 2 min 0,000 mm 0,0 UV-I 240 W/m 4,8 C 5,7 C 14,5 km/h (3 Bft) 100,00 %
31.01.2018 14:46 8,2 C 4,4 C 79 % 1013,3 hPa 0,0 l/m 8,4 km/h (2 Bft) NO 45 2 min 0,000 mm 0,0 UV-I 164 W/m 4,8 C 6,7 C 12,9 km/h (3 Bft) 100,00 %
31.01.2018 14:48 8,2 C 4,4 C 79 % 1013,2 hPa 0,0 l/m 10,8 km/h (2 Bft) O-NO 63 0 min 0,000 mm 0,0 UV-I 104 W/m 4,8 C 5,1 C 14,5 km/h (3 Bft) 97,37 %
31.01.2018 14:50 8,1 C 4,4 C 79 % 1013,2 hPa 0,0 l/m 7,9 km/h (2 Bft) O-NO 68 0 min 0,000 mm 0,0 UV-I 85 W/m 4,7 C 6,9 C 11,3 km/h (2 Bft) 100,00 %
31.01.2018 14:52 8,0 C 4,4 C 79 % 1013,2 hPa 0,0 l/m 8,0 km/h (2 Bft) NO 51 0 min 0,000 mm 0,0 UV-I 83 W/m 4,6 C 6,8 C 12,9 km/h (3 Bft) 100,00 %
31.01.2018 14:54 8,0 C 4,4 C 80 % 1013,1 hPa 0,0 l/m 8,4 km/h (2 Bft) O-NO 63 0 min 0,000 mm 0,0 UV-I 73 W/m 4,8 C 6,5 C 11,3 km/h (2 Bft) 97,56 %
31.01.2018 14:56 7,9 C 4,4 C 80 % 1013,1 hPa 0,0 l/m 8,1 km/h (2 Bft) O-NO 74 0 min 0,000 mm 0,0 UV-I 70 W/m 4,7 C 6,6 C 12,9 km/h (3 Bft) 100,00 %
31.01.2018 14:58 7,8 C 4,4 C 81 % 1013,0 hPa 0,0 l/m 9,1 km/h (2 Bft) O-NO 74 0 min 0,000 mm 0,0 UV-I 66 W/m 4,7 C 5,8 C 14,5 km/h (3 Bft) 100,00 %
31.01.2018 15:00 7,7 C 4,4 C 81 % 1012,9 hPa 0,0 l/m 8,4 km/h (2 Bft) O 84 0 min 0,127 mm 0,0 UV-I 63 W/m 4,7 C 6,1 C 12,9 km/h (3 Bft) 97,56 %
31.01.2018 15:02 7,6 C 4,4 C 82 % 1012,8 hPa 0,0 l/m 8,4 km/h (2 Bft) O 82 0 min 0,000 mm 0,0 UV-I 62 W/m 4,7 C 6,0 C 12,9 km/h (3 Bft) 100,00 %
31.01.2018 15:04 7,6 C 4,4 C 82 % 1012,7 hPa 0,0 l/m 6,4 km/h (2 Bft) O 101 0 min 0,000 mm 0,0 UV-I 63 W/m 4,7 C 7,6 C 11,3 km/h (2 Bft) 100,00 %
31.01.2018 15:06 7,5 C 4,4 C 82 % 1012,8 hPa 0,0 l/m 6,8 km/h (2 Bft) O 80 0 min 0,000 mm 0,0 UV-I 73 W/m 4,6 C 7,2 C 11,3 km/h (2 Bft) 97,37 %
31.01.2018 15:08 7,6 C 4,4 C 82 % 1012,8 hPa 0,0 l/m 6,6 km/h (2 Bft) O-NO 64 2 min 0,000 mm 0,0 UV-I 185 W/m 4,7 C 7,5 C 11,3 km/h (2 Bft) 100,00 %
31.01.2018 15:10 7,7 C 4,4 C 81 % 1012,7 hPa 0,0 l/m 6,4 km/h (2 Bft) O-NO 73 2 min 0,000 mm 0,0 UV-I 190 W/m 4,7 C 7,7 C 9,7 km/h (2 Bft) 97,87 %
31.01.2018 15:12 7,8 C 4,4 C 82 % 1012,7 hPa 0,0 l/m 7,3 km/h (2 Bft) O 84 2 min 0,000 mm 0,0 UV-I 200 W/m 4,9 C 7,1 C 11,3 km/h (2 Bft) 94,34 %
31.01.2018 15:14 7,8 C 4,4 C 82 % 1012,8 hPa 0,0 l/m 5,5 km/h (1 Bft) O-NO 69 2 min 0,000 mm 0,0 UV-I 208 W/m 4,9 C 7,8 C 8,0 km/h (2 Bft) 97,62 %
31.01.2018 15:16 7,9 C 4,4 C 82 % 1012,8 hPa 0,0 l/m 4,3 km/h (1 Bft) NO 49 2 min 0,000 mm 0,0 UV-I 206 W/m 5,0 C 7,9 C 6,4 km/h (2 Bft) 96,23 %
31.01.2018 15:18 8,0 C 4,4 C 81 % 1012,8 hPa 0,0 l/m 6,5 km/h (2 Bft) O-NO 66 2 min 0,000 mm 0,0 UV-I 198 W/m 4,9 C 7,9 C 9,7 km/h (2 Bft) 97,37 %
31.01.2018 15:20 8,0 C 4,4 C 81 % 1012,8 hPa 0,0 l/m 6,5 km/h (2 Bft) O 83 2 min 0,000 mm 0,0 UV-I 192 W/m 4,9 C 7,9 C 11,3 km/h (2 Bft) 98,11 %
31.01.2018 15:22 8,1 C 4,4 C 80 % 1012,6 hPa 0,0 l/m 8,8 km/h (2 Bft) O-NO 74 2 min 0,000 mm 0,0 UV-I 188 W/m 4,9 C 6,3 C 12,9 km/h (3 Bft) 95,12 %
31.01.2018 15:24 8,0 C 4,4 C 80 % 1012,6 hPa 0,0 l/m 6,9 km/h (2 Bft) O-NO 74 2 min 0,000 mm 0,0 UV-I 184 W/m 4,8 C 7,6 C 12,9 km/h (3 Bft) 95,74 %
31.01.2018 15:26 8,0 C 4,4 C 81 % 1012,6 hPa 0,0 l/m 5,7 km/h (1 Bft) O-NO 67 2 min 0,000 mm 0,0 UV-I 178 W/m 4,9 C 8,0 C 9,7 km/h (2 Bft) 96,43 %
31.01.2018 15:28 8,0 C 4,4 C 80 % 1012,5 hPa 0,0 l/m 6,0 km/h (2 Bft) O-NO 61 2 min 0,000 mm 0,0 UV-I 174 W/m 4,8 C 8,0 C 8,0 km/h (2 Bft) 97,37 %
31.01.2018 15:30 8,1 C 4,4 C 81 % 1012,5 hPa 0,0 l/m 6,0 km/h (2 Bft) NO 56 2 min 0,000 mm 0,0 UV-I 171 W/m 5,0 C 8,1 C 9,7 km/h (2 Bft) 98,11 %
31.01.2018 15:32 8,1 C 4,4 C 81 % 1012,6 hPa 0,0 l/m 5,5 km/h (1 Bft) O-NO 57 2 min 0,000 mm 0,0 UV-I 166 W/m 5,0 C 8,1 C 8,0 km/h (2 Bft) 97,37 %
31.01.2018 15:34 7,9 C 4,4 C 81 % 1012,6 hPa 0,0 l/m 3,9 km/h (1 Bft) NO 46 2 min 0,000 mm 0,0 UV-I 160 W/m 4,8 C 7,9 C 6,4 km/h (2 Bft) 98,11 %
31.01.2018 15:36 7,8 C 4,4 C 82 % 1012,6 hPa 0,0 l/m 2,6 km/h (1 Bft) NO 46 2 min 0,000 mm 0,0 UV-I 156 W/m 4,9 C 7,8 C 4,8 km/h (1 Bft) 95,74 %
31.01.2018 15:38 7,8 C 4,4 C 82 % 1012,5 hPa 0,0 l/m 4,1 km/h (1 Bft) NO 43 2 min 0,000 mm 0,0 UV-I 152 W/m 4,9 C 7,8 C 6,4 km/h (2 Bft) 97,87 %
31.01.2018 15:40 7,8 C 4,4 C 82 % 1012,5 hPa 0,0 l/m 3,9 km/h (1 Bft) NO 46 2 min 0,000 mm 0,0 UV-I 148 W/m 4,9 C 7,8 C 6,4 km/h (2 Bft) 97,56 %
31.01.2018 15:42 7,7 C 4,4 C 82 % 1012,5 hPa 0,0 l/m 3,1 km/h (1 Bft) NO 46 2 min 0,000 mm 0,0 UV-I 143 W/m 4,8 C 7,7 C 4,8 km/h (1 Bft) 98,00 %
31.01.2018 15:44 7,8 C 4,4 C 81 % 1012,4 hPa 0,0 l/m 4,6 km/h (1 Bft) O-NO 57 2 min 0,000 mm 0,0 UV-I 139 W/m 4,7 C 7,8 C 6,4 km/h (2 Bft) 96,00 %
31.01.2018 15:46 7,9 C 4,4 C 81 % 1012,4 hPa 0,0 l/m 4,0 km/h (1 Bft) O-NO 57 2 min 0,000 mm 0,0 UV-I 135 W/m 4,8 C 7,9 C 6,4 km/h (2 Bft) 97,56 %
31.01.2018 15:48 7,9 C 4,4 C 81 % 1012,3 hPa 0,0 l/m 6,4 km/h (2 Bft) O-NO 57 2 min 0,000 mm 0,0 UV-I 132 W/m 4,8 C 7,9 C 9,7 km/h (2 Bft) 98,00 %
31.01.2018 15:50 8,0 C 4,4 C 80 % 1012,2 hPa 0,0 l/m 7,8 km/h (2 Bft) NO 49 2 min 0,000 mm 0,0 UV-I 127 W/m 4,8 C 6,9 C 9,7 km/h (2 Bft) 98,00 %
31.01.2018 15:52 7,9 C 4,4 C 80 % 1012,2 hPa 0,0 l/m 5,9 km/h (2 Bft) O-NO 61 2 min 0,000 mm 0,0 UV-I 124 W/m 4,7 C 7,9 C 8,0 km/h (2 Bft) 96,00 %
31.01.2018 15:54 7,9 C 4,4 C 81 % 1012,1 hPa 0,0 l/m 5,9 km/h (2 Bft) O-NO 58 2 min 0,000 mm 0,0 UV-I 121 W/m 4,8 C 7,9 C 9,7 km/h (2 Bft) 94,87 %
31.01.2018 15:56 8,0 C 4,4 C 81 % 1012,0 hPa 0,0 l/m 6,7 km/h (2 Bft) O-NO 64 2 min 0,000 mm 0,0 UV-I 116 W/m 4,9 C 7,8 C 8,0 km/h (2 Bft) 97,87 %
31.01.2018 15:58 7,9 C 4,4 C 80 % 1011,9 hPa 0,0 l/m 7,3 km/h (2 Bft) NO 47 2 min 0,000 mm 0,0 UV-I 113 W/m 4,7 C 7,2 C 9,7 km/h (2 Bft) 98,00 %
31.01.2018 16:00 7,9 C 4,4 C 80 % 1011,9 hPa 0,0 l/m 8,0 km/h (2 Bft) NO 53 2 min 0,076 mm 0,0 UV-I 108 W/m 4,7 C 6,6 C 9,7 km/h (2 Bft) 96,00 %
31.01.2018 16:02 7,9 C 4,4 C 80 % 1011,8 hPa 0,0 l/m 7,8 km/h (2 Bft) O-NO 57 2 min 0,000 mm 0,0 UV-I 104 W/m 4,7 C 6,8 C 12,9 km/h (3 Bft) 97,87 %
31.01.2018 16:04 7,9 C 4,4 C 80 % 1011,7 hPa 0,0 l/m 7,7 km/h (2 Bft) NO 52 2 min 0,000 mm 0,0 UV-I 100 W/m 4,7 C 6,9 C 9,7 km/h (2 Bft) 97,87 %
31.01.2018 16:06 7,9 C 4,4 C 80 % 1011,6 hPa 0,0 l/m 8,7 km/h (2 Bft) NO 55 2 min 0,000 mm 0,0 UV-I 97 W/m 4,7 C 6,1 C 12,9 km/h (3 Bft) 97,56 %
31.01.2018 16:08 7,9 C 4,4 C 80 % 1011,5 hPa 0,0 l/m 8,6 km/h (2 Bft) O-NO 57 2 min 0,000 mm 0,0 UV-I 92 W/m 4,7 C 6,2 C 12,9 km/h (3 Bft) 95,74 %
31.01.2018 16:10 7,9 C 4,4 C 81 % 1011,5 hPa 0,0 l/m 7,3 km/h (2 Bft) O-NO 71 2 min 0,000 mm 0,0 UV-I 88 W/m 4,8 C 7,2 C 9,7 km/h (2 Bft) 98,11 %
31.01.2018 16:12 7,9 C 4,4 C 81 % 1011,5 hPa 0,0 l/m 7,2 km/h (2 Bft) O-NO 57 2 min 0,000 mm 0,0 UV-I 82 W/m 4,8 C 7,3 C 9,7 km/h (2 Bft) 92,68 %
31.01.2018 16:14 7,8 C 4,4 C 81 % 1011,4 hPa 0,0 l/m 6,1 km/h (2 Bft) NO 52 2 min 0,000 mm 0,0 UV-I 77 W/m 4,7 C 7,8 C 8,0 km/h (2 Bft) 94,00 %
31.01.2018 16:16 7,8 C 4,4 C 81 % 1011,4 hPa 0,0 l/m 5,3 km/h (1 Bft) O-NO 61 2 min 0,000 mm 0,0 UV-I 73 W/m 4,7 C 7,8 C 8,0 km/h (2 Bft) 95,12 %
31.01.2018 16:18 7,8 C 4,4 C 81 % 1011,4 hPa 0,0 l/m 6,3 km/h (2 Bft) NO 53 2 min 0,000 mm 0,0 UV-I 69 W/m 4,7 C 7,8 C 8,0 km/h (2 Bft) 91,49 %
31.01.2018 16:20 7,7 C 4,4 C 81 % 1011,4 hPa 0,0 l/m 6,0 km/h (2 Bft) O-NO 69 2 min 0,000 mm 0,0 UV-I 66 W/m 4,7 C 7,7 C 8,0 km/h (2 Bft) 95,74 %
31.01.2018 16:22 7,7 C 4,4 C 81 % 1011,5 hPa 0,0 l/m 5,5 km/h (1 Bft) O-NO 65 2 min 0,000 mm 0,0 UV-I 61 W/m 4,7 C 7,7 C 6,4 km/h (2 Bft) 96,00 %
31.01.2018 16:24 7,6 C 4,4 C 82 % 1011,4 hPa 0,0 l/m 6,0 km/h (2 Bft) O-NO 70 2 min 0,000 mm 0,0 UV-I 58 W/m 4,7 C 7,6 C 8,0 km/h (2 Bft) 97,56 %
31.01.2018 16:26 7,6 C 4,4 C 81 % 1011,3 hPa 0,0 l/m 6,8 km/h (2 Bft) O 80 2 min 0,000 mm 0,0 UV-I 54 W/m 4,6 C 7,3 C 8,0 km/h (2 Bft) 96,00 %
31.01.2018 16:28 7,5 C 4,4 C 82 % 1011,2 hPa 0,0 l/m 6,0 km/h (2 Bft) O-NO 61 2 min 0,000 mm 0,0 UV-I 52 W/m 4,6 C 7,5 C 8,0 km/h (2 Bft) 97,87 %
31.01.2018 16:30 7,4 C 4,4 C 82 % 1011,2 hPa 0,0 l/m 7,1 km/h (2 Bft) O-NO 77 2 min 0,000 mm 0,0 UV-I 46 W/m 4,5 C 6,8 C 11,3 km/h (2 Bft) 98,11 %
31.01.2018 16:32 7,4 C 4,4 C 82 % 1011,2 hPa 0,0 l/m 6,9 km/h (2 Bft) O-NO 76 2 min 0,000 mm 0,0 UV-I 43 W/m 4,5 C 7,0 C 11,3 km/h (2 Bft) 95,24 %
31.01.2018 16:34 7,3 C 4,4 C 82 % 1011,2 hPa 0,0 l/m 6,8 km/h (2 Bft) O-NO 78 2 min 0,000 mm 0,0 UV-I 40 W/m 4,4 C 7,0 C 11,3 km/h (2 Bft) 95,74 %
31.01.2018 16:36 7,3 C 4,4 C 82 % 1011,2 hPa 0,0 l/m 5,8 km/h (2 Bft) O-NO 75 2 min 0,000 mm 0,0 UV-I 38 W/m 4,4 C 7,3 C 11,3 km/h (2 Bft) 96,23 %
31.01.2018 16:38 7,3 C 4,4 C 82 % 1011,2 hPa 0,0 l/m 4,7 km/h (1 Bft) O-NO 62 2 min 0,000 mm 0,0 UV-I 34 W/m 4,4 C 7,3 C 6,4 km/h (2 Bft) 97,56 %
31.01.2018 16:40 7,3 C 4,4 C 82 % 1011,1 hPa 0,0 l/m 6,0 km/h (2 Bft) O 84 2 min 0,000 mm 0,0 UV-I 30 W/m 4,4 C 7,3 C 9,7 km/h (2 Bft) 98,00 %
31.01.2018 16:42 7,3 C 4,4 C 82 % 1010,9 hPa 0,0 l/m 6,9 km/h (2 Bft) O-NO 74 2 min 0,000 mm 0,0 UV-I 22 W/m 4,4 C 6,9 C 11,3 km/h (2 Bft) 98,00 %
31.01.2018 16:44 7,2 C 4,4 C 82 % 1010,9 hPa 0,0 l/m 8,1 km/h (2 Bft) O-NO 59 2 min 0,000 mm 0,0 UV-I 19 W/m 4,3 C 5,8 C 11,3 km/h (2 Bft) 95,12 %
31.01.2018 16:46 7,1 C 4,4 C 83 % 1010,8 hPa 0,0 l/m 5,9 km/h (2 Bft) O-NO 76 2 min 0,000 mm 0,0 UV-I 21 W/m 4,4 C 7,1 C 8,0 km/h (2 Bft) 98,00 %
31.01.2018 16:48 7,0 C 4,4 C 83 % 1010,9 hPa 0,0 l/m 5,4 km/h (1 Bft) O 82 2 min 0,000 mm 0,0 UV-I 16 W/m 4,3 C 7,0 C 8,0 km/h (2 Bft) 97,87 %
31.01.2018 16:50 6,9 C 4,4 C 83 % 1010,9 hPa 0,0 l/m 5,6 km/h (1 Bft) O 86 2 min 0,000 mm 0,0 UV-I 15 W/m 4,2 C 6,9 C 6,4 km/h (2 Bft) 97,56 %
31.01.2018 16:52 6,8 C 4,4 C 83 % 1010,8 hPa 0,0 l/m 5,2 km/h (1 Bft) O 97 0 min 0,000 mm 0,0 UV-I 13 W/m 4,1 C 6,8 C 6,4 km/h (2 Bft) 96,00 %
31.01.2018 16:54 6,6 C 4,4 C 83 % 1010,8 hPa 0,0 l/m 5,2 km/h (1 Bft) O 93 0 min 0,000 mm 0,0 UV-I 11 W/m 3,9 C 6,6 C 9,7 km/h (2 Bft) 98,00 %
31.01.2018 16:56 6,5 C 4,4 C 84 % 1010,8 hPa 0,0 l/m 5,8 km/h (2 Bft) O 90 0 min 0,000 mm 0,0 UV-I 11 W/m 4,0 C 6,5 C 8,0 km/h (2 Bft) 97,37 %
31.01.2018 16:58 6,4 C 4,4 C 84 % 1010,7 hPa 0,0 l/m 6,2 km/h (2 Bft) O-NO 73 0 min 0,000 mm 0,0 UV-I 11 W/m 3,9 C 6,4 C 11,3 km/h (2 Bft) 96,23 %
31.01.2018 17:00 6,6 C 4,4 C 84 % 1010,7 hPa 0,0 l/m 6,3 km/h (2 Bft) O 86 0 min 0,000 mm 0,0 UV-I 9 W/m 4,1 C 6,6 C 11,3 km/h (2 Bft) 97,37 %
31.01.2018 17:02 6,5 C 4,4 C 84 % 1010,7 hPa 0,0 l/m 5,8 km/h (2 Bft) O-NO 73 0 min 0,026 mm 0,0 UV-I 9 W/m 4,0 C 6,5 C 8,0 km/h (2 Bft) 98,15 %
31.01.2018 17:04 6,4 C 4,4 C 84 % 1010,7 hPa 0,0 l/m 5,7 km/h (1 Bft) O 88 0 min 0,000 mm 0,0 UV-I 8 W/m 3,9 C 6,4 C 11,3 km/h (2 Bft) 97,62 %
31.01.2018 17:06 6,4 C 4,4 C 84 % 1010,6 hPa 0,0 l/m 4,4 km/h (1 Bft) O 88 0 min 0,000 mm 0,0 UV-I 7 W/m 3,9 C 6,4 C 4,8 km/h (1 Bft) 100,00 %
31.01.2018 17:08 6,3 C 4,4 C 85 % 1010,6 hPa 0,0 l/m 5,5 km/h (1 Bft) O-NO 78 0 min 0,000 mm 0,0 UV-I 7 W/m 4,0 C 6,3 C 8,0 km/h (2 Bft) 98,00 %
31.01.2018 17:10 6,2 C 4,4 C 85 % 1010,7 hPa 0,0 l/m 4,8 km/h (1 Bft) O 95 0 min 0,000 mm 0,0 UV-I 5 W/m 3,9 C 6,2 C 6,4 km/h (2 Bft) 100,00 %
31.01.2018 17:12 6,2 C 4,4 C 85 % 1010,7 hPa 0,0 l/m 3,8 km/h (1 Bft) O 101 0 min 0,000 mm 0,0 UV-I 5 W/m 3,9 C 6,2 C 4,8 km/h (1 Bft) 100,00 %
31.01.2018 17:14 6,3 C 4,4 C 85 % 1010,6 hPa 0,0 l/m 3,7 km/h (1 Bft) O 101 0 min 0,000 mm 0,0 UV-I 5 W/m 4,0 C 6,3 C 4,8 km/h (1 Bft) 95,12 %
31.01.2018 17:16 6,2 C 4,4 C 85 % 1010,6 hPa 0,0 l/m 4,3 km/h (1 Bft) O 82 0 min 0,000 mm 0,0 UV-I 5 W/m 3,9 C 6,2 C 6,4 km/h (2 Bft) 96,00 %
31.01.2018 17:18 6,3 C 4,4 C 85 % 1010,5 hPa 0,0 l/m 4,3 km/h (1 Bft) O-NO 74 0 min 0,000 mm 0,0 UV-I 2 W/m 4,0 C 6,3 C 6,4 km/h (2 Bft) 100,00 %
31.01.2018 17:20 6,5 C 4,4 C 85 % 1010,5 hPa 0,0 l/m 3,0 km/h (1 Bft) O-NO 74 0 min 0,000 mm 0,0 UV-I 0 W/m 4,2 C 6,5 C 4,8 km/h (1 Bft) 100,00 %
31.01.2018 17:22 6,5 C 4,4 C 84 % 1010,5 hPa 0,0 l/m 3,5 km/h (1 Bft) O-NO 74 0 min 0,000 mm 0,0 UV-I 0 W/m 4,0 C 6,5 C 4,8 km/h (1 Bft) 100,00 %
31.01.2018 17:24 6,4 C 4,4 C 84 % 1010,4 hPa 0,0 l/m 4,1 km/h (1 Bft) O-NO 74 0 min 0,000 mm 0,0 UV-I 0 W/m 3,9 C 6,4 C 4,8 km/h (1 Bft) 100,00 %
31.01.2018 17:26 6,3 C 4,4 C 85 % 1010,4 hPa 0,0 l/m 4,8 km/h (1 Bft) O-NO 63 0 min 0,000 mm 0,0 UV-I 0 W/m 4,0 C 6,3 C 6,4 km/h (2 Bft) 100,00 %
31.01.2018 17:28 6,2 C 4,4 C 85 % 1010,3 hPa 0,0 l/m 5,1 km/h (1 Bft) NO 55 0 min 0,000 mm 0,0 UV-I 0 W/m 3,9 C 6,2 C 6,4 km/h (2 Bft) 98,00 %
31.01.2018 17:30 6,1 C 4,4 C 85 % 1010,4 hPa 0,0 l/m 3,9 km/h (1 Bft) O-NO 66 0 min 0,000 mm 0,0 UV-I 0 W/m 3,8 C 6,1 C 4,8 km/h (1 Bft) 97,87 %
31.01.2018 17:32 5,8 C 4,4 C 86 % 1010,3 hPa 0,0 l/m 2,8 km/h (1 Bft) O-NO 66 0 min 0,000 mm 0,0 UV-I 0 W/m 3,6 C 5,8 C 4,8 km/h (1 Bft) 100,00 %
31.01.2018 17:34 5,8 C 4,4 C 87 % 1010,3 hPa 0,0 l/m 4,2 km/h (1 Bft) O-NO 67 0 min 0,000 mm 0,0 UV-I 0 W/m 3,8 C 5,8 C 6,4 km/h (2 Bft) 97,87 %
31.01.2018 17:36 5,8 C 4,4 C 86 % 1010,2 hPa 0,0 l/m 4,9 km/h (1 Bft) O-NO 74 0 min 0,000 mm 0,0 UV-I 0 W/m 3,6 C 5,8 C 6,4 km/h (2 Bft) 100,00 %
31.01.2018 17:38 5,7 C 4,4 C 87 % 1010,2 hPa 0,0 l/m 6,2 km/h (2 Bft) O-NO 66 0 min 0,000 mm 0,0 UV-I 0 W/m 3,7 C 5,7 C 8,0 km/h (2 Bft) 100,00 %
31.01.2018 17:40 5,7 C 4,4 C 87 % 1010,0 hPa 0,0 l/m 7,7 km/h (2 Bft) O-NO 77 0 min 0,000 mm 0,0 UV-I 0 W/m 3,7 C 4,6 C 11,3 km/h (2 Bft) 100,00 %
31.01.2018 17:42 5,7 C 4,4 C 87 % 1010,0 hPa 0,0 l/m 7,0 km/h (2 Bft) O-NO 73 0 min 0,000 mm 0,0 UV-I 0 W/m 3,7 C 5,2 C 11,3 km/h (2 Bft) 100,00 %
31.01.2018 17:44 5,8 C 4,4 C 87 % 1009,9 hPa 0,0 l/m 8,9 km/h (2 Bft) O-NO 69 0 min 0,000 mm 0,0 UV-I 0 W/m 3,8 C 3,7 C 14,5 km/h (3 Bft) 100,00 %
31.01.2018 17:46 5,9 C 4,4 C 87 % 1009,8 hPa 0,0 l/m 10,5 km/h (2 Bft) O-NO 78 0 min 0,000 mm 0,0 UV-I 0 W/m 3,9 C 2,7 C 14,5 km/h (3 Bft) 100,00 %
31.01.2018 17:48 6,0 C 4,4 C 87 % 1009,8 hPa 0,0 l/m 9,5 km/h (2 Bft) O 84 0 min 0,000 mm 0,0 UV-I 0 W/m 4,0 C 3,5 C 14,5 km/h (3 Bft) 100,00 %
31.01.2018 17:50 6,2 C 4,4 C 86 % 1009,7 hPa 0,0 l/m 9,4 km/h (2 Bft) O-NO 71 0 min 0,000 mm 0,0 UV-I 0 W/m 4,0 C 3,8 C 14,5 km/h (3 Bft) 100,00 %
31.01.2018 17:52 6,3 C 4,4 C 85 % 1009,7 hPa 0,0 l/m 11,0 km/h (2 Bft) O-SO 109 0 min 0,000 mm 0,0 UV-I 0 W/m 4,0 C 2,9 C 17,7 km/h (3 Bft) 100,00 %
31.01.2018 17:54 6,4 C 4,4 C 85 % 1009,8 hPa 0,0 l/m 9,0 km/h (2 Bft) O 80 0 min 0,000 mm 0,0 UV-I 0 W/m 4,1 C 4,3 C 12,9 km/h (3 Bft) 100,00 %
31.01.2018 17:56 6,4 C 4,4 C 84 % 1009,7 hPa 0,2 l/m 12,4 km/h (3 Bft) O-NO 72 0 min 0,000 mm 0,0 UV-I 0 W/m 3,9 C 2,1 C 19,3 km/h (3 Bft) 100,00 %
31.01.2018 17:58 6,4 C 4,4 C 84 % 1009,7 hPa 0,0 l/m 10,3 km/h (2 Bft) O-NO 73 0 min 0,000 mm 0,0 UV-I 0 W/m 3,9 C 3,4 C 14,5 km/h (3 Bft) 100,00 %
31.01.2018 18:00 6,3 C 4,4 C 84 % 1009,7 hPa 0,0 l/m 7,3 km/h (2 Bft) NO 56 0 min 0,000 mm 0,0 UV-I 0 W/m 3,8 C 5,5 C 12,9 km/h (3 Bft) 100,00 %
31.01.2018 18:02 6,3 C 4,4 C 84 % 1009,6 hPa 0,0 l/m 9,1 km/h (2 Bft) O-NO 77 0 min 0,000 mm 0,0 UV-I 0 W/m 3,8 C 4,1 C 16,1 km/h (3 Bft) 98,11 %
31.01.2018 18:04 6,4 C 4,4 C 84 % 1009,6 hPa 0,0 l/m 12,8 km/h (3 Bft) O-NO 74 0 min 0,000 mm 0,0 UV-I 0 W/m 3,9 C 1,9 C 16,1 km/h (3 Bft) 97,56 %
31.01.2018 18:06 6,4 C 4,4 C 84 % 1009,5 hPa 0,0 l/m 13,1 km/h (3 Bft) O 88 0 min 0,000 mm 0,0 UV-I 0 W/m 3,9 C 1,7 C 17,7 km/h (3 Bft) 100,00 %
31.01.2018 18:08 6,4 C 4,4 C 84 % 1009,5 hPa 0,0 l/m 8,6 km/h (2 Bft) O 100 0 min 0,000 mm 0,0 UV-I 0 W/m 3,9 C 4,6 C 14,5 km/h (3 Bft) 100,00 %
31.01.2018 18:10 6,3 C 4,4 C 84 % 1009,5 hPa 0,0 l/m 10,1 km/h (2 Bft) O 101 0 min 0,000 mm 0,0 UV-I 0 W/m 3,8 C 3,4 C 17,7 km/h (3 Bft) 100,00 %
31.01.2018 18:12 6,3 C 4,4 C 84 % 1009,5 hPa 0,0 l/m 8,9 km/h (2 Bft) O 92 0 min 0,000 mm 0,0 UV-I 0 W/m 3,8 C 4,3 C 12,9 km/h (3 Bft) 100,00 %
31.01.2018 18:14 6,3 C 4,4 C 84 % 1009,4 hPa 0,0 l/m 10,8 km/h (2 Bft) O 93 0 min 0,000 mm 0,0 UV-I 0 W/m 3,8 C 3,0 C 14,5 km/h (3 Bft) 100,00 %
31.01.2018 18:16 6,3 C 4,4 C 84 % 1009,4 hPa 0,0 l/m 9,0 km/h (2 Bft) O 82 0 min 0,000 mm 0,0 UV-I 0 W/m 3,8 C 4,2 C 12,9 km/h (3 Bft) 100,00 %
31.01.2018 18:18 6,3 C 4,4 C 84 % 1009,4 hPa 0,0 l/m 7,8 km/h (2 Bft) O-SO 117 0 min 0,000 mm 0,0 UV-I 0 W/m 3,8 C 5,1 C 14,5 km/h (3 Bft) 100,00 %
31.01.2018 18:20 6,3 C 4,4 C 83 % 1009,4 hPa 0,0 l/m 6,4 km/h (2 Bft) NO 56 0 min 0,000 mm 0,0 UV-I 0 W/m 3,6 C 6,3 C 11,3 km/h (2 Bft) 100,00 %
31.01.2018 18:22 6,2 C 4,4 C 84 % 1009,5 hPa 0,0 l/m 5,6 km/h (1 Bft) O-NO 63 0 min 0,000 mm 0,0 UV-I 0 W/m 3,7 C 6,2 C 8,0 km/h (2 Bft) 100,00 %
31.01.2018 18:24 6,2 C 4,4 C 83 % 1009,5 hPa 0,0 l/m 5,7 km/h (1 Bft) O-NO 71 0 min 0,000 mm 0,0 UV-I 0 W/m 3,5 C 6,2 C 9,7 km/h (2 Bft) 100,00 %
31.01.2018 18:26 6,2 C 4,4 C 83 % 1009,4 hPa 0,0 l/m 4,3 km/h (1 Bft) O-NO 66 0 min 0,000 mm 0,0 UV-I 0 W/m 3,5 C 6,2 C 8,0 km/h (2 Bft) 97,87 %
31.01.2018 18:28 6,2 C 4,4 C 84 % 1009,5 hPa 0,0 l/m 3,8 km/h (1 Bft) O-NO 78 0 min 0,000 mm 0,0 UV-I 0 W/m 3,7 C 6,2 C 6,4 km/h (2 Bft) 97,87 %
31.01.2018 18:30 6,1 C 4,4 C 84 % 1009,5 hPa 0,0 l/m 3,3 km/h (1 Bft) O-NO 78 0 min 0,000 mm 0,0 UV-I 0 W/m 3,6 C 6,1 C 4,8 km/h (1 Bft) 97,56 %
31.01.2018 18:32 5,9 C 4,4 C 84 % 1009,4 hPa 0,0 l/m 3,5 km/h (1 Bft) O-NO 78 0 min 0,000 mm 0,0 UV-I 0 W/m 3,4 C 5,9 C 4,8 km/h (1 Bft) 100,00 %
31.01.2018 18:34 5,8 C 4,4 C 85 % 1009,4 hPa 0,0 l/m 2,4 km/h (1 Bft) O-NO 78 0 min 0,000 mm 0,0 UV-I 0 W/m 3,5 C 5,8 C 3,2 km/h (1 Bft) 100,00 %
31.01.2018 18:36 5,5 C 4,4 C 86 % 1009,4 hPa 0,0 l/m 2,3 km/h (1 Bft) O-NO 78 0 min 0,000 mm 0,0 UV-I 0 W/m 3,3 C 5,5 C 3,2 km/h (1 Bft) 100,00 %
31.01.2018 18:38 5,3 C 4,4 C 87 % 1009,4 hPa 0,0 l/m 1,4 km/h (1 Bft) O-NO 77 0 min 0,000 mm 0,0 UV-I 0 W/m 3,3 C 5,3 C 3,2 km/h (1 Bft) 100,00 %
31.01.2018 18:40 5,1 C 4,4 C 88 % 1009,4 hPa 0,0 l/m 0,0 km/h (0 Bft) O-NO 77 0 min 0,000 mm 0,0 UV-I 0 W/m 3,3 C 5,1 C 1,6 km/h (1 Bft) 98,00 %
31.01.2018 18:42 4,9 C 4,4 C 88 % 1009,3 hPa 0,0 l/m 0,0 km/h (0 Bft) O-NO 77 0 min 0,000 mm 0,0 UV-I 0 W/m 3,1 C 4,9 C 0,0 km/h (0 Bft) 97,37 %
31.01.2018 18:44 4,9 C 4,4 C 89 % 1009,3 hPa 0,0 l/m 0,0 km/h (0 Bft) O-NO 77 0 min 0,000 mm 0,0 UV-I 0 W/m 3,2 C 4,9 C 0,0 km/h (0 Bft) 97,87 %
31.01.2018 18:46 5,0 C 4,4 C 89 % 1009,3 hPa 0,0 l/m 0,0 km/h (0 Bft) O-NO 77 0 min 0,000 mm 0,0 UV-I 0 W/m 3,3 C 5,0 C 0,0 km/h (0 Bft) 98,00 %
31.01.2018 18:48 5,1 C 4,4 C 89 % 1009,2 hPa 0,0 l/m 0,2 km/h (0 Bft) O-NO 77 0 min 0,000 mm 0,0 UV-I 0 W/m 3,4 C 5,1 C 1,6 km/h (1 Bft) 97,87 %
31.01.2018 18:50 5,1 C 4,4 C 88 % 1009,1 hPa 0,0 l/m 0,0 km/h (0 Bft) O-NO 77 0 min 0,000 mm 0,0 UV-I 0 W/m 3,3 C 5,1 C 0,0 km/h (0 Bft) 96,00 %
31.01.2018 18:52 4,9 C 4,4 C 88 % 1009,1 hPa 0,0 l/m 0,1 km/h (0 Bft) O-NO 77 0 min 0,000 mm 0,0 UV-I 0 W/m 3,1 C 4,9 C 1,6 km/h (1 Bft) 100,00 %
31.01.2018 18:54 4,3 C 4,4 C 88 % 1009,0 hPa 0,0 l/m 1,5 km/h (1 Bft) O-NO 77 0 min 0,000 mm 0,0 UV-I 0 W/m 2,5 C 4,3 C 3,2 km/h (1 Bft) 96,00 %
31.01.2018 18:56 3,9 C 4,4 C 90 % 1009,0 hPa 0,0 l/m 1,5 km/h (1 Bft) O-NO 77 0 min 0,000 mm 0,0 UV-I 0 W/m 2,4 C 3,9 C 3,2 km/h (1 Bft) 98,00 %
31.01.2018 18:58 3,8 C 4,4 C 91 % 1008,9 hPa 0,0 l/m 0,8 km/h (0 Bft) O-NO 77 0 min 0,000 mm 0,0 UV-I 0 W/m 2,5 C 3,8 C 3,2 km/h (1 Bft) 97,62 %
31.01.2018 19:00 3,8 C 4,4 C 91 % 1008,9 hPa 0,0 l/m 2,4 km/h (1 Bft) O-NO 77 0 min 0,000 mm 0,0 UV-I 0 W/m 2,5 C 3,8 C 3,2 km/h (1 Bft) 98,08 %
31.01.2018 19:02 3,8 C 4,4 C 91 % 1008,8 hPa 0,0 l/m 2,8 km/h (1 Bft) O-NO 77 0 min 0,000 mm 0,0 UV-I 0 W/m 2,5 C 3,8 C 4,8 km/h (1 Bft) 94,00 %
31.01.2018 19:04 3,6 C 4,4 C 91 % 1008,9 hPa 0,0 l/m 1,5 km/h (1 Bft) O-NO 77 0 min 0,000 mm 0,0 UV-I 0 W/m 2,3 C 3,6 C 3,2 km/h (1 Bft) 94,44 %
31.01.2018 19:06 3,5 C 4,4 C 92 % 1008,9 hPa 0,0 l/m 1,4 km/h (1 Bft) O-NO 77 0 min 0,000 mm 0,0 UV-I 0 W/m 2,3 C 3,5 C 3,2 km/h (1 Bft) 95,16 %
31.01.2018 19:08 3,5 C 4,4 C 92 % 1008,8 hPa 0,0 l/m 1,7 km/h (1 Bft) O-NO 77 0 min 0,000 mm 0,0 UV-I 0 W/m 2,3 C 3,5 C 3,2 km/h (1 Bft) 94,74 %
31.01.2018 19:10 3,6 C 4,4 C 92 % 1008,8 hPa 0,0 l/m 2,8 km/h (1 Bft) O-NO 77 0 min 0,000 mm 0,0 UV-I 0 W/m 2,4 C 3,6 C 3,2 km/h (1 Bft) 95,74 %
31.01.2018 19:12 3,4 C 4,4 C 91 % 1008,8 hPa 0,0 l/m 2,3 km/h (1 Bft) O-NO 77 0 min 0,000 mm 0,0 UV-I 0 W/m 2,1 C 3,4 C 3,2 km/h (1 Bft) 97,73 %
31.01.2018 19:14 3,3 C 4,4 C 92 % 1008,8 hPa 0,0 l/m 0,8 km/h (0 Bft) O-NO 77 0 min 0,000 mm 0,0 UV-I 0 W/m 2,1 C 3,3 C 1,6 km/h (1 Bft) 98,11 %
31.01.2018 19:16 3,2 C 4,4 C 92 % 1008,8 hPa 0,0 l/m 1,7 km/h (1 Bft) O-NO 77 0 min 0,000 mm 0,0 UV-I 0 W/m 2,0 C 3,2 C 3,2 km/h (1 Bft) 98,00 %
31.01.2018 19:18 3,1 C 4,4 C 92 % 1008,7 hPa 0,0 l/m 1,1 km/h (1 Bft) O-NO 77 0 min 0,000 mm 0,0 UV-I 0 W/m 1,9 C 3,1 C 1,6 km/h (1 Bft) 100,00 %
31.01.2018 19:20 2,9 C 4,4 C 93 % 1008,7 hPa 0,0 l/m 0,2 km/h (0 Bft) O-NO 77 0 min 0,000 mm 0,0 UV-I 0 W/m 1,9 C 2,9 C 1,6 km/h (1 Bft) 97,14 %
31.01.2018 19:22 2,9 C 4,4 C 93 % 1008,7 hPa 0,0 l/m 0,2 km/h (0 Bft) O-NO 77 0 min 0,000 mm 0,0 UV-I 0 W/m 1,9 C 2,9 C 3,2 km/h (1 Bft) 97,87 %
31.01.2018 19:24 2,9 C 4,4 C 93 % 1008,6 hPa 0,0 l/m 3,1 km/h (1 Bft) O-NO 78 0 min 0,000 mm 0,0 UV-I 0 W/m 1,9 C 2,9 C 4,8 km/h (1 Bft) 94,34 %
31.01.2018 19:26 2,7 C 4,4 C 92 % 1008,5 hPa 0,0 l/m 0,2 km/h (0 Bft) O-NO 78 0 min 0,000 mm 0,0 UV-I 0 W/m 1,5 C 2,7 C 1,6 km/h (1 Bft) 98,00 %
31.01.2018 19:28 2,6 C 4,4 C 93 % 1008,6 hPa 0,0 l/m 1,5 km/h (1 Bft) O-NO 78 0 min 0,000 mm 0,0 UV-I 0 W/m 1,6 C 2,6 C 3,2 km/h (1 Bft) 92,11 %
31.01.2018 19:30 2,6 C 4,4 C 94 % 1008,5 hPa 0,0 l/m 3,1 km/h (1 Bft) O-NO 78 0 min 0,000 mm 0,0 UV-I 0 W/m 1,7 C 2,6 C 4,8 km/h (1 Bft) 98,00 %
31.01.2018 19:32 2,7 C 4,4 C 94 % 1008,5 hPa 0,0 l/m 2,3 km/h (1 Bft) SO 124 0 min 0,000 mm 0,0 UV-I 0 W/m 1,8 C 2,7 C 4,8 km/h (1 Bft) 96,00 %
31.01.2018 19:34 2,7 C 4,4 C 94 % 1008,5 hPa 0,0 l/m 2,5 km/h (1 Bft) SO 124 0 min 0,000 mm 0,0 UV-I 0 W/m 1,8 C 2,7 C 4,8 km/h (1 Bft) 97,87 %
31.01.2018 19:36 2,7 C 4,4 C 94 % 1008,5 hPa 0,0 l/m 0,3 km/h (0 Bft) SO 124 0 min 0,000 mm 0,0 UV-I 0 W/m 1,8 C 2,7 C 1,6 km/h (1 Bft) 98,00 %
31.01.2018 19:38 2,9 C 4,4 C 94 % 1008,5 hPa 0,0 l/m 1,8 km/h (1 Bft) SO 125 0 min 0,000 mm 0,0 UV-I 0 W/m 2,0 C 2,9 C 3,2 km/h (1 Bft) 95,74 %
31.01.2018 19:40 3,2 C 4,4 C 94 % 1008,5 hPa 0,0 l/m 3,0 km/h (1 Bft) SO 125 0 min 0,000 mm 0,0 UV-I 0 W/m 2,3 C 3,2 C 4,8 km/h (1 Bft) 97,87 %
31.01.2018 19:42 3,2 C 4,4 C 93 % 1008,5 hPa 0,0 l/m 3,6 km/h (1 Bft) SO 125 0 min 0,000 mm 0,0 UV-I 0 W/m 2,2 C 3,2 C 4,8 km/h (1 Bft) 97,44 %
31.01.2018 19:44 2,9 C 4,4 C 92 % 1008,4 hPa 0,0 l/m 2,0 km/h (1 Bft) SO 125 0 min 0,000 mm 0,0 UV-I 0 W/m 1,7 C 2,9 C 3,2 km/h (1 Bft) 96,00 %
31.01.2018 19:46 2,9 C 4,4 C 93 % 1008,5 hPa 0,0 l/m 2,9 km/h (1 Bft) SO 126 0 min 0,000 mm 0,0 UV-I 0 W/m 1,9 C 2,9 C 4,8 km/h (1 Bft) 98,00 %
31.01.2018 19:48 2,9 C 4,4 C 93 % 1008,4 hPa 0,0 l/m 2,4 km/h (1 Bft) SO 126 0 min 0,000 mm 0,0 UV-I 0 W/m 1,9 C 2,9 C 3,2 km/h (1 Bft) 97,37 %
31.01.2018 19:50 2,9 C 4,4 C 93 % 1008,5 hPa 0,0 l/m 3,0 km/h (1 Bft) SO 127 0 min 0,000 mm 0,0 UV-I 0 W/m 1,9 C 2,9 C 4,8 km/h (1 Bft) 98,11 %
31.01.2018 19:52 2,9 C 4,4 C 93 % 1008,5 hPa 0,0 l/m 3,3 km/h (1 Bft) SO 127 0 min 0,000 mm 0,0 UV-I 0 W/m 1,9 C 2,9 C 4,8 km/h (1 Bft) 94,00 %
31.01.2018 19:54 2,8 C 4,4 C 93 % 1008,4 hPa 0,0 l/m 2,9 km/h (1 Bft) SO 127 0 min 0,000 mm 0,0 UV-I 0 W/m 1,8 C 2,8 C 4,8 km/h (1 Bft) 100,00 %
31.01.2018 19:56 2,6 C 4,4 C 93 % 1008,4 hPa 0,0 l/m 1,4 km/h (1 Bft) SO 127 0 min 0,000 mm 0,0 UV-I 0 W/m 1,6 C 2,6 C 3,2 km/h (1 Bft) 96,00 %
31.01.2018 19:58 2,4 C 4,4 C 93 % 1008,4 hPa 0,0 l/m 0,9 km/h (0 Bft) SO 127 0 min 0,000 mm 0,0 UV-I 0 W/m 1,4 C 2,4 C 1,6 km/h (1 Bft) 97,56 %
31.01.2018 20:00 2,3 C 4,4 C 94 % 1008,3 hPa 0,0 l/m 0,4 km/h (0 Bft) SO 127 0 min 0,000 mm 0,0 UV-I 0 W/m 1,4 C 2,3 C 1,6 km/h (1 Bft) 98,00 %
31.01.2018 20:02 2,4 C 4,4 C 94 % 1008,3 hPa 0,0 l/m 1,5 km/h (1 Bft) SO 127 0 min 0,000 mm 0,0 UV-I 0 W/m 1,5 C 2,4 C 3,2 km/h (1 Bft) 97,87 %
31.01.2018 20:04 2,7 C 4,4 C 95 % 1008,3 hPa 0,0 l/m 1,4 km/h (1 Bft) SO 127 0 min 0,000 mm 0,0 UV-I 0 W/m 2,0 C 2,7 C 3,2 km/h (1 Bft) 98,00 %
31.01.2018 20:06 2,7 C 4,4 C 94 % 1008,2 hPa 0,0 l/m 0,2 km/h (0 Bft) SO 127 0 min 0,000 mm 0,0 UV-I 0 W/m 1,8 C 2,7 C 1,6 km/h (1 Bft) 97,87 %
31.01.2018 20:08 2,7 C 4,4 C 94 % 1008,1 hPa 0,0 l/m 0,4 km/h (0 Bft) SO 127 0 min 0,000 mm 0,0 UV-I 0 W/m 1,8 C 2,7 C 1,6 km/h (1 Bft) 95,74 %
31.01.2018 20:10 2,6 C 4,4 C 94 % 1008,0 hPa 0,0 l/m 0,3 km/h (0 Bft) SO 127 0 min 0,000 mm 0,0 UV-I 0 W/m 1,7 C 2,6 C 1,6 km/h (1 Bft) 94,00 %
31.01.2018 20:12 2,4 C 4,4 C 94 % 1008,0 hPa 0,0 l/m 0,0 km/h (0 Bft) SO 127 0 min 0,000 mm 0,0 UV-I 0 W/m 1,5 C 2,4 C 0,0 km/h (0 Bft) 97,37 %
31.01.2018 20:14 2,4 C 4,4 C 94 % 1007,9 hPa 0,0 l/m 1,0 km/h (0 Bft) SO 127 0 min 0,000 mm 0,0 UV-I 0 W/m 1,5 C 2,4 C 3,2 km/h (1 Bft) 97,87 %
31.01.2018 20:16 2,3 C 4,4 C 94 % 1007,8 hPa 0,0 l/m 3,6 km/h (1 Bft) SO 126 0 min 0,000 mm 0,0 UV-I 0 W/m 1,4 C 2,3 C 4,8 km/h (1 Bft) 96,23 %
31.01.2018 20:18 2,1 C 4,4 C 94 % 1007,7 hPa 0,0 l/m 4,2 km/h (1 Bft) SO 126 0 min 0,000 mm 0,0 UV-I 0 W/m 1,2 C 2,1 C 4,8 km/h (1 Bft) 97,87 %
31.01.2018 20:20 2,2 C 4,4 C 94 % 1007,6 hPa 0,0 l/m 4,8 km/h (1 Bft) SO 128 0 min 0,000 mm 0,0 UV-I 0 W/m 1,3 C 2,2 C 8,0 km/h (2 Bft) 94,87 %
31.01.2018 20:22 2,4 C 4,4 C 95 % 1007,6 hPa 0,0 l/m 4,9 km/h (1 Bft) SO 128 0 min 0,000 mm 0,0 UV-I 0 W/m 1,7 C 2,4 C 6,4 km/h (2 Bft) 98,11 %
31.01.2018 20:24 2,6 C 4,4 C 94 % 1007,6 hPa 0,0 l/m 4,2 km/h (1 Bft) SO 128 0 min 0,000 mm 0,0 UV-I 0 W/m 1,7 C 2,6 C 4,8 km/h (1 Bft) 100,00 %
31.01.2018 20:26 2,9 C 4,4 C 95 % 1007,7 hPa 0,0 l/m 2,6 km/h (1 Bft) NW 313 0 min 0,000 mm 0,0 UV-I 0 W/m 2,2 C 2,9 C 4,8 km/h (1 Bft) 97,87 %
31.01.2018 20:28 2,5 C 4,4 C 93 % 1007,6 hPa 0,0 l/m 1,9 km/h (1 Bft) NW 313 0 min 0,000 mm 0,0 UV-I 0 W/m 1,5 C 2,5 C 3,2 km/h (1 Bft) 100,00 %
31.01.2018 20:30 2,3 C 4,4 C 93 % 1007,7 hPa 0,0 l/m 0,0 km/h (0 Bft) NW 313 0 min 0,000 mm 0,0 UV-I 0 W/m 1,3 C 2,3 C 1,6 km/h (1 Bft) 97,87 %
31.01.2018 20:32 2,2 C 4,4 C 94 % 1007,7 hPa 0,0 l/m 3,6 km/h (1 Bft) W-SW 249 0 min 0,000 mm 0,0 UV-I 0 W/m 1,3 C 2,2 C 6,4 km/h (2 Bft) 100,00 %
31.01.2018 20:34 2,1 C 4,4 C 93 % 1007,7 hPa 0,0 l/m 3,7 km/h (1 Bft) W-SW 248 0 min 0,000 mm 0,0 UV-I 0 W/m 1,1 C 2,1 C 6,4 km/h (2 Bft) 100,00 %
31.01.2018 20:36 1,9 C 4,4 C 94 % 1007,7 hPa 0,0 l/m 5,2 km/h (1 Bft) W-SW 248 0 min 0,000 mm 0,0 UV-I 0 W/m 1,0 C 1,9 C 6,4 km/h (2 Bft) 100,00 %
31.01.2018 20:38 2,1 C 4,4 C 94 % 1007,8 hPa 0,0 l/m 5,0 km/h (1 Bft) W-SW 248 0 min 0,000 mm 0,0 UV-I 0 W/m 1,2 C 2,1 C 6,4 km/h (2 Bft) 97,87 %
31.01.2018 20:40 2,3 C 4,4 C 95 % 1007,8 hPa 0,0 l/m 4,0 km/h (1 Bft) W-SW 248 0 min 0,000 mm 0,0 UV-I 0 W/m 1,6 C 2,3 C 4,8 km/h (1 Bft) 94,74 %
31.01.2018 20:42 2,4 C 4,4 C 95 % 1007,8 hPa 0,0 l/m 3,4 km/h (1 Bft) W-SW 248 0 min 0,000 mm 0,0 UV-I 0 W/m 1,7 C 2,4 C 4,8 km/h (1 Bft) 100,00 %
31.01.2018 20:44 2,2 C 4,4 C 94 % 1007,6 hPa 0,0 l/m 4,0 km/h (1 Bft) S-SO 159 0 min 0,000 mm 0,0 UV-I 0 W/m 1,3 C 2,2 C 8,0 km/h (2 Bft) 100,00 %
31.01.2018 20:46 2,2 C 4,4 C 94 % 1007,6 hPa 0,0 l/m 5,6 km/h (1 Bft) S-SO 147 0 min 0,000 mm 0,0 UV-I 0 W/m 1,3 C 2,2 C 8,0 km/h (2 Bft) 100,00 %
31.01.2018 20:48 2,1 C 4,4 C 94 % 1007,5 hPa 0,0 l/m 4,6 km/h (1 Bft) S-SO 147 0 min 0,000 mm 0,0 UV-I 0 W/m 1,2 C 2,1 C 6,4 km/h (2 Bft) 100,00 %
31.01.2018 20:50 2,2 C 4,4 C 95 % 1007,5 hPa 0,0 l/m 4,9 km/h (1 Bft) S-SO 147 0 min 0,000 mm 0,0 UV-I 0 W/m 1,5 C 2,2 C 6,4 km/h (2 Bft) 100,00 %
31.01.2018 20:52 2,0 C 4,4 C 94 % 1007,3 hPa 0,0 l/m 5,6 km/h (1 Bft) SO 146 0 min 0,000 mm 0,0 UV-I 0 W/m 1,1 C 2,0 C 6,4 km/h (2 Bft) 100,00 %
31.01.2018 20:54 1,9 C 4,4 C 94 % 1007,3 hPa 0,0 l/m 4,5 km/h (1 Bft) SO 146 0 min 0,000 mm 0,0 UV-I 0 W/m 1,0 C 1,9 C 6,4 km/h (2 Bft) 100,00 %
31.01.2018 20:56 2,2 C 4,4 C 95 % 1007,2 hPa 0,0 l/m 1,8 km/h (1 Bft) SO 146 0 min 0,000 mm 0,0 UV-I 0 W/m 1,5 C 2,2 C 4,8 km/h (1 Bft) 100,00 %
31.01.2018 20:58 2,3 C 4,4 C 95 % 1007,2 hPa 0,0 l/m 1,2 km/h (1 Bft) SO 146 0 min 0,000 mm 0,0 UV-I 0 W/m 1,6 C 2,3 C 3,2 km/h (1 Bft) 100,00 %
31.01.2018 21:00 2,3 C 4,4 C 94 % 1007,2 hPa 0,0 l/m 1,5 km/h (1 Bft) S-SO 148 0 min 0,000 mm 0,0 UV-I 0 W/m 1,4 C 2,3 C 3,2 km/h (1 Bft) 98,11 %
31.01.2018 21:02 2,2 C 4,4 C 94 % 1007,2 hPa 0,0 l/m 0,1 km/h (0 Bft) S-SO 148 0 min 0,000 mm 0,0 UV-I 0 W/m 1,3 C 2,2 C 1,6 km/h (1 Bft) 96,00 %
31.01.2018 21:04 2,1 C 4,4 C 94 % 1007,1 hPa 0,0 l/m 0,1 km/h (0 Bft) S-SO 148 0 min 0,000 mm 0,0 UV-I 0 W/m 1,2 C 2,1 C 1,6 km/h (1 Bft) 97,37 %
31.01.2018 21:06 1,9 C 4,4 C 94 % 1007,1 hPa 0,0 l/m 1,0 km/h (0 Bft) S-SO 148 0 min 0,000 mm 0,0 UV-I 0 W/m 1,0 C 1,9 C 3,2 km/h (1 Bft) 98,11 %
31.01.2018 21:08 1,8 C 4,4 C 94 % 1007,1 hPa 0,0 l/m 0,1 km/h (0 Bft) S-SO 148 0 min 0,000 mm 0,0 UV-I 0 W/m 0,9 C 1,8 C 1,6 km/h (1 Bft) 98,00 %
31.01.2018 21:10 1,7 C 4,4 C 94 % 1007,0 hPa 0,0 l/m 0,0 km/h (0 Bft) S-SO 148 0 min 0,000 mm 0,0 UV-I 0 W/m 0,8 C 1,7 C 0,0 km/h (0 Bft) 95,74 %
31.01.2018 21:12 1,7 C 4,4 C 95 % 1007,0 hPa 0,0 l/m 0,0 km/h (0 Bft) S-SO 148 0 min 0,000 mm 0,0 UV-I 0 W/m 1,0 C 1,7 C 0,0 km/h (0 Bft) 95,74 %
31.01.2018 21:14 1,8 C 4,4 C 95 % 1007,0 hPa 0,0 l/m 1,8 km/h (1 Bft) S-SO 148 0 min 0,000 mm 0,0 UV-I 0 W/m 1,1 C 1,8 C 3,2 km/h (1 Bft) 97,56 %
31.01.2018 21:16 1,7 C 4,4 C 95 % 1007,0 hPa 0,0 l/m 0,2 km/h (0 Bft) S-SO 148 0 min 0,000 mm 0,0 UV-I 0 W/m 1,0 C 1,7 C 1,6 km/h (1 Bft) 97,87 %
31.01.2018 21:18 1,8 C 4,4 C 95 % 1007,0 hPa 0,0 l/m 0,0 km/h (0 Bft) S-SO 148 0 min 0,000 mm 0,0 UV-I 0 W/m 1,1 C 1,8 C 0,0 km/h (0 Bft) 97,87 %
31.01.2018 21:20 1,8 C 4,4 C 95 % 1007,0 hPa 0,0 l/m 1,0 km/h (0 Bft) S-SO 148 0 min 0,000 mm 0,0 UV-I 0 W/m 1,1 C 1,8 C 1,6 km/h (1 Bft) 98,11 %
31.01.2018 21:22 1,8 C 4,4 C 95 % 1007,1 hPa 0,0 l/m 0,7 km/h (0 Bft) S-SO 148 0 min 0,000 mm 0,0 UV-I 0 W/m 1,1 C 1,8 C 1,6 km/h (1 Bft) 97,87 %
31.01.2018 21:24 1,8 C 4,4 C 95 % 1007,1 hPa 0,0 l/m 1,6 km/h (1 Bft) S-SO 148 0 min 0,000 mm 0,0 UV-I 0 W/m 1,1 C 1,8 C 3,2 km/h (1 Bft) 97,87 %
31.01.2018 21:26 1,8 C 4,4 C 95 % 1007,0 hPa 0,0 l/m 0,0 km/h (0 Bft) S-SO 148 0 min 0,000 mm 0,0 UV-I 0 W/m 1,1 C 1,8 C 0,0 km/h (0 Bft) 97,37 %
31.01.2018 21:28 1,9 C 4,4 C 95 % 1007,0 hPa 0,0 l/m 0,1 km/h (0 Bft) S-SO 148 0 min 0,000 mm 0,0 UV-I 0 W/m 1,2 C 1,9 C 1,6 km/h (1 Bft) 97,87 %
31.01.2018 21:30 1,8 C 4,4 C 95 % 1007,1 hPa 0,0 l/m 2,6 km/h (1 Bft) S-SO 148 0 min 0,000 mm 0,0 UV-I 0 W/m 1,1 C 1,8 C 3,2 km/h (1 Bft) 95,74 %
31.01.2018 21:32 1,8 C 4,4 C 95 % 1007,1 hPa 0,0 l/m 2,2 km/h (1 Bft) S-SO 148 0 min 0,000 mm 0,0 UV-I 0 W/m 1,1 C 1,8 C 4,8 km/h (1 Bft) 98,00 %
31.01.2018 21:34 1,8 C 4,4 C 95 % 1007,0 hPa 0,0 l/m 0,0 km/h (0 Bft) S-SO 148 0 min 0,000 mm 0,0 UV-I 0 W/m 1,1 C 1,8 C 0,0 km/h (0 Bft) 97,62 %
31.01.2018 21:36 1,8 C 4,4 C 95 % 1007,0 hPa 0,0 l/m 0,0 km/h (0 Bft) S-SO 148 0 min 0,000 mm 0,0 UV-I 0 W/m 1,1 C 1,8 C 0,0 km/h (0 Bft) 98,00 %
31.01.2018 21:38 1,8 C 4,4 C 94 % 1006,9 hPa 0,0 l/m 0,1 km/h (0 Bft) S-SO 148 0 min 0,000 mm 0,0 UV-I 0 W/m 0,9 C 1,8 C 1,6 km/h (1 Bft) 95,74 %
31.01.2018 21:40 1,6 C 4,4 C 94 % 1006,8 hPa 0,0 l/m 0,7 km/h (0 Bft) S-SO 148 0 min 0,000 mm 0,0 UV-I 0 W/m 0,7 C 1,6 C 3,2 km/h (1 Bft) 98,00 %
31.01.2018 21:42 1,6 C 4,4 C 95 % 1006,8 hPa 0,0 l/m 0,5 km/h (0 Bft) S-SO 148 0 min 0,000 mm 0,0 UV-I 0 W/m 0,9 C 1,6 C 1,6 km/h (1 Bft) 98,00 %
31.01.2018 21:44 1,7 C 4,4 C 95 % 1006,7 hPa 0,0 l/m 1,5 km/h (1 Bft) S-SO 148 0 min 0,000 mm 0,0 UV-I 0 W/m 1,0 C 1,7 C 3,2 km/h (1 Bft) 93,62 %
31.01.2018 21:46 1,7 C 4,4 C 95 % 1006,7 hPa 0,0 l/m 1,4 km/h (1 Bft) S-SO 148 0 min 0,000 mm 0,0 UV-I 0 W/m 1,0 C 1,7 C 4,8 km/h (1 Bft) 100,00 %
31.01.2018 21:48 1,6 C 4,4 C 95 % 1006,8 hPa 0,0 l/m 4,1 km/h (1 Bft) S-SO 149 0 min 0,000 mm 0,0 UV-I 0 W/m 0,9 C 1,6 C 4,8 km/h (1 Bft) 100,00 %
31.01.2018 21:50 1,3 C 4,4 C 94 % 1006,7 hPa 0,0 l/m 2,9 km/h (1 Bft) S-SO 149 0 min 0,000 mm 0,0 UV-I 0 W/m 0,4 C 1,3 C 4,8 km/h (1 Bft) 100,00 %
31.01.2018 21:52 1,2 C 4,4 C 95 % 1006,7 hPa 0,0 l/m 0,8 km/h (0 Bft) S-SO 149 0 min 0,000 mm 0,0 UV-I 0 W/m 0,5 C 1,2 C 3,2 km/h (1 Bft) 97,87 %
31.01.2018 21:54 1,1 C 4,4 C 95 % 1006,7 hPa 0,0 l/m 2,1 km/h (1 Bft) S-SO 149 0 min 0,000 mm 0,0 UV-I 0 W/m 0,4 C 1,1 C 3,2 km/h (1 Bft) 100,00 %
31.01.2018 21:56 1,6 C 4,4 C 96 % 1006,7 hPa 0,0 l/m 0,2 km/h (0 Bft) S-SO 149 0 min 0,000 mm 0,0 UV-I 0 W/m 1,0 C 1,6 C 1,6 km/h (1 Bft) 100,00 %
31.01.2018 21:58 1,9 C 4,4 C 96 % 1006,7 hPa 0,0 l/m 0,0 km/h (0 Bft) S-SO 149 0 min 0,000 mm 0,0 UV-I 0 W/m 1,3 C 1,9 C 0,0 km/h (0 Bft) 97,87 %
31.01.2018 22:00 2,2 C 4,4 C 96 % 1006,7 hPa 0,0 l/m 0,9 km/h (0 Bft) S-SO 149 0 min 0,000 mm 0,0 UV-I 0 W/m 1,6 C 2,2 C 3,2 km/h (1 Bft) 100,00 %
31.01.2018 22:02 2,0 C 4,4 C 95 % 1006,6 hPa 0,0 l/m 1,3 km/h (1 Bft) S-SO 148 0 min 0,000 mm 0,0 UV-I 0 W/m 1,3 C 2,0 C 6,4 km/h (2 Bft) 100,00 %
31.01.2018 22:04 1,8 C 4,4 C 94 % 1006,6 hPa 0,0 l/m 1,6 km/h (1 Bft) S-SO 148 0 min 0,000 mm 0,0 UV-I 0 W/m 0,9 C 1,8 C 4,8 km/h (1 Bft) 98,00 %
31.01.2018 22:06 2,2 C 4,4 C 95 % 1006,5 hPa 0,0 l/m 3,1 km/h (1 Bft) S-SO 148 0 min 0,000 mm 0,0 UV-I 0 W/m 1,5 C 2,2 C 4,8 km/h (1 Bft) 100,00 %
31.01.2018 22:08 2,6 C 4,4 C 96 % 1006,4 hPa 0,0 l/m 2,1 km/h (1 Bft) S-SO 148 0 min 0,000 mm 0,0 UV-I 0 W/m 2,0 C 2,6 C 4,8 km/h (1 Bft) 98,11 %
31.01.2018 22:10 2,8 C 4,4 C 95 % 1006,4 hPa 0,0 l/m 2,8 km/h (1 Bft) W 278 0 min 0,000 mm 0,0 UV-I 0 W/m 2,1 C 2,8 C 3,2 km/h (1 Bft) 100,00 %
31.01.2018 22:12 2,6 C 4,4 C 94 % 1006,4 hPa 0,0 l/m 2,2 km/h (1 Bft) W 278 0 min 0,000 mm 0,0 UV-I 0 W/m 1,7 C 2,6 C 3,2 km/h (1 Bft) 100,00 %
31.01.2018 22:14 2,5 C 4,4 C 94 % 1006,4 hPa 0,0 l/m 1,5 km/h (1 Bft) W 278 0 min 0,000 mm 0,0 UV-I 0 W/m 1,6 C 2,5 C 3,2 km/h (1 Bft) 100,00 %
31.01.2018 22:16 2,2 C 4,4 C 93 % 1006,2 hPa 0,0 l/m 2,3 km/h (1 Bft) W 277 0 min 0,000 mm 0,0 UV-I 0 W/m 1,2 C 2,2 C 4,8 km/h (1 Bft) 97,87 %
31.01.2018 22:18 1,9 C 4,4 C 94 % 1006,2 hPa 0,0 l/m 4,0 km/h (1 Bft) O 88 0 min 0,000 mm 0,0 UV-I 0 W/m 1,0 C 1,9 C 4,8 km/h (1 Bft) 100,00 %
31.01.2018 22:20 1,8 C 4,4 C 94 % 1006,2 hPa 0,0 l/m 2,0 km/h (1 Bft) SO 125 0 min 0,000 mm 0,0 UV-I 0 W/m 0,9 C 1,8 C 3,2 km/h (1 Bft) 98,00 %
31.01.2018 22:22 1,9 C 4,4 C 95 % 1006,2 hPa 0,0 l/m 2,0 km/h (1 Bft) SO 125 0 min 0,000 mm 0,0 UV-I 0 W/m 1,2 C 1,9 C 3,2 km/h (1 Bft) 100,00 %
31.01.2018 22:24 1,9 C 4,4 C 95 % 1006,1 hPa 0,0 l/m 1,7 km/h (1 Bft) SO 125 0 min 0,000 mm 0,0 UV-I 0 W/m 1,2 C 1,9 C 3,2 km/h (1 Bft) 98,00 %
31.01.2018 22:26 1,8 C 4,4 C 94 % 1006,1 hPa 0,0 l/m 0,1 km/h (0 Bft) SO 125 0 min 0,000 mm 0,0 UV-I 0 W/m 0,9 C 1,8 C 1,6 km/h (1 Bft) 100,00 %
31.01.2018 22:28 1,8 C 4,4 C 94 % 1006,1 hPa 0,0 l/m 2,0 km/h (1 Bft) SO 124 0 min 0,000 mm 0,0 UV-I 0 W/m 0,9 C 1,8 C 4,8 km/h (1 Bft) 100,00 %
31.01.2018 22:30 1,6 C 4,4 C 94 % 1006,0 hPa 0,0 l/m 4,8 km/h (1 Bft) O-SO 121 0 min 0,000 mm 0,0 UV-I 0 W/m 0,7 C 1,6 C 6,4 km/h (2 Bft) 100,00 %
31.01.2018 22:32 1,3 C 4,4 C 94 % 1005,9 hPa 0,0 l/m 8,8 km/h (2 Bft) O-SO 104 0 min 0,000 mm 0,0 UV-I 0 W/m 0,4 C -1,0 C 12,9 km/h (3 Bft) 100,00 %
31.01.2018 22:34 1,7 C 4,4 C 95 % 1005,9 hPa 0,0 l/m 6,3 km/h (2 Bft) O 92 0 min 0,000 mm 0,0 UV-I 0 W/m 1,0 C 1,7 C 11,3 km/h (2 Bft) 100,00 %
31.01.2018 22:36 2,1 C 4,4 C 96 % 1006,0 hPa 0,0 l/m 3,7 km/h (1 Bft) O 92 0 min 0,000 mm 0,0 UV-I 0 W/m 1,5 C 2,1 C 6,4 km/h (2 Bft) 100,00 %
31.01.2018 22:38 2,2 C 4,4 C 95 % 1005,9 hPa 0,0 l/m 4,8 km/h (1 Bft) O-SO 119 0 min 0,000 mm 0,0 UV-I 0 W/m 1,5 C 2,2 C 9,7 km/h (2 Bft) 100,00 %
31.01.2018 22:40 2,1 C 4,4 C 94 % 1005,8 hPa 0,0 l/m 4,5 km/h (1 Bft) SO 125 0 min 0,000 mm 0,0 UV-I 0 W/m 1,2 C 2,1 C 6,4 km/h (2 Bft) 96,00 %
31.01.2018 22:42 1,9 C 4,4 C 94 % 1005,7 hPa 0,0 l/m 7,0 km/h (2 Bft) O-SO 116 0 min 0,000 mm 0,0 UV-I 0 W/m 1,0 C 1,3 C 11,3 km/h (2 Bft) 100,00 %
31.01.2018 22:44 2,0 C 4,4 C 94 % 1005,7 hPa 0,0 l/m 6,3 km/h (2 Bft) O 97 0 min 0,000 mm 0,0 UV-I 0 W/m 1,1 C 2,0 C 11,3 km/h (2 Bft) 100,00 %
31.01.2018 22:46 2,3 C 4,4 C 95 % 1005,6 hPa 0,0 l/m 8,2 km/h (2 Bft) O-SO 106 0 min 0,000 mm 0,0 UV-I 0 W/m 1,6 C 0,6 C 12,9 km/h (3 Bft) 97,37 %
31.01.2018 22:48 2,7 C 4,4 C 94 % 1005,6 hPa 0,0 l/m 5,0 km/h (1 Bft) SO 128 0 min 0,000 mm 0,0 UV-I 0 W/m 1,8 C 2,7 C 9,7 km/h (2 Bft) 100,00 %
31.01.2018 22:50 2,9 C 4,4 C 93 % 1005,8 hPa 0,0 l/m 3,3 km/h (1 Bft) O-SO 111 0 min 0,000 mm 0,0 UV-I 0 W/m 1,9 C 2,9 C 9,7 km/h (2 Bft) 100,00 %
31.01.2018 22:52 2,9 C 4,4 C 93 % 1005,7 hPa 0,0 l/m 4,2 km/h (1 Bft) SO 126 0 min 0,000 mm 0,0 UV-I 0 W/m 1,9 C 2,9 C 6,4 km/h (2 Bft) 100,00 %
31.01.2018 22:54 2,7 C 4,4 C 92 % 1005,7 hPa 0,0 l/m 2,9 km/h (1 Bft) SO 127 0 min 0,000 mm 0,0 UV-I 0 W/m 1,5 C 2,7 C 4,8 km/h (1 Bft) 100,00 %
31.01.2018 22:56 2,6 C 4,4 C 92 % 1005,7 hPa 0,0 l/m 2,1 km/h (1 Bft) SO 130 0 min 0,000 mm 0,0 UV-I 0 W/m 1,4 C 2,6 C 4,8 km/h (1 Bft) 100,00 %
31.01.2018 22:58 2,5 C 4,4 C 93 % 1005,6 hPa 0,0 l/m 3,3 km/h (1 Bft) SO 134 0 min 0,000 mm 0,0 UV-I 0 W/m 1,5 C 2,5 C 8,0 km/h (2 Bft) 100,00 %
31.01.2018 23:00 2,4 C 4,4 C 92 % 1005,6 hPa 0,0 l/m 1,9 km/h (1 Bft) SO 134 0 min 0,000 mm 0,0 UV-I 0 W/m 1,2 C 2,4 C 3,2 km/h (1 Bft) 100,00 %
31.01.2018 23:02 2,2 C 4,4 C 92 % 1005,5 hPa 0,0 l/m 1,9 km/h (1 Bft) SO 134 0 min 0,000 mm 0,0 UV-I 0 W/m 1,0 C 2,2 C 4,8 km/h (1 Bft) 97,37 %
31.01.2018 23:04 1,9 C 4,4 C 93 % 1005,5 hPa 0,0 l/m 3,3 km/h (1 Bft) SO 128 0 min 0,000 mm 0,0 UV-I 0 W/m 0,9 C 1,9 C 4,8 km/h (1 Bft) 100,00 %
31.01.2018 23:06 1,8 C 4,4 C 93 % 1005,5 hPa 0,0 l/m 2,0 km/h (1 Bft) S-SO 156 0 min 0,000 mm 0,0 UV-I 0 W/m 0,8 C 1,8 C 4,8 km/h (1 Bft) 100,00 %
31.01.2018 23:08 1,7 C 4,4 C 93 % 1005,4 hPa 0,0 l/m 4,1 km/h (1 Bft) W-SW 238 0 min 0,000 mm 0,0 UV-I 0 W/m 0,7 C 1,7 C 6,4 km/h (2 Bft) 100,00 %
31.01.2018 23:10 1,6 C 4,4 C 93 % 1005,3 hPa 0,0 l/m 3,4 km/h (1 Bft) W-SW 238 0 min 0,000 mm 0,0 UV-I 0 W/m 0,6 C 1,6 C 4,8 km/h (1 Bft) 97,87 %
31.01.2018 23:12 1,5 C 4,4 C 94 % 1005,3 hPa 0,0 l/m 2,6 km/h (1 Bft) S-SO 157 0 min 0,000 mm 0,0 UV-I 0 W/m 0,6 C 1,5 C 4,8 km/h (1 Bft) 100,00 %
31.01.2018 23:14 1,4 C 4,4 C 94 % 1005,3 hPa 0,0 l/m 2,9 km/h (1 Bft) S-SO 157 0 min 0,000 mm 0,0 UV-I 0 W/m 0,5 C 1,4 C 4,8 km/h (1 Bft) 100,00 %
31.01.2018 23:16 1,3 C 4,4 C 94 % 1005,2 hPa 0,0 l/m 2,1 km/h (1 Bft) S-SO 157 0 min 0,000 mm 0,0 UV-I 0 W/m 0,4 C 1,3 C 3,2 km/h (1 Bft) 100,00 %
31.01.2018 23:18 1,2 C 4,4 C 95 % 1005,3 hPa 0,0 l/m 1,2 km/h (1 Bft) S-SO 157 0 min 0,000 mm 0,0 UV-I 0 W/m 0,5 C 1,2 C 4,8 km/h (1 Bft) 97,56 %
31.01.2018 23:20 1,3 C 4,4 C 95 % 1005,3 hPa 0,0 l/m 4,0 km/h (1 Bft) W-SW 254 0 min 0,000 mm 0,0 UV-I 0 W/m 0,6 C 1,3 C 6,4 km/h (2 Bft) 100,00 %
31.01.2018 23:22 1,3 C 4,4 C 95 % 1005,2 hPa 0,0 l/m 3,4 km/h (1 Bft) W-SW 253 0 min 0,000 mm 0,0 UV-I 0 W/m 0,6 C 1,3 C 6,4 km/h (2 Bft) 97,37 %
31.01.2018 23:24 1,3 C 4,4 C 95 % 1005,2 hPa 0,0 l/m 1,3 km/h (1 Bft) S 171 0 min 0,000 mm 0,0 UV-I 0 W/m 0,6 C 1,3 C 3,2 km/h (1 Bft) 95,74 %
31.01.2018 23:26 1,3 C 4,4 C 95 % 1005,2 hPa 0,0 l/m 1,6 km/h (1 Bft) S 171 0 min 0,000 mm 0,0 UV-I 0 W/m 0,6 C 1,3 C 3,2 km/h (1 Bft) 98,00 %
31.01.2018 23:28 1,4 C 4,4 C 95 % 1005,2 hPa 0,0 l/m 3,1 km/h (1 Bft) O-SO 114 0 min 0,000 mm 0,0 UV-I 0 W/m 0,7 C 1,4 C 6,4 km/h (2 Bft) 97,87 %
31.01.2018 23:30 1,4 C 4,4 C 95 % 1005,2 hPa 0,0 l/m 1,7 km/h (1 Bft) S-SO 165 0 min 0,000 mm 0,0 UV-I 0 W/m 0,7 C 1,4 C 6,4 km/h (2 Bft) 95,83 %
31.01.2018 23:32 1,4 C 4,4 C 95 % 1005,2 hPa 0,0 l/m 0,4 km/h (0 Bft) S-SO 158 0 min 0,000 mm 0,0 UV-I 0 W/m 0,7 C 1,4 C 1,6 km/h (1 Bft) 97,87 %
31.01.2018 23:34 1,4 C 4,4 C 94 % 1005,1 hPa 0,0 l/m 3,2 km/h (1 Bft) W 267 0 min 0,000 mm 0,0 UV-I 0 W/m 0,5 C 1,4 C 4,8 km/h (1 Bft) 98,00 %
31.01.2018 23:36 1,3 C 4,4 C 94 % 1005,0 hPa 0,0 l/m 1,5 km/h (1 Bft) S-SO 164 0 min 0,000 mm 0,0 UV-I 0 W/m 0,4 C 1,3 C 3,2 km/h (1 Bft) 94,29 %
31.01.2018 23:38 1,3 C 4,4 C 95 % 1004,9 hPa 0,0 l/m 4,9 km/h (1 Bft) SO 126 0 min 0,000 mm 0,0 UV-I 0 W/m 0,6 C 1,3 C 6,4 km/h (2 Bft) 96,23 %
31.01.2018 23:40 1,4 C 4,4 C 95 % 1005,0 hPa 0,0 l/m 2,7 km/h (1 Bft) SO 128 0 min 0,000 mm 0,0 UV-I 0 W/m 0,7 C 1,4 C 4,8 km/h (1 Bft) 94,00 %
31.01.2018 23:42 1,5 C 4,4 C 95 % 1005,1 hPa 0,0 l/m 5,1 km/h (1 Bft) W 274 0 min 0,000 mm 0,0 UV-I 0 W/m 0,8 C 1,5 C 9,7 km/h (2 Bft) 96,00 %
31.01.2018 23:44 1,4 C 4,4 C 94 % 1005,0 hPa 0,0 l/m 2,3 km/h (1 Bft) W 275 0 min 0,000 mm 0,0 UV-I 0 W/m 0,5 C 1,4 C 6,4 km/h (2 Bft) 95,45 %
31.01.2018 23:46 1,2 C 4,4 C 94 % 1004,9 hPa 0,0 l/m 1,9 km/h (1 Bft) W 275 0 min 0,000 mm 0,0 UV-I 0 W/m 0,3 C 1,2 C 3,2 km/h (1 Bft) 94,00 %
31.01.2018 23:48 1,1 C 4,4 C 94 % 1005,0 hPa 0,0 l/m 1,6 km/h (1 Bft) W 275 0 min 0,000 mm 0,0 UV-I 0 W/m 0,2 C 1,1 C 4,8 km/h (1 Bft) 94,74 %
31.01.2018 23:50 1,1 C 4,4 C 95 % 1004,9 hPa 0,0 l/m 2,6 km/h (1 Bft) W 275 0 min 0,000 mm 0,0 UV-I 0 W/m 0,4 C 1,1 C 4,8 km/h (1 Bft) 93,62 %
31.01.2018 23:52 1,2 C 4,4 C 95 % 1004,9 hPa 0,0 l/m 1,7 km/h (1 Bft) W 275 0 min 0,000 mm 0,0 UV-I 0 W/m 0,5 C 1,2 C 4,8 km/h (1 Bft) 92,45 %
31.01.2018 23:54 1,4 C 4,4 C 95 % 1004,9 hPa 0,0 l/m 3,1 km/h (1 Bft) W 267 0 min 0,000 mm 0,0 UV-I 0 W/m 0,7 C 1,4 C 4,8 km/h (1 Bft) 94,74 %
31.01.2018 23:56 1,3 C 4,4 C 95 % 1004,9 hPa 0,0 l/m 1,7 km/h (1 Bft) W 267 0 min 0,000 mm 0,0 UV-I 0 W/m 0,6 C 1,3 C 3,2 km/h (1 Bft) 95,74 %
31.01.2018 23:58 1,3 C 4,4 C 95 % 1004,8 hPa 0,0 l/m 0,7 km/h (0 Bft) W-SW 250 0 min 0,000 mm 0,0 UV-I 0 W/m 0,6 C 1,3 C 1,6 km/h (1 Bft) 95,74 %
_ Min-Zeit 00:20 00:00 14:10 23:58 - 00:06 - - - - - - 23:48 22:32 00:06 01:28
Minimum _ 1,1 C 4,4 C 79 % 1004,8 hPa - 0,0 km/h (0 Bft) - - - - - - 0,2 C -1,0 C 0,0 km/h (0 Bft) 89,47 %
_ Max-Zeit 13:56 00:00 05:28 00:02 17:56 18:06 - - 14:40 13:00 11:48 11:18 13:56 13:56 17:56 00:00
Maximum _ 8,4 C 4,4 C 98 % 1025,1 hPa 0,2 l/m 13,1 km/h
O (3 Bft)
- - 5 min 0,178 mm 1,0 UV-I 533 W/m 5,5 C 8,4 C 19,3 km/h
O-NO (3 Bft)
100,00 %
Durchschnitt _ 3,7 C 4,4 C 92 % 1016,2 hPa #0,2 l/m 3,4 km/h (1 Bft) O-NO - #6:06 h #0,864 mm 0,8 UV-I 197 W/m 2,5 C 3,5 C 5,6 km/h (1 Bft) 97,81 %